Darstellungsparameter: Aktuell verwendete Einstellungen:
Skalierung der Graphiken ... ?
xyx+y,   Skalierungsfaktor:      Skalierung: Modus: x, Faktor: 1
Darstellungszeitraum ... ?
Vom - - bis: - -   Zeitraum: 25.09.2019 - 24.03.2020
Min/Max/Avg-Anzeige ... ?
Zeige MMA aktuell
Zeige MMA Monat
Zeige MMA alles
Zeige --A aktuell
Zeige --A Monat
Zeige --A alles
Keine MMA-Anzeige
MMA:
Average (ber die Originaldaten)
MMA-Basis: 25.09.2019 - 24.03.2020
Quicknavigation für Darstellung... ?
Tage:      1T, 2T, 3T, 5T -1T -2T -3T -5T +1T +2T +3T +5T
Wochen: 1W, 2W, 3W -1W -2W -3W +1W +2W +3W
Monate: 1M, 3M, 6M -1M -3M -6M +1M +3M +6M
Jahre:    1J, 3J, 5J, 10J -1J -3J -5J -10J +1J +3J +5J +10J
Nutze für die Darstellung ... ?
Originaldaten oder Mittelwerte auf ...
Stundenbasis Tagesbasis Wochenbasis
Monatsbasis Jahresbasis      Datenbasis: Original-Daten
Darstellen als:
Statistik (Auto) Statistik J:M      Darstellung:
Zur Graphik,    zurück zur Übersicht aller Sensoren.
 
Tabellarische Datenbersicht: ?
 
Sensor: Nr:Datum:Temp:Feuchte:
Aussen-T/F 1 25-09-2019 00:05:18 13.6 C 31 %
2 25-09-2019 00:15:17 13.7 C 31 %
3 25-09-2019 00:25:17 13.7 C 31 %
4 25-09-2019 00:35:17 13.7 C 31 %
5 25-09-2019 00:45:17 13.7 C 31 %
6 25-09-2019 00:55:17 13.7 C 31 %
7 25-09-2019 01:05:18 13.8 C 31 %
8 25-09-2019 01:15:17 13.8 C 31 %
9 25-09-2019 01:25:17 13.8 C 31 %
10 25-09-2019 01:35:17 13.8 C 31 %
11 25-09-2019 01:45:17 14 C 30 %
12 25-09-2019 01:55:17 14.2 C 28 %
13 25-09-2019 02:05:17 14.5 C 26 %
14 25-09-2019 02:15:18 14.3 C 27 %
15 25-09-2019 02:25:18 14.7 C 26 %
16 25-09-2019 02:35:17 14.6 C 26 %
17 25-09-2019 02:45:17 14.6 C 26 %
18 25-09-2019 02:55:18 14.4 C 27 %
19 25-09-2019 03:05:17 14.4 C 28 %
20 25-09-2019 03:15:18 14.4 C 28 %
21 25-09-2019 03:25:18 14.6 C 27 %
22 25-09-2019 03:35:17 14.5 C 27 %
23 25-09-2019 03:45:17 14.3 C 28 %
24 25-09-2019 03:55:17 14.3 C 30 %
25 25-09-2019 04:05:17 14.2 C 30 %
Sensor: Nr:Datum:Temp:Feuchte:
Aussen-T/F 26 25-09-2019 04:15:17 14.2 C 31 %
27 25-09-2019 04:25:17 14.2 C 31 %
28 25-09-2019 04:35:17 14.1 C 31 %
29 25-09-2019 04:45:17 14.2 C 29 %
30 25-09-2019 04:55:17 14 C 28 %
31 25-09-2019 05:05:17 13.9 C 29 %
32 25-09-2019 05:15:17 13.8 C 29 %
33 25-09-2019 05:25:17 13.6 C 29 %
34 25-09-2019 05:35:17 13.5 C 28 %
35 25-09-2019 05:45:17 13.4 C 28 %
36 25-09-2019 05:55:17 13.4 C 28 %
37 25-09-2019 06:05:17 13.4 C 28 %
38 25-09-2019 06:15:17 13.2 C 29 %
39 25-09-2019 06:25:17 13.2 C 30 %
40 25-09-2019 06:35:17 13.3 C 30 %
41 25-09-2019 06:45:17 13.5 C 28 %
42 25-09-2019 06:55:17 13.5 C 28 %
43 25-09-2019 07:05:17 13.4 C 29 %
44 25-09-2019 07:15:18 13.4 C 29 %
45 25-09-2019 07:25:18 13.7 C 27 %
46 25-09-2019 07:35:17 13.6 C 27 %
47 25-09-2019 07:45:17 13.5 C 27 %
48 25-09-2019 07:55:18 13.5 C 27 %
49 25-09-2019 08:05:17 13.3 C 29 %
50 25-09-2019 08:15:18 13.4 C 30 %
Sensor: Nr:Datum:Temp:Feuchte:
Aussen-T/F 51 25-09-2019 08:25:18 13.5 C 30 %
52 25-09-2019 08:35:17 13.7 C 29 %
53 25-09-2019 08:45:17 13.8 C 29 %
54 25-09-2019 08:55:17 14 C 28 %
55 25-09-2019 09:05:18 14 C 28 %
56 25-09-2019 09:15:17 14 C 28 %
57 25-09-2019 09:25:17 14.4 C 27 %
58 25-09-2019 09:35:17 14.6 C 26 %
59 25-09-2019 09:45:17 14.6 C 26 %
60 25-09-2019 09:55:17 14.5 C 25 %
61 25-09-2019 10:05:17 14.5 C 26 %
62 25-09-2019 10:15:17 15.3 C 23 %
63 25-09-2019 10:25:17 15.7 C 22 %
64 25-09-2019 10:35:17 15.8 C 21 %
65 25-09-2019 10:45:17 15.7 C 22 %
66 25-09-2019 10:55:17 16 C 20 %
67 25-09-2019 11:05:18 16.2 C 20 %
68 25-09-2019 11:15:17 16.5 C 20 %
69 25-09-2019 11:25:17 16.8 C 20 %
70 25-09-2019 11:35:17 17 C 20 %
71 25-09-2019 11:45:17 17.1 C 20 %
72 25-09-2019 11:55:17 16.8 C 20 %
73 25-09-2019 12:05:18 17.2 C 20 %
74 25-09-2019 12:15:17 17.6 C 20 %
75 25-09-2019 12:25:17 18 C 20 %
Sensor: Nr:Datum:Temp:Feuchte:
Aussen-T/F 76 25-09-2019 12:35:17 17.1 C 20 %
77 25-09-2019 12:45:17 17.4 C 20 %
78 25-09-2019 12:55:17 17.9 C 20 %
79 25-09-2019 13:05:17 17.6 C 20 %
80 25-09-2019 13:15:18 17.7 C 20 %
81 25-09-2019 13:25:18 17.9 C 20 %
82 25-09-2019 13:35:17 18.4 C 20 %
83 25-09-2019 13:45:18 18.1 C 20 %
84 25-09-2019 13:55:18 19.1 C 20 %
85 25-09-2019 14:05:17 18.8 C 20 %
86 25-09-2019 14:15:18 18.1 C 20 %
87 25-09-2019 14:25:18 17.6 C 20 %
88 25-09-2019 14:35:17 16.9 C 20 %
89 25-09-2019 14:45:18 16.8 C 20 %
90 25-09-2019 14:55:18 15.4 C 20 %
91 25-09-2019 15:05:18 15.6 C 22 %
92 25-09-2019 15:15:17 16.2 C 21 %
93 25-09-2019 15:25:17 16.8 C 20 %
94 25-09-2019 15:35:17 17.1 C 20 %
95 25-09-2019 15:45:17 16.8 C 20 %
96 25-09-2019 15:55:17 19.5 C 20 %
97 25-09-2019 16:05:17 20 C 20 %
98 25-09-2019 16:15:17 19.7 C 20 %
99 25-09-2019 16:25:17 20.9 C 20 %
100 25-09-2019 16:35:17 19.8 C 20 %
Sensor: Nr:Datum:Temp:Feuchte:
Aussen-T/F 101 25-09-2019 16:45:17 17.7 C 20 %
102 25-09-2019 16:55:17 18.9 C 20 %
103 25-09-2019 17:05:17 19.3 C 20 %
104 25-09-2019 17:15:18 17.9 C 20 %
105 25-09-2019 17:25:18 17.6 C 20 %
106 25-09-2019 17:35:17 17.9 C 20 %
107 25-09-2019 17:45:18 17.7 C 20 %
108 25-09-2019 17:55:18 17.7 C 20 %
109 25-09-2019 18:05:17 17.2 C 20 %
110 25-09-2019 18:15:17 16.4 C 20 %
111 25-09-2019 18:25:17 16.3 C 20 %
112 25-09-2019 18:35:17 16 C 20 %
113 25-09-2019 18:45:17 15.8 C 20 %
114 25-09-2019 18:55:18 15.8 C 20 %
115 25-09-2019 19:05:17 15.8 C 20 %
116 25-09-2019 19:15:18 15.6 C 20 %
117 25-09-2019 19:25:18 15.4 C 20 %
118 25-09-2019 19:35:17 15.2 C 21 %
119 25-09-2019 19:45:18 15.1 C 21 %
120 25-09-2019 19:55:18 14.8 C 25 %
121 25-09-2019 20:05:17 14.6 C 25 %
122 25-09-2019 20:15:17 14.6 C 26 %
123 25-09-2019 20:25:17 14.5 C 26 %
124 25-09-2019 20:35:18 14.5 C 26 %
125 25-09-2019 20:45:17 14.4 C 26 %
Sensor: Nr:Datum:Temp:Feuchte:
Aussen-T/F 126 25-09-2019 20:55:17 14.4 C 26 %
127 25-09-2019 21:05:17 14.4 C 26 %
128 25-09-2019 21:15:17 14.4 C 26 %
129 25-09-2019 21:25:17 14.4 C 26 %
130 25-09-2019 21:35:17 14.3 C 26 %
131 25-09-2019 21:45:18 14.5 C 26 %
132 25-09-2019 21:55:18 14.4 C 26 %
133 25-09-2019 22:05:17 14.2 C 27 %
134 25-09-2019 22:15:18 14.2 C 27 %
135 25-09-2019 22:25:18 14.2 C 28 %
136 25-09-2019 22:35:17 14.2 C 30 %
137 25-09-2019 22:45:17 14.2 C 30 %
138 25-09-2019 22:55:17 14.2 C 30 %
139 25-09-2019 23:05:17 14.2 C 30 %
140 25-09-2019 23:15:18 14.2 C 30 %
141 25-09-2019 23:25:18 14.1 C 30 %
142 25-09-2019 23:35:17 14.2 C 30 %
143 25-09-2019 23:45:18 14.2 C 30 %
144 25-09-2019 23:55:18 14.2 C 30 %
145 26-09-2019 00:05:17 14.1 C 30 %
146 26-09-2019 00:15:17 14.2 C 29 %
147 26-09-2019 00:25:17 14.1 C 30 %
148 26-09-2019 00:35:17 14.1 C 30 %
149 26-09-2019 00:45:18 14.1 C 30 %
150 26-09-2019 00:55:18 14.1 C 30 %
Sensor: Nr:Datum:Temp:Feuchte:
Aussen-T/F 151 26-09-2019 01:05:17 14 C 30 %
152 26-09-2019 01:15:17 13.9 C 30 %
153 26-09-2019 01:25:17 13.8 C 30 %
154 26-09-2019 01:35:17 13.5 C 30 %
155 26-09-2019 01:45:18 13.5 C 31 %
156 26-09-2019 01:55:18 13.8 C 31 %
157 26-09-2019 02:05:17 13.8 C 31 %
158 26-09-2019 02:15:18 13.6 C 31 %
159 26-09-2019 02:25:18 13.6 C 31 %
160 26-09-2019 02:35:17 13.8 C 31 %
161 26-09-2019 02:45:17 13.8 C 31 %
162 26-09-2019 02:55:18 13.5 C 31 %
163 26-09-2019 03:05:17 13.1 C 30 %
164 26-09-2019 03:15:17 13 C 31 %
165 26-09-2019 03:25:17 13 C 31 %
166 26-09-2019 03:35:17 12.9 C 32 %
167 26-09-2019 03:45:17 12.8 C 32 %
168 26-09-2019 03:55:17 12.8 C 32 %
169 26-09-2019 04:05:18 12.6 C 32 %
170 26-09-2019 04:15:17 12.4 C 32 %
171 26-09-2019 04:25:17 12.7 C 33 %
172 26-09-2019 04:35:18 12.6 C 33 %
173 26-09-2019 04:45:17 12.9 C 33 %
174 26-09-2019 04:55:17 13.2 C 32 %
175 26-09-2019 05:05:18 13.4 C 32 %
Sensor: Nr:Datum:Temp:Feuchte:
Aussen-T/F 176 26-09-2019 05:15:17 13.5 C 32 %
177 26-09-2019 05:25:17 13.6 C 32 %
178 26-09-2019 05:35:17 13.6 C 31 %
179 26-09-2019 05:45:17 13.4 C 31 %
180 26-09-2019 05:55:17 13.5 C 31 %
181 26-09-2019 06:05:17 13.6 C 31 %
182 26-09-2019 06:15:17 14 C 30 %
183 26-09-2019 06:25:17 14.1 C 28 %
184 26-09-2019 06:35:17 14.1 C 29 %
185 26-09-2019 06:45:17 14 C 30 %
186 26-09-2019 06:55:17 14 C 29 %
187 26-09-2019 07:05:17 14.1 C 29 %
188 26-09-2019 07:15:17 14.1 C 29 %
189 26-09-2019 07:25:17 14.2 C 29 %
190 26-09-2019 07:35:17 14.3 C 29 %
191 26-09-2019 07:45:17 14.4 C 29 %
192 26-09-2019 07:55:17 14.5 C 28 %
193 26-09-2019 08:05:17 14.7 C 27 %
194 26-09-2019 08:15:18 14.6 C 28 %
195 26-09-2019 08:25:18 14.5 C 28 %
196 26-09-2019 08:35:17 14.5 C 28 %
197 26-09-2019 08:45:18 14.5 C 28 %
198 26-09-2019 08:55:18 14.8 C 28 %
199 26-09-2019 09:05:17 14.8 C 28 %
200 26-09-2019 09:15:17 14.8 C 28 %
Sensor: Nr:Datum:Temp:Feuchte:
Aussen-T/F 201 26-09-2019 09:25:17 14.9 C 27 %
202 26-09-2019 09:35:17 14.9 C 27 %
203 26-09-2019 09:45:17 15 C 26 %
204 26-09-2019 09:55:17 15.2 C 26 %
205 26-09-2019 10:05:17 15.3 C 27 %
206 26-09-2019 10:15:17 15.5 C 27 %
207 26-09-2019 10:25:17 16.1 C 26 %
208 26-09-2019 10:35:17 16.2 C 26 %
209 26-09-2019 10:45:17 16.4 C 26 %
210 26-09-2019 10:55:17 16.4 C 25 %
211 26-09-2019 11:05:17 16.2 C 26 %
212 26-09-2019 11:15:17 16.5 C 26 %
213 26-09-2019 11:25:17 16.5 C 26 %
214 26-09-2019 11:35:17 16.6 C 25 %
215 26-09-2019 11:45:17 16.6 C 25 %
216 26-09-2019 11:55:17 17.4 C 25 %
217 26-09-2019 12:05:17 17.7 C 23 %
218 26-09-2019 12:15:17 17.8 C 23 %
219 26-09-2019 12:25:17 17.8 C 23 %
220 26-09-2019 12:35:17 17.8 C 23 %
221 26-09-2019 12:45:17 17.7 C 24 %
222 26-09-2019 12:55:17 17.4 C 25 %
223 26-09-2019 13:05:18 17.3 C 25 %
224 26-09-2019 13:15:17 17.2 C 25 %
225 26-09-2019 13:25:17 17.5 C 25 %
Sensor: Nr:Datum:Temp:Feuchte:
Aussen-T/F 226 26-09-2019 13:35:17 17.4 C 25 %
227 26-09-2019 13:45:17 17.2 C 25 %
228 26-09-2019 13:55:17 17 C 25 %
229 26-09-2019 14:05:17 16.9 C 26 %
230 26-09-2019 14:15:17 17 C 25 %
231 26-09-2019 14:25:17 17.3 C 25 %
232 26-09-2019 14:35:17 17.9 C 25 %
233 26-09-2019 14:45:17 18.6 C 22 %
234 26-09-2019 14:55:17 18.6 C 23 %
235 26-09-2019 15:05:17 18.1 C 23 %
236 26-09-2019 15:15:17 17.9 C 25 %
237 26-09-2019 15:25:17 17.7 C 25 %
238 26-09-2019 15:35:17 18.3 C 24 %
239 26-09-2019 15:45:17 19.9 C 20 %
240 26-09-2019 15:55:17 19.5 C 20 %
241 26-09-2019 16:05:17 19.7 C 20 %
242 26-09-2019 16:15:17 19.1 C 21 %
243 26-09-2019 16:25:17 18.7 C 22 %
244 26-09-2019 16:35:17 18.8 C 21 %
245 26-09-2019 16:45:18 18.8 C 21 %
246 26-09-2019 16:55:18 19.1 C 20 %
247 26-09-2019 17:05:17 19.3 C 20 %
248 26-09-2019 17:15:17 19.3 C 20 %
249 26-09-2019 17:25:17 19.1 C 20 %
250 26-09-2019 17:35:17 19 C 20 %
Sensor: Nr:Datum:Temp:Feuchte:
Aussen-T/F 251 26-09-2019 17:45:17 18.9 C 21 %
252 26-09-2019 17:55:17 18.9 C 21 %
253 26-09-2019 18:05:17 18.8 C 22 %
254 26-09-2019 18:15:18 18.7 C 22 %
255 26-09-2019 18:25:18 18.6 C 22 %
256 26-09-2019 18:35:17 18.4 C 22 %
257 26-09-2019 18:45:17 18.3 C 23 %
258 26-09-2019 18:55:17 18.1 C 23 %
259 26-09-2019 19:05:17 17.8 C 25 %
260 26-09-2019 19:15:18 17.6 C 25 %
261 26-09-2019 19:25:18 17.4 C 25 %
262 26-09-2019 19:35:17 17.3 C 25 %
263 26-09-2019 19:45:17 17.1 C 26 %
264 26-09-2019 19:55:17 17.3 C 26 %
265 26-09-2019 20:05:17 17.2 C 25 %
266 26-09-2019 20:15:17 17.5 C 23 %
267 26-09-2019 20:25:17 17.4 C 23 %
268 26-09-2019 20:35:17 17.3 C 23 %
269 26-09-2019 20:45:17 17.2 C 23 %
270 26-09-2019 20:55:17 17.2 C 23 %
271 26-09-2019 21:05:18 17.1 C 23 %
272 26-09-2019 21:15:17 17.1 C 23 %
273 26-09-2019 21:25:17 17.2 C 23 %
274 26-09-2019 21:35:17 17.3 C 23 %
275 26-09-2019 21:45:17 17.6 C 22 %
Sensor: Nr:Datum:Temp:Feuchte:
Aussen-T/F 276 26-09-2019 21:55:17 17.7 C 22 %
277 26-09-2019 22:05:17 17.7 C 22 %
278 26-09-2019 22:15:17 17.7 C 22 %
279 26-09-2019 22:25:17 17.7 C 21 %
280 26-09-2019 22:35:17 17.8 C 21 %
281 26-09-2019 22:45:17 17.8 C 21 %
282 26-09-2019 22:55:17 18 C 21 %
283 26-09-2019 23:05:18 17.9 C 21 %
284 26-09-2019 23:15:17 17.9 C 21 %
285 26-09-2019 23:25:17 17.7 C 21 %
286 26-09-2019 23:35:17 17.5 C 21 %
287 26-09-2019 23:45:17 17.8 C 21 %
288 26-09-2019 23:55:17 18.2 C 20 %
289 27-09-2019 00:05:18 18.3 C 20 %
290 27-09-2019 00:15:18 17.9 C 20 %
291 27-09-2019 00:25:18 18 C 20 %
292 27-09-2019 00:35:17 18 C 20 %
293 27-09-2019 00:45:17 17.8 C 20 %
294 27-09-2019 00:55:18 17.8 C 20 %
295 27-09-2019 01:05:17 17.8 C 20 %
296 27-09-2019 01:15:17 18.2 C 20 %
297 27-09-2019 01:25:17 18.2 C 20 %
298 27-09-2019 01:35:17 18.3 C 20 %
299 27-09-2019 01:45:18 18.2 C 20 %
300 27-09-2019 01:55:18 18.2 C 20 %
Sensor: Nr:Datum:Temp:Feuchte:
Aussen-T/F 301 27-09-2019 02:05:17 18.1 C 20 %
302 27-09-2019 02:15:17 18.2 C 20 %
303 27-09-2019 02:25:17 17.9 C 20 %
304 27-09-2019 02:35:17 17.8 C 20 %
305 27-09-2019 02:45:17 16.7 C 21 %
306 27-09-2019 02:55:17 16.4 C 22 %
307 27-09-2019 03:05:17 16.1 C 24 %
308 27-09-2019 03:15:17 15.9 C 26 %
309 27-09-2019 03:25:17 15.9 C 26 %
310 27-09-2019 03:35:17 16 C 25 %
311 27-09-2019 03:45:17 16.1 C 25 %
312 27-09-2019 03:55:17 16.1 C 25 %
313 27-09-2019 04:05:17 16.1 C 25 %
314 27-09-2019 04:15:18 16.1 C 25 %
315 27-09-2019 04:25:18 15.8 C 26 %
316 27-09-2019 04:35:17 15.6 C 27 %
317 27-09-2019 04:45:18 15.9 C 26 %
318 27-09-2019 04:55:18 15.7 C 27 %
319 27-09-2019 05:05:17 15.7 C 26 %
320 27-09-2019 05:15:18 15.7 C 26 %
321 27-09-2019 05:25:18 15.5 C 27 %
322 27-09-2019 05:35:17 15.6 C 27 %
323 27-09-2019 05:45:18 15.4 C 28 %
324 27-09-2019 05:55:18 15.3 C 30 %
325 27-09-2019 06:05:17 15.3 C 31 %
Sensor: Nr:Datum:Temp:Feuchte:
Aussen-T/F 326 27-09-2019 06:15:17 15.2 C 31 %
327 27-09-2019 06:25:17 15.2 C 32 %
328 27-09-2019 06:35:17 15.2 C 32 %
329 27-09-2019 06:45:17 15 C 31 %
330 27-09-2019 06:55:17 14.1 C 28 %
331 27-09-2019 07:05:17 14 C 28 %
332 27-09-2019 07:15:17 13.8 C 30 %
333 27-09-2019 07:25:17 13.9 C 31 %
334 27-09-2019 07:35:17 13.8 C 30 %
335 27-09-2019 07:45:17 13.8 C 29 %
336 27-09-2019 07:55:17 13.7 C 28 %
337 27-09-2019 08:05:18 13.6 C 29 %
338 27-09-2019 08:15:18 13.6 C 29 %
339 27-09-2019 08:25:18 13.6 C 29 %
340 27-09-2019 08:35:17 13.7 C 30 %
341 27-09-2019 08:45:17 13.5 C 30 %
342 27-09-2019 08:55:17 13.4 C 30 %
343 27-09-2019 09:05:17 13.6 C 29 %
344 27-09-2019 09:15:17 13.8 C 27 %
345 27-09-2019 09:25:17 13.7 C 27 %
346 27-09-2019 09:35:18 13.7 C 27 %
347 27-09-2019 09:45:17 14 C 26 %
348 27-09-2019 09:55:17 14.2 C 26 %
349 27-09-2019 10:05:17 14.4 C 26 %
350 27-09-2019 10:15:18 14.8 C 26 %
Sensor: Nr:Datum:Temp:Feuchte:
Aussen-T/F 351 27-09-2019 10:25:18 15 C 25 %
352 27-09-2019 10:35:17 15 C 25 %
353 27-09-2019 10:45:18 15.1 C 25 %
354 27-09-2019 10:55:18 15.4 C 25 %
355 27-09-2019 11:05:17 15.7 C 24 %
356 27-09-2019 11:15:18 15.7 C 24 %
357 27-09-2019 11:25:18 15.3 C 24 %
358 27-09-2019 11:35:17 15.2 C 25 %
359 27-09-2019 11:45:18 15.6 C 24 %
360 27-09-2019 11:55:18 16.1 C 22 %
361 27-09-2019 12:05:17 16.1 C 22 %
362 27-09-2019 12:15:17 16 C 22 %
363 27-09-2019 12:25:17 16.4 C 22 %
364 27-09-2019 12:35:18 16.6 C 21 %
365 27-09-2019 12:45:17 16.8 C 21 %
366 27-09-2019 12:55:17 17.2 C 20 %
367 27-09-2019 13:05:17 17.2 C 20 %
368 27-09-2019 13:15:17 17.2 C 20 %
369 27-09-2019 13:25:17 17.4 C 20 %
370 27-09-2019 13:35:17 17.7 C 20 %
371 27-09-2019 13:45:17 18 C 20 %
372 27-09-2019 13:55:17 18.9 C 20 %
373 27-09-2019 14:05:17 19.1 C 20 %
374 27-09-2019 14:15:17 19.9 C 20 %
375 27-09-2019 14:25:17 19 C 20 %
Sensor: Nr:Datum:Temp:Feuchte:
Aussen-T/F 376 27-09-2019 14:35:17 19.3 C 20 %
377 27-09-2019 14:45:17 19 C 20 %
378 27-09-2019 14:55:17 19.3 C 20 %
379 27-09-2019 15:05:17 19 C 20 %
380 27-09-2019 15:15:17 18.8 C 20 %
381 27-09-2019 15:25:17 18.6 C 20 %
382 27-09-2019 15:35:18 18.6 C 20 %
383 27-09-2019 15:45:17 18.1 C 20 %
384 27-09-2019 15:55:17 17.6 C 20 %
385 27-09-2019 16:05:17 18.9 C 20 %
386 27-09-2019 16:15:17 19.9 C 20 %
387 27-09-2019 16:25:17 22.4 C 20 %
388 27-09-2019 16:35:17 22 C 20 %
389 27-09-2019 16:45:18 22.8 C 20 %
390 27-09-2019 16:55:18 21.3 C 20 %
391 27-09-2019 17:05:17 21.7 C 20 %
392 27-09-2019 17:15:17 21.6 C 20 %
393 27-09-2019 17:25:17 19.9 C 20 %
394 27-09-2019 17:35:18 20.2 C 20 %
395 27-09-2019 17:45:17 19.4 C 20 %
396 27-09-2019 17:55:17 18.8 C 20 %
397 27-09-2019 18:05:18 18.2 C 20 %
398 27-09-2019 18:15:17 17.7 C 20 %
399 27-09-2019 18:25:17 17.4 C 20 %
400 27-09-2019 18:35:17 17.9 C 20 %
Sensor: Nr:Datum:Temp:Feuchte:
Aussen-T/F 401 27-09-2019 18:45:17 17.7 C 20 %
402 27-09-2019 18:55:17 17.1 C 20 %
403 27-09-2019 19:05:17 16.4 C 20 %
404 27-09-2019 19:15:17 15.6 C 20 %
405 27-09-2019 19:25:17 15.5 C 20 %
406 27-09-2019 19:35:17 15.5 C 20 %
407 27-09-2019 19:45:17 15.4 C 20 %
408 27-09-2019 19:55:17 15.1 C 20 %
409 27-09-2019 20:05:18 15.2 C 20 %
410 27-09-2019 20:15:17 15.1 C 20 %
411 27-09-2019 20:25:17 15.1 C 21 %
412 27-09-2019 20:35:17 15 C 22 %
413 27-09-2019 20:45:17 14.7 C 25 %
414 27-09-2019 20:55:17 14.3 C 25 %
415 27-09-2019 21:05:17 14.1 C 25 %
416 27-09-2019 21:15:17 13.9 C 25 %
417 27-09-2019 21:25:17 13.8 C 25 %
418 27-09-2019 21:35:17 13.9 C 25 %
419 27-09-2019 21:45:17 13.8 C 26 %
420 27-09-2019 21:55:17 13.7 C 26 %
421 27-09-2019 22:05:17 13.7 C 27 %
422 27-09-2019 22:15:18 13.6 C 27 %
423 27-09-2019 22:25:18 13.3 C 26 %
424 27-09-2019 22:35:17 13.1 C 27 %
425 27-09-2019 22:45:18 13.1 C 28 %
Sensor: Nr:Datum:Temp:Feuchte:
Aussen-T/F 426 27-09-2019 22:55:18 13.4 C 30 %
427 27-09-2019 23:05:17 13.6 C 29 %
428 27-09-2019 23:15:17 13.1 C 28 %
429 27-09-2019 23:25:17 12.9 C 29 %
430 27-09-2019 23:35:17 12.8 C 30 %
431 27-09-2019 23:45:17 12.7 C 30 %
432 27-09-2019 23:55:17 12.5 C 30 %
433 28-09-2019 00:05:18 12.4 C 30 %
434 28-09-2019 00:15:17 12.3 C 30 %
435 28-09-2019 00:25:17 12.1 C 30 %
436 28-09-2019 00:35:17 12.2 C 31 %
437 28-09-2019 00:45:17 12.3 C 31 %
438 28-09-2019 00:55:17 12.1 C 31 %
439 28-09-2019 01:05:18 12.3 C 31 %
440 28-09-2019 01:15:17 12.2 C 31 %
441 28-09-2019 01:25:17 12.2 C 31 %
442 28-09-2019 01:35:18 12.6 C 30 %
443 28-09-2019 01:45:17 13 C 28 %
444 28-09-2019 01:55:17 14.2 C 25 %
445 28-09-2019 02:05:18 14.2 C 25 %
446 28-09-2019 02:15:17 14.7 C 24 %
447 28-09-2019 02:25:17 14.7 C 23 %
448 28-09-2019 02:35:17 14.6 C 23 %
449 28-09-2019 02:45:17 14.8 C 23 %
450 28-09-2019 02:55:17 14.9 C 23 %
Sensor: Nr:Datum:Temp:Feuchte:
Aussen-T/F 451 28-09-2019 03:05:18 14.9 C 23 %
452 28-09-2019 03:15:17 15.2 C 22 %
453 28-09-2019 03:25:17 14.8 C 23 %
454 28-09-2019 03:35:17 14.4 C 25 %
455 28-09-2019 03:45:17 14.1 C 26 %
456 28-09-2019 03:55:17 13.7 C 26 %
457 28-09-2019 04:05:17 13.8 C 27 %
458 28-09-2019 04:15:18 13.5 C 27 %
459 28-09-2019 04:25:18 14 C 26 %
460 28-09-2019 04:35:17 13.7 C 26 %
461 28-09-2019 04:45:17 14.1 C 25 %
462 28-09-2019 04:55:17 14.1 C 25 %
463 28-09-2019 05:05:17 14.1 C 25 %
464 28-09-2019 05:15:17 14 C 25 %
465 28-09-2019 05:25:17 14.1 C 25 %
466 28-09-2019 05:35:17 14 C 25 %
467 28-09-2019 05:45:18 14.2 C 25 %
468 28-09-2019 05:55:18 14.2 C 25 %
469 28-09-2019 06:05:17 14.4 C 25 %
470 28-09-2019 06:15:17 14.1 C 25 %
471 28-09-2019 06:25:17 14 C 25 %
472 28-09-2019 06:35:18 14.4 C 25 %
473 28-09-2019 06:45:17 13.8 C 26 %
474 28-09-2019 06:55:17 13.8 C 26 %
475 28-09-2019 07:05:17 13.5 C 26 %
Sensor: Nr:Datum:Temp:Feuchte:
Aussen-T/F 476 28-09-2019 07:15:17 13.6 C 27 %
477 28-09-2019 07:25:17 13.3 C 29 %
478 28-09-2019 07:35:17 13.5 C 28 %
479 28-09-2019 07:45:18 13.5 C 29 %
480 28-09-2019 07:55:18 13.4 C 30 %
481 28-09-2019 08:05:17 13.2 C 30 %
482 28-09-2019 08:15:18 13.8 C 26 %
483 28-09-2019 08:25:18 13.8 C 25 %
484 28-09-2019 08:35:17 13.7 C 26 %
485 28-09-2019 08:45:18 13.5 C 26 %
486 28-09-2019 08:55:18 13.8 C 25 %
487 28-09-2019 09:05:17 14.1 C 25 %
488 28-09-2019 09:15:17 14.5 C 24 %
489 28-09-2019 09:25:17 14.3 C 24 %
490 28-09-2019 09:35:18 14.5 C 23 %
491 28-09-2019 09:45:17 14.4 C 23 %
492 28-09-2019 09:55:17 14.8 C 22 %
493 28-09-2019 10:05:18 15 C 21 %
494 28-09-2019 10:15:17 15.5 C 20 %
495 28-09-2019 10:25:17 15.6 C 20 %
496 28-09-2019 10:35:17 16 C 20 %
497 28-09-2019 10:45:17 16.2 C 20 %
498 28-09-2019 10:55:17 16.1 C 20 %
499 28-09-2019 11:05:18 16 C 20 %
500 28-09-2019 11:15:17 16.6 C 20 %
Sensor: Nr:Datum:Temp:Feuchte:
Aussen-T/F 501 28-09-2019 11:25:17 16.7 C 20 %
502 28-09-2019 11:35:18 17 C 20 %
503 28-09-2019 11:45:17 16.6 C 20 %
504 28-09-2019 11:55:17 16.9 C 20 %
505 28-09-2019 12:05:17 17.1 C 20 %
506 28-09-2019 12:15:17 17.4 C 20 %
507 28-09-2019 12:25:17 17.3 C 20 %
508 28-09-2019 12:35:17 17.2 C 20 %
509 28-09-2019 12:45:17 17.4 C 20 %
510 28-09-2019 12:55:17 17.8 C 20 %
511 28-09-2019 13:05:18 17.5 C 20 %
512 28-09-2019 13:15:17 17.6 C 20 %
513 28-09-2019 13:25:17 17.4 C 20 %
514 28-09-2019 13:35:17 17.7 C 20 %
515 28-09-2019 13:45:17 17.8 C 20 %
516 28-09-2019 13:55:17 17.9 C 20 %
517 28-09-2019 14:05:17 18.3 C 20 %
518 28-09-2019 14:15:17 18.3 C 20 %
519 28-09-2019 14:25:18 17.8 C 20 %
520 28-09-2019 14:35:17 18.1 C 20 %
521 28-09-2019 14:45:18 17.8 C 20 %
522 28-09-2019 14:55:18 18.4 C 20 %
523 28-09-2019 15:05:17 18.1 C 20 %
524 28-09-2019 15:15:17 17.7 C 20 %
525 28-09-2019 15:25:17 17.3 C 20 %
Sensor: Nr:Datum:Temp:Feuchte:
Aussen-T/F 526 28-09-2019 15:35:17 17.5 C 20 %
527 28-09-2019 15:45:18 17.3 C 20 %
528 28-09-2019 15:55:18 16.8 C 20 %
529 28-09-2019 16:05:17 17.1 C 20 %
530 28-09-2019 16:15:17 19.7 C 20 %
531 28-09-2019 16:25:17 20.3 C 20 %
532 28-09-2019 16:35:17 19.6 C 20 %
533 28-09-2019 16:45:17 19 C 20 %
534 28-09-2019 16:55:17 18.7 C 20 %
535 28-09-2019 17:05:17 18.6 C 20 %
536 28-09-2019 17:15:18 17.3 C 20 %
537 28-09-2019 17:25:18 19 C 20 %
538 28-09-2019 17:35:17 19.2 C 20 %
539 28-09-2019 17:45:18 18.3 C 20 %
540 28-09-2019 17:55:18 17.7 C 20 %
541 28-09-2019 18:05:17 17.7 C 20 %
542 28-09-2019 18:15:17 17.3 C 20 %
543 28-09-2019 18:25:17 17 C 20 %
544 28-09-2019 18:35:17 16.4 C 20 %
545 28-09-2019 18:45:18 16.2 C 20 %
546 28-09-2019 18:55:18 15.9 C 20 %
547 28-09-2019 19:05:17 15.8 C 20 %
548 28-09-2019 19:15:17 15.4 C 20 %
549 28-09-2019 19:25:17 15.6 C 20 %
550 28-09-2019 19:35:17 15.6 C 20 %
Sensor: Nr:Datum:Temp:Feuchte:
Aussen-T/F 551 28-09-2019 19:45:17 15.9 C 20 %
552 28-09-2019 19:55:17 15.9 C 20 %
553 28-09-2019 20:05:18 15.6 C 20 %
554 28-09-2019 20:15:17 15.3 C 20 %
555 28-09-2019 20:25:17 15 C 20 %
556 28-09-2019 20:35:17 14.8 C 20 %
557 28-09-2019 20:45:17 15.3 C 20 %
558 28-09-2019 20:55:17 15.4 C 20 %
559 28-09-2019 21:05:17 14.8 C 20 %
560 28-09-2019 21:15:18 14.7 C 20 %
561 28-09-2019 21:25:18 15.1 C 20 %
562 28-09-2019 21:35:17 15.1 C 20 %
563 28-09-2019 21:45:18 15.3 C 20 %
564 28-09-2019 21:55:18 15.4 C 20 %
565 28-09-2019 22:05:17 15.4 C 20 %
566 28-09-2019 22:15:17 15.4 C 20 %
567 28-09-2019 22:25:17 15.1 C 20 %
568 28-09-2019 22:35:17 14.8 C 20 %
569 28-09-2019 22:45:17 14.2 C 20 %
570 28-09-2019 22:55:17 14.1 C 20 %
571 28-09-2019 23:05:17 13.4 C 20 %
572 28-09-2019 23:15:17 13.8 C 20 %
573 28-09-2019 23:25:17 13.9 C 20 %
574 28-09-2019 23:35:17 14.7 C 20 %
575 28-09-2019 23:45:17 14 C 20 %
Sensor: Nr:Datum:Temp:Feuchte:
Aussen-T/F 576 28-09-2019 23:55:17 14 C 20 %
577 29-09-2019 00:05:17 13.8 C 20 %
578 29-09-2019 00:15:17 13.9 C 20 %
579 29-09-2019 00:25:17 14.3 C 20 %
580 29-09-2019 00:35:17 14.2 C 20 %
581 29-09-2019 00:45:18 14.2 C 20 %
582 29-09-2019 00:55:18 14 C 20 %
583 29-09-2019 01:05:17 14.1 C 20 %
584 29-09-2019 01:15:18 13.9 C 20 %
585 29-09-2019 01:25:18 13.7 C 20 %
586 29-09-2019 01:35:17 13.5 C 20 %
587 29-09-2019 01:45:17 13.4 C 21 %
588 29-09-2019 01:55:17 13.4 C 22 %
589 29-09-2019 02:05:17 13.3 C 22 %
590 29-09-2019 02:15:17 13.2 C 23 %
591 29-09-2019 02:25:18 13.2 C 23 %
592 29-09-2019 02:35:17 13.3 C 23 %
593 29-09-2019 02:45:18 13.7 C 23 %
594 29-09-2019 02:55:18 13.3 C 24 %
595 29-09-2019 03:05:17 13.2 C 24 %
596 29-09-2019 03:15:18 13.2 C 25 %
597 29-09-2019 03:25:18 13.2 C 24 %
598 29-09-2019 03:35:17 13.1 C 25 %
599 29-09-2019 03:45:17 13.1 C 25 %
600 29-09-2019 03:55:17 13.2 C 25 %
Sensor: Nr:Datum:Temp:Feuchte:
Aussen-T/F 601 29-09-2019 04:05:17 13.3 C 25 %
602 29-09-2019 04:15:17 13.2 C 25 %
603 29-09-2019 04:25:17 13.3 C 25 %
604 29-09-2019 04:35:17 13.4 C 25 %
605 29-09-2019 04:45:17 13.5 C 25 %
606 29-09-2019 04:55:17 13.7 C 24 %
607 29-09-2019 05:05:18 13.6 C 25 %
608 29-09-2019 05:15:17 13.8 C 23 %
609 29-09-2019 05:25:17 13.7 C 23 %
610 29-09-2019 05:35:18 13.5 C 22 %
611 29-09-2019 05:45:17 13.7 C 23 %
612 29-09-2019 05:55:17 13.6 C 22 %
613 29-09-2019 06:05:17 13.8 C 21 %
614 29-09-2019 06:15:17 13.8 C 21 %
615 29-09-2019 06:25:17 13.7 C 21 %
616 29-09-2019 06:35:18 13.3 C 23 %
617 29-09-2019 06:45:17 13.4 C 21 %
618 29-09-2019 06:55:17 13.7 C 21 %
619 29-09-2019 07:05:18 13.7 C 21 %
620 29-09-2019 07:15:17 13.7 C 21 %
621 29-09-2019 07:25:17 13.7 C 21 %
622 29-09-2019 07:35:17 13.6 C 21 %
623 29-09-2019 07:45:17 14 C 21 %
624 29-09-2019 07:55:17 14.1 C 21 %
625 29-09-2019 08:05:18 14.6 C 20 %
Sensor: Nr:Datum:Temp:Feuchte:
Aussen-T/F 626 29-09-2019 08:15:17 14.8 C 20 %
627 29-09-2019 08:25:17 14.8 C 20 %
628 29-09-2019 08:35:17 14.8 C 20 %
629 29-09-2019 08:45:17 15.5 C 20 %
630 29-09-2019 08:55:17 16.2 C 20 %
631 29-09-2019 09:05:17 16.4 C 20 %
632 29-09-2019 09:15:17 16.7 C 20 %
633 29-09-2019 09:25:17 16.7 C 20 %
634 29-09-2019 09:35:17 16.8 C 20 %
635 29-09-2019 09:45:17 17 C 20 %
636 29-09-2019 09:55:17 17.3 C 20 %
637 29-09-2019 10:05:17 17.3 C 20 %
638 29-09-2019 10:15:17 17.3 C 20 %
639 29-09-2019 10:25:17 17.6 C 20 %
640 29-09-2019 10:35:17 17.9 C 20 %
641 29-09-2019 10:45:17 18.3 C 20 %
642 29-09-2019 10:55:17 17.9 C 20 %
643 29-09-2019 11:05:17 17.8 C 20 %
644 29-09-2019 11:15:17 17.7 C 20 %
645 29-09-2019 11:25:18 17.7 C 20 %
646 29-09-2019 11:35:17 18 C 20 %
647 29-09-2019 11:45:17 18.5 C 20 %
648 29-09-2019 11:55:17 19 C 20 %
649 29-09-2019 12:05:17 19 C 20 %
650 29-09-2019 12:15:17 18.7 C 20 %
Sensor: Nr:Datum:Temp:Feuchte:
Aussen-T/F 651 29-09-2019 12:25:17 18.5 C 20 %
652 29-09-2019 12:35:18 17.4 C 20 %
653 29-09-2019 12:45:17 17.7 C 20 %
654 29-09-2019 12:55:17 18.8 C 20 %
655 29-09-2019 13:05:18 18.6 C 20 %
656 29-09-2019 13:15:17 18.4 C 20 %
657 29-09-2019 13:25:17 17.9 C 20 %
658 29-09-2019 13:35:18 17.7 C 20 %
659 29-09-2019 13:45:17 18.4 C 20 %
660 29-09-2019 13:55:17 19 C 20 %
661 29-09-2019 14:05:18 18.9 C 20 %
662 29-09-2019 14:15:17 19.6 C 20 %
663 29-09-2019 14:25:17 19.3 C 20 %
664 29-09-2019 14:35:18 18.9 C 20 %
665 29-09-2019 14:45:17 18.5 C 20 %
666 29-09-2019 14:55:17 18.3 C 20 %
667 29-09-2019 15:05:18 18.4 C 20 %
668 29-09-2019 15:15:18 18.8 C 20 %
669 29-09-2019 15:25:18 19.1 C 20 %
670 29-09-2019 15:35:17 18.6 C 20 %
671 29-09-2019 15:45:17 18.5 C 20 %
672 29-09-2019 15:55:18 17.7 C 20 %
673 29-09-2019 16:05:17 16.7 C 20 %
674 29-09-2019 16:15:18 16.8 C 20 %
675 29-09-2019 16:25:18 17 C 20 %
Sensor: Nr:Datum:Temp:Feuchte:
Aussen-T/F 676 29-09-2019 16:35:17 16.9 C 20 %
677 29-09-2019 16:45:17 16.7 C 20 %
678 29-09-2019 16:55:17 16.7 C 20 %
679 29-09-2019 17:05:17 16.9 C 20 %
680 29-09-2019 17:15:17 16.9 C 20 %
681 29-09-2019 17:25:17 17.1 C 20 %
682 29-09-2019 17:35:17 17.3 C 20 %
683 29-09-2019 17:45:18 17.5 C 20 %
684 29-09-2019 17:55:18 17.7 C 20 %
685 29-09-2019 18:05:17 17.7 C 20 %
686 29-09-2019 18:15:17 17.6 C 20 %
687 29-09-2019 18:25:17 17.7 C 20 %
688 29-09-2019 18:35:17 16.9 C 20 %
689 29-09-2019 18:45:18 16.9 C 20 %
690 29-09-2019 18:55:18 17.4 C 20 %
691 29-09-2019 19:05:17 17.5 C 20 %
692 29-09-2019 19:15:18 17.7 C 20 %
693 29-09-2019 19:25:18 17.9 C 20 %
694 29-09-2019 19:35:17 18 C 20 %
695 29-09-2019 19:45:18 18 C 20 %
696 29-09-2019 19:55:18 17.5 C 20 %
697 29-09-2019 20:05:17 16.6 C 22 %
698 29-09-2019 20:15:17 16.2 C 25 %
699 29-09-2019 20:25:17 16 C 25 %
700 29-09-2019 20:35:17 16.2 C 25 %
Sensor: Nr:Datum:Temp:Feuchte:
Aussen-T/F 701 29-09-2019 20:45:18 16.5 C 25 %
702 29-09-2019 20:55:18 16.5 C 25 %
703 29-09-2019 21:05:17 16 C 27 %
704 29-09-2019 21:15:17 16.3 C 27 %
705 29-09-2019 21:25:17 16.4 C 26 %
706 29-09-2019 21:35:17 16.3 C 27 %
707 29-09-2019 21:45:18 16.6 C 26 %
708 29-09-2019 21:55:18 16.7 C 25 %
709 29-09-2019 22:05:17 16.8 C 25 %
710 29-09-2019 22:15:17 16.9 C 25 %
711 29-09-2019 22:25:17 16.6 C 25 %
712 29-09-2019 22:35:17 16.4 C 26 %
713 29-09-2019 22:45:18 16.4 C 27 %
714 29-09-2019 22:55:18 16.4 C 26 %
715 29-09-2019 23:05:17 16.7 C 25 %
716 29-09-2019 23:15:17 17 C 25 %
717 29-09-2019 23:25:17 16.2 C 25 %
718 29-09-2019 23:35:17 16.4 C 25 %
719 29-09-2019 23:45:17 15.8 C 26 %
720 29-09-2019 23:55:17 16.2 C 24 %
721 30-09-2019 00:05:18 15.9 C 23 %
722 30-09-2019 00:15:17 15.8 C 21 %
723 30-09-2019 00:25:17 16 C 20 %
724 30-09-2019 00:35:18 15.9 C 20 %
725 30-09-2019 00:45:17 16 C 20 %
Sensor: Nr:Datum:Temp:Feuchte:
Aussen-T/F 726 30-09-2019 00:55:17 15.7 C 20 %
727 30-09-2019 01:05:17 15.6 C 20 %
728 30-09-2019 01:15:17 15.4 C 21 %
729 30-09-2019 01:25:17 15.4 C 21 %
730 30-09-2019 01:35:17 15.1 C 21 %
731 30-09-2019 01:45:18 14.7 C 23 %
732 30-09-2019 01:55:18 14.6 C 23 %
733 30-09-2019 02:05:17 15 C 21 %
734 30-09-2019 02:15:17 15.2 C 21 %
735 30-09-2019 02:25:17 15.2 C 21 %
736 30-09-2019 02:35:17 15.3 C 21 %
737 30-09-2019 02:45:17 15.2 C 21 %
738 30-09-2019 02:55:18 15 C 21 %
739 30-09-2019 03:05:17 15 C 21 %
740 30-09-2019 03:15:17 15.1 C 21 %
741 30-09-2019 03:25:17 15.4 C 21 %
742 30-09-2019 03:35:17 15.2 C 21 %
743 30-09-2019 03:45:17 14.6 C 23 %
744 30-09-2019 03:55:18 14.7 C 25 %
745 30-09-2019 04:05:17 14.8 C 24 %
746 30-09-2019 04:15:17 14.7 C 23 %
747 30-09-2019 04:25:17 14.9 C 23 %
748 30-09-2019 04:35:17 14.2 C 25 %
749 30-09-2019 04:45:18 13.7 C 28 %
750 30-09-2019 04:55:18 13.4 C 27 %
Sensor: Nr:Datum:Temp:Feuchte:
Aussen-T/F 751 30-09-2019 05:05:17 13.2 C 27 %
752 30-09-2019 05:15:17 13.3 C 26 %
753 30-09-2019 05:25:17 13.4 C 26 %
754 30-09-2019 05:35:17 13.3 C 26 %
755 30-09-2019 05:45:18 13 C 27 %
756 30-09-2019 05:55:18 12.9 C 28 %
757 30-09-2019 06:05:17 12.7 C 30 %
758 30-09-2019 06:15:17 13.2 C 25 %
759 30-09-2019 06:25:17 13.2 C 25 %
760 30-09-2019 06:35:18 13 C 25 %
761 30-09-2019 06:45:17 13.1 C 25 %
762 30-09-2019 06:55:17 13.1 C 25 %
763 30-09-2019 07:05:18 13.1 C 25 %
764 30-09-2019 07:15:17 13.2 C 24 %
765 30-09-2019 07:25:17 13.3 C 23 %
766 30-09-2019 07:35:17 13.3 C 23 %
767 30-09-2019 07:45:17 13.2 C 23 %
768 30-09-2019 07:55:17 13.2 C 23 %
769 30-09-2019 08:05:17 13.5 C 21 %
770 30-09-2019 08:15:18 13.6 C 21 %
771 30-09-2019 08:25:18 13.5 C 21 %
772 30-09-2019 08:35:17 13.3 C 21 %
773 30-09-2019 08:45:17 13.6 C 20 %
774 30-09-2019 08:55:17 13.7 C 20 %
775 30-09-2019 09:05:17 13.9 C 20 %
Sensor: Nr:Datum:Temp:Feuchte:
Aussen-T/F 776 30-09-2019 09:15:17 14 C 20 %
777 30-09-2019 09:25:17 14.1 C 20 %
778 30-09-2019 09:35:17 14.3 C 20 %
779 30-09-2019 09:45:18 14.4 C 20 %
780 30-09-2019 09:55:18 14.2 C 20 %
781 30-09-2019 10:05:17 14.5 C 20 %
782 30-09-2019 10:15:17 14.3 C 20 %
783 30-09-2019 10:25:17 14.3 C 20 %
784 30-09-2019 10:35:17 14.6 C 20 %
785 30-09-2019 10:45:17 14.9 C 20 %
786 30-09-2019 10:55:17 15.1 C 20 %
787 30-09-2019 11:05:18 15 C 20 %
788 30-09-2019 11:15:17 15.3 C 20 %
789 30-09-2019 11:25:17 15.2 C 20 %
790 30-09-2019 11:35:17 15.6 C 20 %
791 30-09-2019 11:45:17 15.8 C 20 %
792 30-09-2019 11:55:17 15.6 C 20 %
793 30-09-2019 12:05:17 15.7 C 20 %
794 30-09-2019 12:15:18 15.7 C 20 %
795 30-09-2019 12:25:18 16 C 20 %
796 30-09-2019 12:35:17 16.3 C 20 %
797 30-09-2019 12:45:17 16.2 C 20 %
798 30-09-2019 12:55:18 16.2 C 20 %
799 30-09-2019 13:05:17 16.3 C 20 %
800 30-09-2019 13:15:18 16.4 C 20 %
Sensor: Nr:Datum:Temp:Feuchte:
Aussen-T/F 801 30-09-2019 13:25:18 16.9 C 20 %
802 30-09-2019 13:35:17 17.5 C 20 %
803 30-09-2019 13:45:17 17.1 C 20 %
804 30-09-2019 13:55:17 17.4 C 20 %
805 30-09-2019 14:05:17 17.3 C 20 %
806 30-09-2019 14:15:17 17.3 C 20 %
807 30-09-2019 14:25:17 17.5 C 20 %
808 30-09-2019 14:35:17 17.9 C 20 %
809 30-09-2019 14:45:18 18 C 20 %
810 30-09-2019 14:55:18 18.5 C 20 %
811 30-09-2019 15:05:17 18.6 C 20 %
812 30-09-2019 15:15:18 18.1 C 20 %
813 30-09-2019 15:25:18 18.5 C 20 %
814 30-09-2019 15:35:17 18.6 C 20 %
815 30-09-2019 15:45:17 18.6 C 20 %
816 30-09-2019 15:55:18 19.5 C 20 %
817 30-09-2019 16:05:17 20.1 C 20 %
818 30-09-2019 16:15:17 21.3 C 20 %
819 30-09-2019 16:25:17 22.2 C 20 %
820 30-09-2019 16:35:17 20.3 C 20 %
821 30-09-2019 16:45:17 21.7 C 20 %
822 30-09-2019 16:55:17 21.6 C 20 %
823 30-09-2019 17:05:17 19.9 C 20 %
824 30-09-2019 17:15:17 19.2 C 20 %
825 30-09-2019 17:25:17 19.1 C 20 %
Sensor: Nr:Datum:Temp:Feuchte:
Aussen-T/F 826 30-09-2019 17:35:17 18.8 C 20 %
827 30-09-2019 17:45:18 18.5 C 20 %
828 30-09-2019 17:55:18 18.1 C 20 %
829 30-09-2019 18:05:18 18.1 C 20 %
830 30-09-2019 18:15:17 17.7 C 20 %
831 30-09-2019 18:25:17 17.4 C 20 %
832 30-09-2019 18:35:17 16.6 C 20 %
833 30-09-2019 18:45:17 15.5 C 20 %
834 30-09-2019 18:55:17 15 C 20 %
835 30-09-2019 19:05:17 15 C 20 %
836 30-09-2019 19:15:17 14.7 C 20 %
837 30-09-2019 19:25:17 14.5 C 20 %
838 30-09-2019 19:35:17 14.6 C 20 %
839 30-09-2019 19:45:17 14.7 C 20 %
840 30-09-2019 19:55:17 14.1 C 20 %
841 30-09-2019 20:05:17 14.5 C 20 %
842 30-09-2019 20:15:17 14.3 C 20 %
843 30-09-2019 20:25:17 14.2 C 20 %
844 30-09-2019 20:35:17 14.7 C 20 %
845 30-09-2019 20:45:18 14.9 C 20 %
846 30-09-2019 20:55:18 15.1 C 20 %
847 30-09-2019 21:05:17 15 C 20 %
848 30-09-2019 21:15:17 15 C 20 %
849 30-09-2019 21:25:17 14.4 C 20 %
850 30-09-2019 21:35:18 14.2 C 20 %
Sensor: Nr:Datum:Temp:Feuchte:
Aussen-T/F 851 30-09-2019 21:45:17 14.7 C 20 %
852 30-09-2019 21:55:17 14.9 C 20 %
853 30-09-2019 22:05:18 14.8 C 20 %
854 30-09-2019 22:15:17 14.9 C 20 %
855 30-09-2019 22:25:17 14.9 C 20 %
856 30-09-2019 22:35:18 15 C 20 %
857 30-09-2019 22:45:17 15.1 C 20 %
858 30-09-2019 22:55:17 14.4 C 20 %
859 30-09-2019 23:05:17 13.7 C 20 %
860 30-09-2019 23:15:17 13.5 C 21 %
861 30-09-2019 23:25:17 13.6 C 21 %
862 30-09-2019 23:35:17 14.3 C 20 %
863 30-09-2019 23:45:17 14.3 C 20 %
864 30-09-2019 23:55:17 14.5 C 20 %
865 01-10-2019 00:05:17 14.4 C 20 %
866 01-10-2019 00:15:17 14.3 C 20 %
867 01-10-2019 00:25:17 14.2 C 20 %
868 01-10-2019 00:35:17 14 C 20 %
869 01-10-2019 00:45:17 13.8 C 20 %
870 01-10-2019 00:55:17 13.7 C 21 %
871 01-10-2019 01:05:17 13.7 C 21 %
872 01-10-2019 01:15:17 13.7 C 21 %
873 01-10-2019 01:25:17 13.7 C 21 %
874 01-10-2019 01:35:17 13.7 C 20 %
875 01-10-2019 01:45:17 14 C 20 %
Sensor: Nr:Datum:Temp:Feuchte:
Aussen-T/F 876 01-10-2019 01:55:17 13.4 C 21 %
877 01-10-2019 02:05:18 13.5 C 21 %
878 01-10-2019 02:15:18 13.5 C 21 %
879 01-10-2019 02:25:18 13.2 C 22 %
880 01-10-2019 02:35:17 12.9 C 23 %
881 01-10-2019 02:45:18 12.9 C 24 %
882 01-10-2019 02:55:18 12.8 C 25 %
883 01-10-2019 03:05:17 12.4 C 25 %
884 01-10-2019 03:15:17 11.9 C 26 %
885 01-10-2019 03:25:17 11.8 C 26 %
886 01-10-2019 03:35:17 11.8 C 27 %
887 01-10-2019 03:45:18 11.8 C 27 %
888 01-10-2019 03:55:18 12.2 C 26 %
889 01-10-2019 04:05:17 12.5 C 25 %
890 01-10-2019 04:15:18 12.9 C 25 %
891 01-10-2019 04:25:18 13.3 C 23 %
892 01-10-2019 04:35:17 14.2 C 21 %
893 01-10-2019 04:45:17 14.3 C 21 %
894 01-10-2019 04:55:17 14 C 21 %
895 01-10-2019 05:05:17 14 C 21 %
896 01-10-2019 05:15:17 13.7 C 22 %
897 01-10-2019 05:25:17 13.7 C 23 %
898 01-10-2019 05:35:17 14.1 C 21 %
899 01-10-2019 05:45:17 14.3 C 21 %
900 01-10-2019 05:55:17 14.5 C 21 %
Sensor: Nr:Datum:Temp:Feuchte:
Aussen-T/F 901 01-10-2019 06:05:18 14.6 C 21 %
902 01-10-2019 06:15:17 14.8 C 21 %
903 01-10-2019 06:25:17 15 C 20 %
904 01-10-2019 06:35:18 15 C 20 %
905 01-10-2019 06:45:17 15.1 C 20 %
906 01-10-2019 06:55:17 15.1 C 20 %
907 01-10-2019 07:05:17 15.1 C 21 %
908 01-10-2019 07:15:17 15.3 C 21 %
909 01-10-2019 07:25:17 15.3 C 21 %
910 01-10-2019 07:35:17 15.3 C 21 %
911 01-10-2019 07:45:17 15.4 C 21 %
912 01-10-2019 07:55:17 15.3 C 21 %
913 01-10-2019 08:05:17 15.3 C 21 %
914 01-10-2019 08:15:17 15.4 C 21 %
915 01-10-2019 08:25:17 15.4 C 22 %
916 01-10-2019 08:35:17 15.4 C 21 %
917 01-10-2019 08:45:18 15.4 C 21 %
918 01-10-2019 08:55:18 15.4 C 21 %
919 01-10-2019 09:05:17 15.6 C 21 %
920 01-10-2019 09:15:18 15.7 C 21 %
921 01-10-2019 09:25:18 16 C 20 %
922 01-10-2019 09:35:17 16.5 C 20 %
923 01-10-2019 09:45:17 16.8 C 20 %
924 01-10-2019 09:55:17 16.7 C 20 %
925 01-10-2019 10:05:17 17 C 20 %
Sensor: Nr:Datum:Temp:Feuchte:
Aussen-T/F 926 01-10-2019 10:15:18 17.2 C 20 %
927 01-10-2019 10:25:18 17.3 C 20 %
928 01-10-2019 10:35:17 17.6 C 20 %
929 01-10-2019 10:45:17 17.3 C 20 %
930 01-10-2019 10:55:17 17.4 C 20 %
931 01-10-2019 11:05:17 17.8 C 20 %
932 01-10-2019 11:15:17 17.8 C 20 %
933 01-10-2019 11:25:17 17 C 20 %
934 01-10-2019 11:35:17 18 C 20 %
935 01-10-2019 11:45:17 17.8 C 20 %
936 01-10-2019 11:55:17 17.8 C 20 %
937 01-10-2019 12:05:18 17.4 C 20 %
938 01-10-2019 12:15:17 16.4 C 23 %
939 01-10-2019 12:25:17 17 C 23 %
940 01-10-2019 12:35:17 17.2 C 22 %
941 01-10-2019 12:45:17 17.8 C 21 %
942 01-10-2019 12:55:17 18.3 C 20 %
943 01-10-2019 13:05:17 18.6 C 20 %
944 01-10-2019 13:15:17 19.1 C 20 %
945 01-10-2019 13:25:17 19.3 C 20 %
946 01-10-2019 13:35:17 19.5 C 20 %
947 01-10-2019 13:45:17 18.8 C 20 %
948 01-10-2019 13:55:17 18.3 C 20 %
949 01-10-2019 14:05:18 18.8 C 20 %
950 01-10-2019 14:15:17 18.4 C 20 %
Sensor: Nr:Datum:Temp:Feuchte:
Aussen-T/F 951 01-10-2019 14:25:17 18.9 C 20 %
952 01-10-2019 14:35:18 18.8 C 20 %
953 01-10-2019 14:45:17 19.6 C 20 %
954 01-10-2019 14:55:17 19.2 C 20 %
955 01-10-2019 15:05:18 19.4 C 20 %
956 01-10-2019 15:15:17 20.4 C 20 %
957 01-10-2019 15:25:17 19.8 C 20 %
958 01-10-2019 15:35:17 19.7 C 20 %
959 01-10-2019 15:45:17 19.7 C 20 %
960 01-10-2019 15:55:17 19.6 C 20 %
961 01-10-2019 16:05:17 18.4 C 20 %
962 01-10-2019 16:15:17 17.4 C 25 %
963 01-10-2019 16:25:17 17 C 25 %
964 01-10-2019 16:35:18 17.2 C 26 %
965 01-10-2019 16:45:17 17.3 C 26 %
966 01-10-2019 16:55:17 17.4 C 26 %
967 01-10-2019 17:05:18 17.5 C 27 %
968 01-10-2019 17:15:17 17.2 C 27 %
969 01-10-2019 17:25:17 16.9 C 27 %
970 01-10-2019 17:35:17 16.8 C 28 %
971 01-10-2019 17:45:17 16.8 C 28 %
972 01-10-2019 17:55:18 16.7 C 26 %
973 01-10-2019 18:05:17 16.7 C 25 %
974 01-10-2019 18:15:18 16.5 C 26 %
975 01-10-2019 18:25:18 16.3 C 27 %
Sensor: Nr:Datum:Temp:Feuchte:
Aussen-T/F 976 01-10-2019 18:35:17 16.1 C 28 %
977 01-10-2019 18:45:17 16 C 29 %
978 01-10-2019 18:55:17 15.7 C 30 %
979 01-10-2019 19:05:17 15.7 C 31 %
980 01-10-2019 19:15:18 15.7 C 31 %
981 01-10-2019 19:25:18 15.7 C 31 %
982 01-10-2019 19:35:17 15.8 C 31 %
983 01-10-2019 19:45:17 15.6 C 31 %
984 01-10-2019 19:55:17 15.3 C 31 %
985 01-10-2019 20:05:17 15.2 C 32 %
986 01-10-2019 20:15:18 15.4 C 32 %
987 01-10-2019 20:25:18 15.5 C 32 %
988 01-10-2019 20:35:17 15.5 C 31 %
989 01-10-2019 20:45:17 15.6 C 31 %
990 01-10-2019 20:55:17 15.8 C 29 %
991 01-10-2019 21:05:17 16 C 28 %
992 01-10-2019 21:15:17 16.1 C 26 %
993 01-10-2019 21:25:18 16 C 26 %
994 01-10-2019 21:35:17 16 C 26 %
995 01-10-2019 21:45:18 15.8 C 27 %
996 01-10-2019 21:55:18 15.4 C 29 %
997 01-10-2019 22:05:17 15.4 C 30 %
998 01-10-2019 22:15:18 15.1 C 30 %
999 01-10-2019 22:25:18 15.2 C 30 %
1000 01-10-2019 22:35:17 15.4 C 27 %
Sensor: Nr:Datum:Temp:Feuchte:
Aussen-T/F 1001 01-10-2019 22:45:17 14.9 C 30 %
1002 01-10-2019 22:55:17 14.8 C 30 %
1003 01-10-2019 23:05:17 14.9 C 29 %
1004 01-10-2019 23:15:17 15.2 C 27 %
1005 01-10-2019 23:25:17 15.4 C 27 %
1006 01-10-2019 23:35:17 15.6 C 26 %
1007 01-10-2019 23:45:17 15 C 28 %
1008 01-10-2019 23:55:17 14.9 C 29 %
1009 02-10-2019 00:05:18 14.8 C 29 %
1010 02-10-2019 00:15:17 14.8 C 29 %
1011 02-10-2019 00:25:17 14.7 C 30 %
1012 02-10-2019 00:35:18 14.8 C 30 %
1013 02-10-2019 00:45:17 14.9 C 28 %
1014 02-10-2019 00:55:17 15.2 C 27 %
1015 02-10-2019 01:05:17 15.3 C 26 %
1016 02-10-2019 01:15:17 15.2 C 26 %
1017 02-10-2019 01:25:17 15.1 C 26 %
1018 02-10-2019 01:35:18 15.2 C 27 %
1019 02-10-2019 01:45:17 15.1 C 26 %
1020 02-10-2019 01:55:17 15.1 C 26 %
1021 02-10-2019 02:05:18 14.7 C 28 %
1022 02-10-2019 02:15:17 14.5 C 29 %
1023 02-10-2019 02:25:17 14.2 C 30 %
1024 02-10-2019 02:35:17 14.3 C 31 %
1025 02-10-2019 02:45:17 14.5 C 30 %
Sensor: Nr:Datum:Temp:Feuchte:
Aussen-T/F 1026 02-10-2019 02:55:17 14.8 C 28 %
1027 02-10-2019 03:05:18 14.9 C 27 %
1028 02-10-2019 03:15:17 15 C 26 %
1029 02-10-2019 03:25:17 15 C 26 %
1030 02-10-2019 03:35:18 15 C 26 %
1031 02-10-2019 03:45:17 15 C 26 %
1032 02-10-2019 03:55:17 15 C 25 %
1033 02-10-2019 04:05:18 14.9 C 26 %
1034 02-10-2019 04:15:17 15.2 C 25 %
1035 02-10-2019 04:25:17 15.1 C 25 %
1036 02-10-2019 04:35:18 15 C 25 %
1037 02-10-2019 04:45:17 14.7 C 26 %
1038 02-10-2019 04:55:17 14.8 C 26 %
1039 02-10-2019 05:05:18 14.6 C 26 %
1040 02-10-2019 05:15:17 14.4 C 27 %
1041 02-10-2019 05:25:17 14.2 C 27 %
1042 02-10-2019 05:35:18 14.1 C 27 %
1043 02-10-2019 05:45:17 13.8 C 29 %
1044 02-10-2019 05:55:17 13.8 C 27 %
1045 02-10-2019 06:05:17 13.5 C 27 %
1046 02-10-2019 06:15:17 13.5 C 29 %
1047 02-10-2019 06:25:17 13.3 C 29 %
1048 02-10-2019 06:35:17 12.6 C 27 %
1049 02-10-2019 06:45:17 12.1 C 28 %
1050 02-10-2019 06:55:17 11.9 C 28 %
Sensor: Nr:Datum:Temp:Feuchte:
Aussen-T/F 1051 02-10-2019 07:05:18 11.5 C 29 %
1052 02-10-2019 07:15:17 11.3 C 29 %
1053 02-10-2019 07:25:17 11 C 29 %
1054 02-10-2019 07:35:18 10.9 C 30 %
1055 02-10-2019 07:45:17 10.8 C 30 %
1056 02-10-2019 07:55:17 10.6 C 30 %
1057 02-10-2019 08:05:18 10.4 C 30 %
1058 02-10-2019 08:15:17 10.2 C 30 %
1059 02-10-2019 08:25:17 10.1 C 30 %
1060 02-10-2019 08:35:17 10 C 29 %
1061 02-10-2019 08:45:17 10 C 30 %
1062 02-10-2019 08:55:17 9.9 C 30 %
1063 02-10-2019 09:05:18 10 C 28 %
1064 02-10-2019 09:15:17 10.1 C 28 %
1065 02-10-2019 09:25:17 10.2 C 27 %
1066 02-10-2019 09:35:18 10.4 C 26 %
1067 02-10-2019 09:45:17 10.7 C 26 %
1068 02-10-2019 09:55:17 10.6 C 25 %
1069 02-10-2019 10:05:17 11 C 25 %
1070 02-10-2019 10:15:17 11.1 C 25 %
1071 02-10-2019 10:25:17 11.1 C 25 %
1072 02-10-2019 10:35:17 11.2 C 25 %
1073 02-10-2019 10:45:18 11.2 C 25 %
1074 02-10-2019 10:55:18 11.1 C 22 %
1075 02-10-2019 11:05:17 11.7 C 21 %
Sensor: Nr:Datum:Temp:Feuchte:
Aussen-T/F 1076 02-10-2019 11:15:18 11.3 C 20 %
1077 02-10-2019 11:25:18 11.4 C 20 %
1078 02-10-2019 11:35:17 11.5 C 21 %
1079 02-10-2019 11:45:17 11.7 C 20 %
1080 02-10-2019 11:55:17 11.8 C 20 %
1081 02-10-2019 12:05:17 11.8 C 20 %
1082 02-10-2019 12:15:17 11.8 C 20 %
1083 02-10-2019 12:25:17 12.4 C 20 %
1084 02-10-2019 12:35:17 13 C 20 %
1085 02-10-2019 12:45:17 12.4 C 20 %
1086 02-10-2019 12:55:17 12.1 C 20 %
1087 02-10-2019 13:05:17 12.4 C 20 %
1088 02-10-2019 13:15:17 13.2 C 20 %
1089 02-10-2019 13:25:17 13.3 C 20 %
1090 02-10-2019 13:35:17 13.4 C 20 %
1091 02-10-2019 13:45:17 13.9 C 20 %
1092 02-10-2019 13:55:17 13.7 C 20 %
1093 02-10-2019 14:05:18 14.7 C 20 %
1094 02-10-2019 14:15:17 14.9 C 20 %
1095 02-10-2019 14:25:17 13.8 C 20 %
1096 02-10-2019 14:35:17 14.2 C 20 %
1097 02-10-2019 14:45:17 14.1 C 20 %
1098 02-10-2019 14:55:17 13.6 C 20 %
1099 02-10-2019 15:05:17 14.4 C 20 %
1100 02-10-2019 15:15:18 14.1 C 20 %
Sensor: Nr:Datum:Temp:Feuchte:
Aussen-T/F 1101 02-10-2019 15:25:18 14.4 C 20 %
1102 02-10-2019 15:35:17 13.8 C 20 %
1103 02-10-2019 15:45:18 13.7 C 20 %
1104 02-10-2019 15:55:18 15.2 C 20 %
1105 02-10-2019 16:05:17 15.3 C 20 %
1106 02-10-2019 16:15:17 14.9 C 20 %
1107 02-10-2019 16:25:17 17 C 20 %
1108 02-10-2019 16:35:17 17.5 C 20 %
1109 02-10-2019 16:45:18 17.7 C 20 %
1110 02-10-2019 16:55:18 18.2 C 20 %
1111 02-10-2019 17:05:17 14.3 C 20 %
1112 02-10-2019 17:15:18 17.8 C 20 %
1113 02-10-2019 17:25:18 17.4 C 20 %
1114 02-10-2019 17:35:17 17.4 C 20 %
1115 02-10-2019 17:45:17 15.9 C 20 %
1116 02-10-2019 17:55:17 13.7 C 20 %
1117 02-10-2019 18:05:17 13.2 C 20 %
1118 02-10-2019 18:15:17 12.9 C 20 %
1119 02-10-2019 18:25:17 12.6 C 20 %
1120 02-10-2019 18:35:17 12.5 C 20 %
1121 02-10-2019 18:45:17 12.2 C 20 %
1122 02-10-2019 18:55:17 11.7 C 20 %
1123 02-10-2019 19:05:17 11.3 C 20 %
1124 02-10-2019 19:15:17 10.9 C 20 %
1125 02-10-2019 19:25:17 11.1 C 20 %
Sensor: Nr:Datum:Temp:Feuchte:
Aussen-T/F 1126 02-10-2019 19:35:17 10.8 C 20 %
1127 02-10-2019 19:45:17 10.7 C 20 %
1128 02-10-2019 19:55:17 9.8 C 20 %
1129 02-10-2019 20:05:17 10.1 C 20 %
1130 02-10-2019 20:15:17 10.2 C 20 %
1131 02-10-2019 20:25:17 9.7 C 20 %
1132 02-10-2019 20:35:18 9.3 C 20 %
1133 02-10-2019 20:45:17 9.8 C 20 %
1134 02-10-2019 20:55:17 10 C 20 %
1135 02-10-2019 21:05:17 10.4 C 20 %
1136 02-10-2019 21:15:17 10.1 C 20 %
1137 02-10-2019 21:25:17 9.7 C 20 %
1138 02-10-2019 21:35:17 9.1 C 20 %
1139 02-10-2019 21:45:17 8.6 C 20 %
1140 02-10-2019 21:55:17 8.4 C 21 %
1141 02-10-2019 22:05:17 8.4 C 21 %
1142 02-10-2019 22:15:17 8.7 C 21 %
1143 02-10-2019 22:25:17 8.4 C 21 %
1144 02-10-2019 22:35:17 8.4 C 21 %
1145 02-10-2019 22:45:17 7.9 C 25 %
1146 02-10-2019 22:55:17 7.8 C 25 %
1147 02-10-2019 23:05:18 7.8 C 25 %
1148 02-10-2019 23:15:17 7.9 C 25 %
1149 02-10-2019 23:25:17 8.6 C 23 %
1150 02-10-2019 23:35:17 8.9 C 21 %
Sensor: Nr:Datum:Temp:Feuchte:
Aussen-T/F 1151 02-10-2019 23:45:17 9 C 20 %
1152 02-10-2019 23:55:17 9.2 C 20 %
1153 03-10-2019 00:05:18 9.1 C 20 %
1154 03-10-2019 00:15:17 9.2 C 20 %
1155 03-10-2019 00:25:17 9.2 C 20 %
1156 03-10-2019 00:36:17 9.2 C 20 %
1157 03-10-2019 00:45:17 8.7 C 23 %
1158 03-10-2019 00:55:17 8.7 C 25 %
1159 03-10-2019 01:05:18 8.7 C 25 %
1160 03-10-2019 01:15:17 8.7 C 23 %
1161 03-10-2019 01:25:17 8.8 C 25 %
1162 03-10-2019 01:35:18 9 C 21 %
1163 03-10-2019 01:45:17 9.1 C 20 %
1164 03-10-2019 01:55:17 9.1 C 20 %
1165 03-10-2019 02:05:18 9.1 C 20 %
1166 03-10-2019 02:15:17 8.9 C 23 %
1167 03-10-2019 02:25:17 8.8 C 23 %
1168 03-10-2019 02:36:17 8.9 C 23 %
1169 03-10-2019 02:45:17 8.9 C 23 %
1170 03-10-2019 02:55:17 8.4 C 25 %
1171 03-10-2019 03:06:17 8.5 C 25 %
1172 03-10-2019 03:15:17 8.6 C 25 %
1173 03-10-2019 03:25:18 7.6 C 26 %
1174 03-10-2019 03:35:17 7.6 C 27 %
1175 03-10-2019 03:45:17 7.8 C 26 %
Sensor: Nr:Datum:Temp:Feuchte:
Aussen-T/F 1176 03-10-2019 03:55:17 7.3 C 27 %
1177 03-10-2019 04:05:18 7.4 C 27 %
1178 03-10-2019 04:16:17 7.4 C 27 %
1179 03-10-2019 04:25:17 7.4 C 27 %
1180 03-10-2019 04:36:17 7.3 C 27 %
1181 03-10-2019 04:45:17 7.5 C 27 %
1182 03-10-2019 04:55:17 7.2 C 27 %
1183 03-10-2019 05:06:17 7.5 C 27 %
1184 03-10-2019 05:16:17 7.9 C 26 %
1185 03-10-2019 05:26:17 8 C 26 %
1186 03-10-2019 05:35:18 7.9 C 26 %
1187 03-10-2019 05:46:17 8 C 26 %
1188 03-10-2019 05:56:17 7.1 C 27 %
1189 03-10-2019 06:06:18 6.8 C 29 %
1190 03-10-2019 06:16:17 6.6 C 30 %
1191 03-10-2019 06:26:17 6.7 C 30 %
1192 03-10-2019 06:36:18 6.6 C 31 %
1193 03-10-2019 06:46:17 6.8 C 30 %
1194 03-10-2019 06:56:17 6.8 C 30 %
1195 03-10-2019 07:06:17 6.9 C 30 %
1196 03-10-2019 07:16:17 6.7 C 30 %
1197 03-10-2019 07:26:17 6.8 C 30 %
1198 03-10-2019 07:36:17 7 C 29 %
1199 03-10-2019 07:46:18 7 C 28 %
1200 03-10-2019 07:56:18 7.1 C 28 %
Sensor: Nr:Datum:Temp:Feuchte:
Aussen-T/F 1201 03-10-2019 08:06:17 7.3 C 28 %
1202 03-10-2019 08:16:17 7.5 C 27 %
1203 03-10-2019 08:26:17 7.8 C 26 %
1204 03-10-2019 08:36:17 7.9 C 26 %
1205 03-10-2019 08:46:17 8 C 26 %
1206 03-10-2019 08:56:18 8.6 C 26 %
1207 03-10-2019 09:06:17 8.9 C 25 %
1208 03-10-2019 09:16:18 9.2 C 25 %
1209 03-10-2019 09:26:18 9.3 C 25 %
1210 03-10-2019 09:36:17 9.6 C 25 %
1211 03-10-2019 09:46:17 9.4 C 25 %
1212 03-10-2019 09:56:17 9.4 C 25 %
1213 03-10-2019 10:06:17 9.8 C 23 %
1214 03-10-2019 10:16:17 9.8 C 23 %
1215 03-10-2019 10:26:17 9.9 C 25 %
1216 03-10-2019 10:36:17 10.4 C 21 %
1217 03-10-2019 10:46:17 11.1 C 20 %
1218 03-10-2019 10:56:17 11.5 C 20 %
1219 03-10-2019 11:06:17 11.9 C 20 %
1220 03-10-2019 11:16:17 12.3 C 20 %
1221 03-10-2019 11:26:17 12.4 C 20 %
1222 03-10-2019 11:36:17 12.5 C 20 %
1223 03-10-2019 11:46:17 12.4 C 20 %
1224 03-10-2019 11:56:17 12.7 C 20 %
1225 03-10-2019 12:06:17 13 C 20 %
Sensor: Nr:Datum:Temp:Feuchte:
Aussen-T/F 1226 03-10-2019 12:16:17 12.7 C 20 %
1227 03-10-2019 12:26:17 11.9 C 20 %
1228 03-10-2019 12:36:17 12.1 C 20 %
1229 03-10-2019 12:46:17 11.7 C 20 %
1230 03-10-2019 12:56:17 11.5 C 24 %
1231 03-10-2019 13:06:17 11.7 C 24 %
1232 03-10-2019 13:16:16 11.2 C 25 %
1233 03-10-2019 13:26:16 11.2 C 26 %
1234 03-10-2019 13:36:17 11 C 30 %
1235 03-10-2019 13:46:17 11 C 30 %
1236 03-10-2019 13:56:17 11 C 30 %
1237 03-10-2019 14:06:16 11.3 C 29 %
1238 03-10-2019 14:16:17 11.5 C 28 %
1239 03-10-2019 14:26:17 11.2 C 29 %
1240 03-10-2019 14:36:17 10.6 C 30 %
1241 03-10-2019 14:46:17 10.5 C 31 %
1242 03-10-2019 14:56:17 10.5 C 32 %
1243 03-10-2019 15:06:17 10.7 C 32 %
1244 03-10-2019 15:16:17 11.6 C 28 %
1245 03-10-2019 15:26:17 11.8 C 27 %
1246 03-10-2019 15:36:16 11.6 C 28 %
1247 03-10-2019 15:46:17 11.7 C 28 %
1248 03-10-2019 15:56:17 12 C 26 %
1249 03-10-2019 16:06:17 12.8 C 22 %
1250 03-10-2019 16:16:17 12.4 C 25 %
Sensor: Nr:Datum:Temp:Feuchte:
Aussen-T/F 1251 03-10-2019 16:26:17 11.8 C 26 %
1252 03-10-2019 16:36:17 11.1 C 28 %
1253 03-10-2019 16:46:17 11.6 C 27 %
1254 03-10-2019 16:56:17 12.1 C 26 %
1255 03-10-2019 17:06:17 11.6 C 28 %
1256 03-10-2019 17:16:16 11.4 C 28 %
1257 03-10-2019 17:26:16 11.4 C 29 %
1258 03-10-2019 17:36:16 11.4 C 29 %
1259 03-10-2019 17:46:16 10.8 C 30 %
1260 03-10-2019 17:56:16 10.7 C 31 %
1261 03-10-2019 18:06:17 10.5 C 30 %
1262 03-10-2019 18:16:16 10.4 C 31 %
1263 03-10-2019 18:26:16 10.1 C 31 %
1264 03-10-2019 18:36:17 10 C 30 %
1265 03-10-2019 18:46:16 10 C 30 %
1266 03-10-2019 18:56:16 9.8 C 32 %
1267 03-10-2019 19:06:17 9.5 C 31 %
1268 03-10-2019 19:16:16 9.5 C 31 %
1269 03-10-2019 19:26:16 9.4 C 32 %
1270 03-10-2019 19:36:17 9.3 C 32 %
1271 03-10-2019 19:46:17 9.2 C 34 %
1272 03-10-2019 19:56:17 9 C 34 %
1273 03-10-2019 20:06:16 9 C 35 %
1274 03-10-2019 20:16:16 8.8 C 35 %
1275 03-10-2019 20:26:16 8.7 C 35 %
Sensor: Nr:Datum:Temp:Feuchte:
Aussen-T/F 1276 03-10-2019 20:36:16 8.8 C 35 %
1277 03-10-2019 20:46:17 8.7 C 35 %
1278 03-10-2019 20:56:17 8.7 C 35 %
1279 03-10-2019 21:06:17 8.6 C 35 %
1280 03-10-2019 21:16:16 8.5 C 35 %
1281 03-10-2019 21:26:16 8.3 C 35 %
1282 03-10-2019 21:36:17 8.3 C 36 %
1283 03-10-2019 21:46:16 8.3 C 36 %
1284 03-10-2019 21:56:16 8.2 C 35 %
1285 03-10-2019 22:06:17 8.1 C 35 %
1286 03-10-2019 22:16:16 7.9 C 36 %
1287 03-10-2019 22:26:16 7.9 C 36 %
1288 03-10-2019 22:36:16 7.9 C 36 %
1289 03-10-2019 22:46:17 7.7 C 36 %
1290 03-10-2019 22:56:18 7.8 C 36 %
1291 03-10-2019 23:06:16 7.9 C 36 %
1292 03-10-2019 23:16:17 7.9 C 36 %
1293 03-10-2019 23:26:17 7.7 C 36 %
1294 03-10-2019 23:36:16 7.5 C 36 %
1295 03-10-2019 23:46:17 7.7 C 36 %
1296 03-10-2019 23:56:17 7.7 C 36 %
1297 04-10-2019 00:06:16 7.6 C 36 %
1298 04-10-2019 00:16:16 7.8 C 36 %
1299 04-10-2019 00:26:16 7.8 C 36 %
1300 04-10-2019 00:36:16 7.5 C 35 %
Sensor: Nr:Datum:Temp:Feuchte:
Aussen-T/F 1301 04-10-2019 00:46:16 7.4 C 35 %
1302 04-10-2019 00:56:16 7.4 C 35 %
1303 04-10-2019 01:06:16 7.6 C 36 %
1304 04-10-2019 01:16:16 7.7 C 36 %
1305 04-10-2019 01:26:16 7.8 C 36 %
1306 04-10-2019 01:36:16 7.8 C 36 %
1307 04-10-2019 01:46:16 7.8 C 36 %
1308 04-10-2019 01:56:16 7.8 C 36 %
1309 04-10-2019 02:06:16 7.8 C 36 %
1310 04-10-2019 02:16:16 7.6 C 35 %
1311 04-10-2019 02:26:16 7.6 C 35 %
1312 04-10-2019 02:36:17 7.6 C 36 %
1313 04-10-2019 02:46:17 7.6 C 36 %
1314 04-10-2019 02:56:17 7.6 C 36 %
1315 04-10-2019 03:06:18 7.6 C 36 %
1316 04-10-2019 03:16:17 7.6 C 36 %
1317 04-10-2019 03:26:17 7.6 C 36 %
1318 04-10-2019 03:36:17 7.5 C 36 %
1319 04-10-2019 03:46:17 7.4 C 35 %
1320 04-10-2019 03:56:17 7.4 C 35 %
1321 04-10-2019 04:06:17 7.3 C 36 %
1322 04-10-2019 04:16:18 7.1 C 35 %
1323 04-10-2019 04:26:18 7 C 35 %
1324 04-10-2019 04:36:17 7 C 36 %
1325 04-10-2019 04:46:17 7.3 C 36 %
Sensor: Nr:Datum:Temp:Feuchte:
Aussen-T/F 1326 04-10-2019 04:56:17 7.3 C 36 %
1327 04-10-2019 05:06:18 7.3 C 36 %
1328 04-10-2019 05:16:17 7.5 C 36 %
1329 04-10-2019 05:26:17 7.5 C 36 %
1330 04-10-2019 05:36:17 7.5 C 36 %
1331 04-10-2019 05:46:17 7.5 C 35 %
1332 04-10-2019 05:56:17 7.5 C 36 %
1333 04-10-2019 06:06:18 7.4 C 35 %
1334 04-10-2019 06:16:17 7.4 C 35 %
1335 04-10-2019 06:26:17 7.3 C 35 %
1336 04-10-2019 06:36:17 7.5 C 36 %
1337 04-10-2019 06:46:17 7.6 C 35 %
1338 04-10-2019 06:56:17 7.5 C 35 %
1339 04-10-2019 07:06:18 7.6 C 34 %
1340 04-10-2019 07:16:17 7.5 C 35 %
1341 04-10-2019 07:26:17 7.8 C 33 %
1342 04-10-2019 07:36:18 7.8 C 34 %
1343 04-10-2019 07:46:17 7.8 C 34 %
1344 04-10-2019 07:56:17 8.1 C 32 %
1345 04-10-2019 08:06:17 8.1 C 32 %
1346 04-10-2019 08:16:17 8.3 C 32 %
1347 04-10-2019 08:26:17 8.2 C 33 %
1348 04-10-2019 08:36:17 8.2 C 33 %
1349 04-10-2019 08:46:17 8.2 C 35 %
1350 04-10-2019 08:56:17 8.1 C 35 %
Sensor: Nr:Datum:Temp:Feuchte:
Aussen-T/F 1351 04-10-2019 09:06:17 8.1 C 34 %
1352 04-10-2019 09:16:17 8.4 C 35 %
1353 04-10-2019 09:26:17 8.4 C 35 %
1354 04-10-2019 09:36:17 8.4 C 35 %
1355 04-10-2019 09:46:17 8.4 C 35 %
1356 04-10-2019 09:56:17 8.5 C 35 %
1357 04-10-2019 10:06:17 8.5 C 35 %
1358 04-10-2019 10:16:17 8.7 C 34 %
1359 04-10-2019 10:26:17 8.8 C 33 %
1360 04-10-2019 10:36:17 9 C 33 %
1361 04-10-2019 10:46:17 9.2 C 32 %
1362 04-10-2019 10:56:17 9.4 C 31 %
1363 04-10-2019 11:06:17 9.4 C 31 %
1364 04-10-2019 11:16:17 9.4 C 31 %
1365 04-10-2019 11:26:17 9.7 C 31 %
1366 04-10-2019 11:36:17 9.6 C 31 %
1367 04-10-2019 11:46:17 10 C 30 %
1368 04-10-2019 11:56:17 10.4 C 31 %
1369 04-10-2019 12:06:18 10.5 C 30 %
1370 04-10-2019 12:16:17 10.6 C 30 %
1371 04-10-2019 12:26:17 10.8 C 30 %
1372 04-10-2019 12:36:18 10.8 C 30 %
1373 04-10-2019 12:46:17 10.9 C 30 %
1374 04-10-2019 12:56:17 11 C 29 %
1375 04-10-2019 13:06:17 11.3 C 29 %
Sensor: Nr:Datum:Temp:Feuchte:
Aussen-T/F 1376 04-10-2019 13:16:17 11.1 C 29 %
1377 04-10-2019 13:26:17 11.2 C 29 %
1378 04-10-2019 13:36:17 11.7 C 29 %
1379 04-10-2019 13:46:18 12.1 C 27 %
1380 04-10-2019 13:56:18 12.9 C 27 %
1381 04-10-2019 14:06:17 13.4 C 25 %
1382 04-10-2019 14:16:17 13.7 C 25 %
1383 04-10-2019 14:26:17 14.4 C 22 %
1384 04-10-2019 14:36:17 13.9 C 23 %
1385 04-10-2019 14:46:17 13.9 C 23 %
1386 04-10-2019 14:56:17 13.7 C 24 %
1387 04-10-2019 15:06:17 14.1 C 23 %
1388 04-10-2019 15:16:17 13.6 C 23 %
1389 04-10-2019 15:26:17 13.6 C 23 %
1390 04-10-2019 15:36:17 14.1 C 22 %
1391 04-10-2019 15:46:17 14 C 23 %
1392 04-10-2019 15:56:17 14.2 C 23 %
1393 04-10-2019 16:06:17 14.1 C 24 %
1394 04-10-2019 16:16:17 13.8 C 25 %
1395 04-10-2019 16:26:17 13.4 C 26 %
1396 04-10-2019 16:36:17 13.4 C 26 %
1397 04-10-2019 16:46:17 13.1 C 27 %
1398 04-10-2019 16:56:17 12.7 C 30 %
1399 04-10-2019 17:06:18 12.6 C 31 %
1400 04-10-2019 17:16:17 12.5 C 31 %
Sensor: Nr:Datum:Temp:Feuchte:
Aussen-T/F 1401 04-10-2019 17:26:17 12.5 C 31 %
1402 04-10-2019 17:36:17 12.5 C 31 %
1403 04-10-2019 17:46:17 12.2 C 31 %
1404 04-10-2019 17:56:17 12.1 C 33 %
1405 04-10-2019 18:06:18 11.8 C 34 %
1406 04-10-2019 18:16:17 11.6 C 33 %
1407 04-10-2019 18:26:17 11.4 C 31 %
1408 04-10-2019 18:36:18 11.2 C 32 %
1409 04-10-2019 18:46:17 11.2 C 33 %
1410 04-10-2019 18:56:17 11.1 C 33 %
1411 04-10-2019 19:06:17 11.1 C 33 %
1412 04-10-2019 19:16:17 11.1 C 34 %
1413 04-10-2019 19:26:17 11.3 C 33 %
1414 04-10-2019 19:36:17 11.2 C 34 %
1415 04-10-2019 19:46:18 11.2 C 35 %
1416 04-10-2019 19:56:18 11.7 C 32 %
1417 04-10-2019 20:06:17 11.3 C 32 %
1418 04-10-2019 20:16:17 11.5 C 31 %
1419 04-10-2019 20:26:17 11.5 C 30 %
1420 04-10-2019 20:36:17 11.2 C 31 %
1421 04-10-2019 20:46:17 11.2 C 32 %
1422 04-10-2019 20:56:17 11.3 C 32 %
1423 04-10-2019 21:06:18 11.4 C 32 %
1424 04-10-2019 21:16:17 11.4 C 32 %
1425 04-10-2019 21:26:17 11.8 C 30 %
Sensor: Nr:Datum:Temp:Feuchte:
Aussen-T/F 1426 04-10-2019 21:36:18 12.1 C 28 %
1427 04-10-2019 21:46:17 11.9 C 30 %
1428 04-10-2019 21:56:17 11.6 C 30 %
1429 04-10-2019 22:06:18 11.8 C 30 %
1430 04-10-2019 22:16:17 11.7 C 30 %
1431 04-10-2019 22:26:17 11.6 C 30 %
1432 04-10-2019 22:36:18 11.6 C 30 %
1433 04-10-2019 22:46:17 11.5 C 30 %
1434 04-10-2019 22:56:17 11.5 C 30 %
1435 04-10-2019 23:06:18 11.4 C 31 %
1436 04-10-2019 23:16:17 11.7 C 30 %
1437 04-10-2019 23:26:17 12.1 C 28 %
1438 04-10-2019 23:36:18 12.2 C 28 %
1439 04-10-2019 23:46:17 12.2 C 28 %
1440 04-10-2019 23:56:17 12.1 C 28 %
1441 05-10-2019 00:06:18 12.4 C 27 %
1442 05-10-2019 00:16:17 11.9 C 28 %
1443 05-10-2019 00:26:17 12.3 C 26 %
1444 05-10-2019 00:36:17 12.2 C 27 %
1445 05-10-2019 00:46:17 12 C 27 %
1446 05-10-2019 00:56:17 12.1 C 27 %
1447 05-10-2019 01:06:18 12 C 27 %
1448 05-10-2019 01:16:17 11.8 C 29 %
1449 05-10-2019 01:26:17 11.8 C 28 %
1450 05-10-2019 01:36:18 11.9 C 28 %
Sensor: Nr:Datum:Temp:Feuchte:
Aussen-T/F 1451 05-10-2019 01:46:17 12.2 C 27 %
1452 05-10-2019 01:56:17 11.6 C 28 %
1453 05-10-2019 02:06:17 12.1 C 27 %
1454 05-10-2019 02:16:17 12.3 C 26 %
1455 05-10-2019 02:26:17 12.4 C 26 %
1456 05-10-2019 02:36:17 12.2 C 26 %
1457 05-10-2019 02:46:18 12.2 C 26 %
1458 05-10-2019 02:56:18 12.2 C 26 %
1459 05-10-2019 03:06:17 11.8 C 28 %
1460 05-10-2019 03:16:17 11.6 C 29 %
1461 05-10-2019 03:26:17 11.5 C 30 %
1462 05-10-2019 03:36:17 11.4 C 30 %
1463 05-10-2019 03:46:17 11.3 C 30 %
1464 05-10-2019 03:56:17 11.2 C 30 %
1465 05-10-2019 04:06:18 11 C 30 %
1466 05-10-2019 04:16:17 10.8 C 31 %
1467 05-10-2019 04:26:17 10.5 C 31 %
1468 05-10-2019 04:36:17 10.5 C 31 %
1469 05-10-2019 04:46:17 10.5 C 31 %
1470 05-10-2019 04:56:17 10.4 C 32 %
1471 05-10-2019 05:06:17 10.2 C 31 %
1472 05-10-2019 05:16:17 10 C 31 %
1473 05-10-2019 05:26:17 10 C 31 %
1474 05-10-2019 05:36:17 9.9 C 32 %
1475 05-10-2019 05:46:18 9.6 C 32 %
Sensor: Nr:Datum:Temp:Feuchte:
Aussen-T/F 1476 05-10-2019 05:56:18 9.4 C 31 %
1477 05-10-2019 06:06:18 9.4 C 33 %
1478 05-10-2019 06:16:17 9.3 C 32 %
1479 05-10-2019 06:26:17 9.4 C 31 %
1480 05-10-2019 06:36:18 9.4 C 31 %
1481 05-10-2019 06:46:17 9.3 C 33 %
1482 05-10-2019 06:56:17 9.3 C 32 %
1483 05-10-2019 07:06:18 9.4 C 31 %
1484 05-10-2019 07:16:17 9.5 C 31 %
1485 05-10-2019 07:26:17 9.5 C 30 %
1486 05-10-2019 07:36:17 9.3 C 30 %
1487 05-10-2019 07:46:17 9.2 C 30 %
1488 05-10-2019 07:56:17 9.1 C 30 %
1489 05-10-2019 08:06:18 9.1 C 30 %
1490 05-10-2019 08:16:17 9.2 C 30 %
1491 05-10-2019 08:26:17 9.3 C 29 %
1492 05-10-2019 08:36:18 9.5 C 29 %
1493 05-10-2019 08:46:17 9.6 C 28 %
1494 05-10-2019 08:56:17 9.6 C 28 %
1495 05-10-2019 09:06:18 9.9 C 28 %
1496 05-10-2019 09:16:17 9.8 C 28 %
1497 05-10-2019 09:26:17 10 C 27 %
1498 05-10-2019 09:36:17 10.1 C 26 %
1499 05-10-2019 09:46:17 10.3 C 26 %
1500 05-10-2019 09:56:17 10.2 C 26 %
Sensor: Nr:Datum:Temp:Feuchte:
Aussen-T/F 1501 05-10-2019 10:06:17 10.4 C 26 %
1502 05-10-2019 10:16:17 10.4 C 26 %
1503 05-10-2019 10:26:17 10.7 C 26 %
1504 05-10-2019 10:36:17 10.6 C 25 %
1505 05-10-2019 10:46:17 10.8 C 25 %
1506 05-10-2019 10:56:17 10.8 C 25 %
1507 05-10-2019 11:06:18 10.8 C 21 %
1508 05-10-2019 11:16:17 10.7 C 21 %
1509 05-10-2019 11:26:17 10.7 C 20 %
1510 05-10-2019 11:36:17 10.8 C 21 %
1511 05-10-2019 11:46:17 10.8 C 21 %
1512 05-10-2019 11:56:17 10.8 C 21 %
1513 05-10-2019 12:06:17 11.2 C 20 %
1514 05-10-2019 12:16:17 11.7 C 20 %
1515 05-10-2019 12:26:17 11.2 C 20 %
1516 05-10-2019 12:36:18 11.8 C 20 %
1517 05-10-2019 12:46:17 12.2 C 20 %
1518 05-10-2019 12:56:17 12.1 C 20 %
1519 05-10-2019 13:06:18 12.1 C 20 %
1520 05-10-2019 13:16:17 12.8 C 20 %
1521 05-10-2019 13:26:17 12.8 C 20 %
1522 05-10-2019 13:36:17 12.5 C 20 %
1523 05-10-2019 13:46:17 12.3 C 20 %
1524 05-10-2019 13:56:17 12.1 C 20 %
1525 05-10-2019 14:06:17 12.1 C 20 %
Sensor: Nr:Datum:Temp:Feuchte:
Aussen-T/F 1526 05-10-2019 14:16:18 12 C 20 %
1527 05-10-2019 14:26:18 12.1 C 20 %
1528 05-10-2019 14:36:17 12.5 C 20 %
1529 05-10-2019 14:46:17 12.5 C 20 %
1530 05-10-2019 14:56:17 12.8 C 20 %
1531 05-10-2019 15:06:17 12.7 C 20 %
1532 05-10-2019 15:16:17 12.5 C 20 %
1533 05-10-2019 15:26:17 12.9 C 20 %
1534 05-10-2019 15:36:17 12.5 C 20 %
1535 05-10-2019 15:46:17 12.6 C 20 %
1536 05-10-2019 15:56:17 12.7 C 20 %
1537 05-10-2019 16:06:18 12.5 C 20 %
1538 05-10-2019 16:16:17 12.4 C 20 %
1539 05-10-2019 16:26:17 12.2 C 20 %
1540 05-10-2019 16:36:17 11.9 C 20 %
1541 05-10-2019 16:46:17 11.7 C 22 %
1542 05-10-2019 16:56:17 11.7 C 24 %
1543 05-10-2019 17:06:18 11.7 C 24 %
1544 05-10-2019 17:16:17 11.8 C 20 %
1545 05-10-2019 17:26:17 11.8 C 20 %
1546 05-10-2019 17:36:18 11.8 C 20 %
1547 05-10-2019 17:46:17 11.2 C 21 %
1548 05-10-2019 17:56:17 11.3 C 24 %
1549 05-10-2019 18:06:17 11 C 23 %
1550 05-10-2019 18:16:18 10.8 C 25 %
Sensor: Nr:Datum:Temp:Feuchte:
Aussen-T/F 1551 05-10-2019 18:26:18 10.8 C 25 %
1552 05-10-2019 18:36:17 10.5 C 25 %
1553 05-10-2019 18:46:18 10 C 25 %
1554 05-10-2019 18:56:18 9.7 C 26 %
1555 05-10-2019 19:06:17 9.3 C 26 %
1556 05-10-2019 19:16:18 9.2 C 26 %
1557 05-10-2019 19:26:18 9 C 25 %
1558 05-10-2019 19:36:17 8.7 C 26 %
1559 05-10-2019 19:46:18 8.1 C 26 %
1560 05-10-2019 19:56:18 7.8 C 27 %
1561 05-10-2019 20:06:18 7.5 C 27 %
1562 05-10-2019 20:16:17 7.7 C 27 %
1563 05-10-2019 20:26:17 8 C 26 %
1564 05-10-2019 20:36:17 8.2 C 27 %
1565 05-10-2019 20:46:17 7.8 C 27 %
1566 05-10-2019 20:56:17 7.8 C 27 %
1567 05-10-2019 21:06:17 7.4 C 30 %
1568 05-10-2019 21:16:17 7.3 C 30 %
1569 05-10-2019 21:26:18 6.9 C 31 %
1570 05-10-2019 21:36:18 6.7 C 32 %
1571 05-10-2019 21:46:17 6.6 C 32 %
1572 05-10-2019 21:56:17 6.7 C 34 %
1573 05-10-2019 22:06:17 6.7 C 35 %
1574 05-10-2019 22:16:17 6.8 C 34 %
1575 05-10-2019 22:26:17 6.8 C 34 %
Sensor: Nr:Datum:Temp:Feuchte:
Aussen-T/F 1576 05-10-2019 22:36:17 6.8 C 35 %
1577 05-10-2019 22:46:18 6.7 C 34 %
1578 05-10-2019 22:56:18 6.7 C 33 %
1579 05-10-2019 23:06:17 6.7 C 35 %
1580 05-10-2019 23:16:17 6.6 C 35 %
1581 05-10-2019 23:26:17 6.7 C 35 %
1582 05-10-2019 23:36:17 6.8 C 35 %
1583 05-10-2019 23:46:17 6.9 C 35 %
1584 05-10-2019 23:56:17 6.9 C 35 %
1585 06-10-2019 00:06:17 6.9 C 34 %
1586 06-10-2019 00:16:18 6.8 C 34 %
1587 06-10-2019 00:26:18 6.3 C 33 %
1588 06-10-2019 00:36:17 6.2 C 35 %
1589 06-10-2019 00:46:17 6.2 C 35 %
1590 06-10-2019 00:56:17 6.2 C 35 %
1591 06-10-2019 01:06:17 6.1 C 35 %
1592 06-10-2019 01:16:18 6.1 C 35 %
1593 06-10-2019 01:26:18 5.5 C 35 %
1594 06-10-2019 01:36:17 5.6 C 36 %
1595 06-10-2019 01:46:17 5.8 C 37 %
1596 06-10-2019 01:56:17 6 C 36 %
1597 06-10-2019 02:06:17 6.1 C 36 %
1598 06-10-2019 02:16:17 6.1 C 36 %
1599 06-10-2019 02:26:18 6.3 C 36 %
1600 06-10-2019 02:36:17 6.4 C 35 %
Sensor: Nr:Datum:Temp:Feuchte:
Aussen-T/F 1601 06-10-2019 02:46:17 6.6 C 35 %
1602 06-10-2019 02:56:17 6.6 C 35 %
1603 06-10-2019 03:06:17 6.7 C 35 %
1604 06-10-2019 03:16:17 6.7 C 35 %
1605 06-10-2019 03:26:17 6.7 C 35 %
1606 06-10-2019 03:36:17 6.8 C 35 %
1607 06-10-2019 03:46:17 6.8 C 35 %
1608 06-10-2019 03:56:17 6.8 C 35 %
1609 06-10-2019 04:06:17 6.9 C 34 %
1610 06-10-2019 04:16:17 6.9 C 34 %
1611 06-10-2019 04:26:17 6.9 C 34 %
1612 06-10-2019 04:36:17 6.9 C 34 %
1613 06-10-2019 04:46:18 6.7 C 35 %
1614 06-10-2019 04:56:18 6.7 C 35 %
1615 06-10-2019 05:06:17 6.7 C 35 %
1616 06-10-2019 05:16:18 6.8 C 35 %
1617 06-10-2019 05:26:18 6.8 C 35 %
1618 06-10-2019 05:36:17 6.8 C 35 %
1619 06-10-2019 05:46:17 6.8 C 35 %
1620 06-10-2019 05:56:17 6.9 C 35 %
1621 06-10-2019 06:06:17 7 C 34 %
1622 06-10-2019 06:16:17 7 C 34 %
1623 06-10-2019 06:26:17 7.1 C 33 %
1624 06-10-2019 06:36:17 7.2 C 33 %
1625 06-10-2019 06:46:18 7.2 C 33 %
Sensor: Nr:Datum:Temp:Feuchte:
Aussen-T/F 1626 06-10-2019 06:56:18 7.2 C 33 %
1627 06-10-2019 07:06:17 7.3 C 33 %
1628 06-10-2019 07:16:17 7.3 C 33 %
1629 06-10-2019 07:26:17 7.3 C 33 %
1630 06-10-2019 07:36:17 7.4 C 33 %
1631 06-10-2019 07:46:17 7.4 C 32 %
1632 06-10-2019 07:56:17 7.5 C 32 %
1633 06-10-2019 08:06:18 7.5 C 32 %
1634 06-10-2019 08:16:17 7.6 C 31 %
1635 06-10-2019 08:26:17 7.7 C 31 %
1636 06-10-2019 08:36:18 7.7 C 31 %
1637 06-10-2019 08:46:17 7.6 C 32 %
1638 06-10-2019 08:56:17 7.6 C 32 %
1639 06-10-2019 09:06:18 7.6 C 33 %
1640 06-10-2019 09:16:17 7.7 C 35 %
1641 06-10-2019 09:26:17 8 C 34 %
1642 06-10-2019 09:36:17 8.1 C 32 %
1643 06-10-2019 09:46:17 8.2 C 32 %
1644 06-10-2019 09:56:17 8.4 C 31 %
1645 06-10-2019 10:06:18 8.4 C 31 %
1646 06-10-2019 10:16:17 8.3 C 30 %
1647 06-10-2019 10:26:17 8.1 C 31 %
1648 06-10-2019 10:36:18 8.1 C 31 %
1649 06-10-2019 10:46:17 8.1 C 31 %
1650 06-10-2019 10:56:17 8.1 C 32 %
Sensor: Nr:Datum:Temp:Feuchte:
Aussen-T/F 1651 06-10-2019 11:06:17 8 C 33 %
1652 06-10-2019 11:16:17 8 C 33 %
1653 06-10-2019 11:26:17 7.9 C 34 %
1654 06-10-2019 11:36:17 8 C 34 %
1655 06-10-2019 11:46:18 8 C 34 %
1656 06-10-2019 11:56:18 8.2 C 34 %
1657 06-10-2019 12:06:17 8.3 C 33 %
1658 06-10-2019 12:16:17 8.3 C 33 %
1659 06-10-2019 12:26:17 8.3 C 34 %
1660 06-10-2019 12:36:17 8.3 C 33 %
1661 06-10-2019 12:46:17 8.4 C 34 %
1662 06-10-2019 12:56:17 8.4 C 33 %
1663 06-10-2019 13:06:17 8.7 C 33 %
1664 06-10-2019 13:16:17 8.6 C 33 %
1665 06-10-2019 13:26:17 8.6 C 33 %
1666 06-10-2019 13:36:17 8.6 C 33 %
1667 06-10-2019 13:46:18 8.8 C 34 %
1668 06-10-2019 13:56:18 9 C 32 %
1669 06-10-2019 14:06:17 9 C 31 %
1670 06-10-2019 14:16:18 8.9 C 32 %
1671 06-10-2019 14:26:18 8.8 C 32 %
1672 06-10-2019 14:36:17 8.8 C 32 %
1673 06-10-2019 14:46:17 9 C 32 %
1674 06-10-2019 14:56:17 9 C 32 %
1675 06-10-2019 15:06:17 8.9 C 33 %
Sensor: Nr:Datum:Temp:Feuchte:
Aussen-T/F 1676 06-10-2019 15:16:17 9 C 33 %
1677 06-10-2019 15:26:18 9.1 C 33 %
1678 06-10-2019 15:36:17 9 C 32 %
1679 06-10-2019 15:46:17 9.1 C 32 %
1680 06-10-2019 15:56:17 9.1 C 32 %
1681 06-10-2019 16:06:17 9.2 C 31 %
1682 06-10-2019 16:16:17 9.3 C 32 %
1683 06-10-2019 16:26:17 9.1 C 32 %
1684 06-10-2019 16:36:18 9 C 32 %
1685 06-10-2019 16:46:17 9 C 33 %
1686 06-10-2019 16:56:17 9 C 33 %
1687 06-10-2019 17:06:17 8.9 C 34 %
1688 06-10-2019 17:16:17 8.9 C 35 %
1689 06-10-2019 17:26:17 8.7 C 35 %
1690 06-10-2019 17:36:17 8.8 C 36 %
1691 06-10-2019 17:46:18 8.8 C 36 %
1692 06-10-2019 17:56:18 8.8 C 36 %
1693 06-10-2019 18:06:17 8.7 C 36 %
1694 06-10-2019 18:16:18 8.7 C 36 %
1695 06-10-2019 18:26:18 8.7 C 36 %
1696 06-10-2019 18:36:17 8.6 C 36 %
1697 06-10-2019 18:46:18 8.6 C 36 %
1698 06-10-2019 18:56:18 8.5 C 36 %
1699 06-10-2019 19:06:17 8.5 C 36 %
1700 06-10-2019 19:16:17 8.5 C 36 %
Sensor: Nr:Datum:Temp:Feuchte:
Aussen-T/F 1701 06-10-2019 19:26:17 8.5 C 36 %
1702 06-10-2019 19:36:17 8.4 C 36 %
1703 06-10-2019 19:46:17 8.5 C 36 %
1704 06-10-2019 19:56:17 8.4 C 36 %
1705 06-10-2019 20:06:17 8.4 C 36 %
1706 06-10-2019 20:16:17 8.4 C 36 %
1707 06-10-2019 20:26:17 8.4 C 36 %
1708 06-10-2019 20:36:17 8.4 C 36 %
1709 06-10-2019 20:46:17 8.4 C 36 %
1710 06-10-2019 20:56:17 8.4 C 36 %
1711 06-10-2019 21:06:17 8.5 C 36 %
1712 06-10-2019 21:16:17 8.5 C 36 %
1713 06-10-2019 21:26:17 8.5 C 36 %
1714 06-10-2019 21:36:18 8.3 C 36 %
1715 06-10-2019 21:46:17 8.3 C 36 %
1716 06-10-2019 21:56:17 8.2 C 36 %
1717 06-10-2019 22:06:17 8.2 C 36 %
1718 06-10-2019 22:16:17 8.2 C 36 %
1719 06-10-2019 22:26:17 8.2 C 36 %
1720 06-10-2019 22:36:18 8.2 C 36 %
1721 06-10-2019 22:46:17 8.1 C 36 %
1722 06-10-2019 22:56:17 8.1 C 36 %
1723 06-10-2019 23:06:18 8.1 C 36 %
1724 06-10-2019 23:16:17 8.3 C 36 %
1725 06-10-2019 23:26:17 8.4 C 36 %
Sensor: Nr:Datum:Temp:Feuchte:
Aussen-T/F 1726 06-10-2019 23:36:18 8.3 C 36 %
1727 06-10-2019 23:46:17 8.4 C 36 %
1728 06-10-2019 23:56:17 8.3 C 36 %
1729 07-10-2019 00:06:17 8.3 C 36 %
1730 07-10-2019 00:16:17 8.3 C 36 %
1731 07-10-2019 00:26:17 8.2 C 36 %
1732 07-10-2019 00:36:17 8.2 C 36 %
1733 07-10-2019 00:46:17 8.4 C 36 %
1734 07-10-2019 00:56:17 8.3 C 36 %
1735 07-10-2019 01:06:17 8.1 C 36 %
1736 07-10-2019 01:16:17 8 C 36 %
1737 07-10-2019 01:26:17 8.1 C 36 %
1738 07-10-2019 01:36:17 8.1 C 36 %
1739 07-10-2019 01:46:17 8.1 C 36 %
1740 07-10-2019 01:56:17 8.1 C 36 %
1741 07-10-2019 02:06:18 8.1 C 36 %
1742 07-10-2019 02:16:17 8.1 C 36 %
1743 07-10-2019 02:26:17 8.1 C 36 %
1744 07-10-2019 02:36:17 8.1 C 36 %
1745 07-10-2019 02:46:17 8 C 36 %
1746 07-10-2019 02:56:17 8 C 36 %
1747 07-10-2019 03:06:17 8.1 C 35 %
1748 07-10-2019 03:16:17 8.1 C 35 %
1749 07-10-2019 03:26:17 8.1 C 35 %
1750 07-10-2019 03:36:18 8 C 36 %
Sensor: Nr:Datum:Temp:Feuchte:
Aussen-T/F 1751 07-10-2019 03:46:17 8 C 35 %
1752 07-10-2019 03:56:17 8.1 C 36 %
1753 07-10-2019 04:06:18 8.1 C 36 %
1754 07-10-2019 04:16:17 8.1 C 36 %
1755 07-10-2019 04:26:17 8.1 C 36 %
1756 07-10-2019 04:36:18 8.1 C 36 %
1757 07-10-2019 04:46:17 8 C 36 %
1758 07-10-2019 04:56:17 8 C 36 %
1759 07-10-2019 05:06:18 8 C 36 %
1760 07-10-2019 05:16:17 8 C 36 %
1761 07-10-2019 05:26:17 7.9 C 36 %
1762 07-10-2019 05:36:17 8 C 36 %
1763 07-10-2019 05:46:17 7.9 C 36 %
1764 07-10-2019 05:56:17 8 C 35 %
1765 07-10-2019 06:06:18 8 C 35 %
1766 07-10-2019 06:16:17 7.9 C 36 %
1767 07-10-2019 06:26:17 7.9 C 37 %
1768 07-10-2019 06:36:17 8 C 36 %
1769 07-10-2019 06:46:18 7.9 C 37 %
1770 07-10-2019 06:56:18 8 C 36 %
1771 07-10-2019 07:06:17 8 C 36 %
1772 07-10-2019 07:16:17 8 C 36 %
1773 07-10-2019 07:26:17 8 C 36 %
1774 07-10-2019 07:36:18 8 C 36 %
1775 07-10-2019 07:46:17 8 C 37 %
Sensor: Nr:Datum:Temp:Feuchte:
Aussen-T/F 1776 07-10-2019 07:56:17 8 C 37 %
1777 07-10-2019 08:06:17 8 C 37 %
1778 07-10-2019 08:16:17 8.1 C 37 %
1779 07-10-2019 08:26:17 8.1 C 37 %
1780 07-10-2019 08:36:17 8.3 C 37 %
1781 07-10-2019 08:46:17 8.2 C 37 %
1782 07-10-2019 08:56:17 8.3 C 37 %
1783 07-10-2019 09:06:17 8.3 C 36 %
1784 07-10-2019 09:16:18 8.4 C 36 %
1785 07-10-2019 09:26:18 8.4 C 35 %
1786 07-10-2019 09:36:17 8.5 C 35 %
1787 07-10-2019 09:46:18 8.4 C 35 %
1788 07-10-2019 09:56:18 8.6 C 35 %
1789 07-10-2019 10:06:17 8.7 C 33 %
1790 07-10-2019 10:16:17 8.9 C 32 %
1791 07-10-2019 10:26:17 9 C 31 %
1792 07-10-2019 10:36:17 8.9 C 31 %
1793 07-10-2019 10:46:17 9.3 C 31 %
1794 07-10-2019 10:56:17 9.3 C 30 %
1795 07-10-2019 11:06:18 9.9 C 29 %
1796 07-10-2019 11:16:17 10.1 C 28 %
1797 07-10-2019 11:26:17 10.7 C 28 %
1798 07-10-2019 11:36:18 10.7 C 27 %
1799 07-10-2019 11:46:17 10.6 C 27 %
1800 07-10-2019 11:56:17 10.7 C 26 %
Sensor: Nr:Datum:Temp:Feuchte:
Aussen-T/F 1801 07-10-2019 12:06:18 11.3 C 26 %
1802 07-10-2019 12:16:17 11.1 C 25 %
1803 07-10-2019 12:26:17 11.5 C 25 %
1804 07-10-2019 12:36:17 11.4 C 25 %
1805 07-10-2019 12:46:17 11.5 C 25 %
1806 07-10-2019 12:56:18 11.4 C 25 %
1807 07-10-2019 13:06:17 10.9 C 26 %
1808 07-10-2019 13:16:17 11 C 25 %
1809 07-10-2019 13:26:17 10.9 C 26 %
1810 07-10-2019 13:36:17 10.8 C 26 %
1811 07-10-2019 13:46:17 11.9 C 25 %
1812 07-10-2019 13:56:17 11.8 C 25 %
1813 07-10-2019 14:06:17 11.5 C 25 %
1814 07-10-2019 14:16:17 11.8 C 25 %
1815 07-10-2019 14:26:17 12.2 C 22 %
1816 07-10-2019 14:36:18 12.3 C 22 %
1817 07-10-2019 14:46:17 12.5 C 22 %
1818 07-10-2019 14:56:17 12.9 C 22 %
1819 07-10-2019 15:06:18 13.4 C 20 %
1820 07-10-2019 15:16:17 12.8 C 22 %
1821 07-10-2019 15:26:17 12.7 C 22 %
1822 07-10-2019 15:36:18 12.7 C 22 %
1823 07-10-2019 15:46:17 12.1 C 23 %
1824 07-10-2019 15:56:17 12.2 C 25 %
1825 07-10-2019 16:06:18 12.2 C 24 %
Sensor: Nr:Datum:Temp:Feuchte:
Aussen-T/F 1826 07-10-2019 16:16:17 12.4 C 25 %
1827 07-10-2019 16:26:17 12.6 C 23 %
1828 07-10-2019 16:36:18 12.4 C 22 %
1829 07-10-2019 16:46:17 12.7 C 24 %
1830 07-10-2019 16:56:17 12.5 C 23 %
1831 07-10-2019 17:06:17 12.3 C 25 %
1832 07-10-2019 17:16:17 12.2 C 24 %
1833 07-10-2019 17:26:17 12.2 C 25 %
1834 07-10-2019 17:36:18 12 C 25 %
1835 07-10-2019 17:46:17 11.8 C 25 %
1836 07-10-2019 17:56:17 11.5 C 26 %
1837 07-10-2019 18:06:18 11.5 C 27 %
1838 07-10-2019 18:16:17 11.4 C 27 %
1839 07-10-2019 18:26:17 11.2 C 29 %
1840 07-10-2019 18:36:17 11 C 30 %
1841 07-10-2019 18:46:17 10.9 C 30 %
1842 07-10-2019 18:56:17 10.7 C 31 %
1843 07-10-2019 19:06:18 10.7 C 31 %
1844 07-10-2019 19:16:17 10.5 C 31 %
1845 07-10-2019 19:26:17 10.3 C 32 %
1846 07-10-2019 19:36:18 9.9 C 33 %
1847 07-10-2019 19:46:17 9.8 C 35 %
1848 07-10-2019 19:56:17 9.9 C 35 %
1849 07-10-2019 20:06:18 10 C 35 %
1850 07-10-2019 20:16:17 10.1 C 35 %
Sensor: Nr:Datum:Temp:Feuchte:
Aussen-T/F 1851 07-10-2019 20:26:17 10.1 C 35 %
1852 07-10-2019 20:36:17 10.3 C 34 %
1853 07-10-2019 20:46:17 10.3 C 34 %
1854 07-10-2019 20:56:17 10.3 C 34 %
1855 07-10-2019 21:06:17 10.4 C 34 %
1856 07-10-2019 21:16:17 10.4 C 34 %
1857 07-10-2019 21:26:17 10.5 C 34 %
1858 07-10-2019 21:36:17 10.5 C 35 %
1859 07-10-2019 21:46:17 10.5 C 35 %
1860 07-10-2019 21:56:17 10.5 C 36 %
1861 07-10-2019 22:06:18 10.4 C 35 %
1862 07-10-2019 22:16:17 10.4 C 35 %
1863 07-10-2019 22:26:17 10.4 C 36 %
1864 07-10-2019 22:36:17 10.4 C 36 %
1865 07-10-2019 22:46:17 10.4 C 36 %
1866 07-10-2019 22:56:17 10.4 C 36 %
1867 07-10-2019 23:06:18 10.5 C 36 %
1868 07-10-2019 23:16:17 10.5 C 35 %
1869 07-10-2019 23:26:17 10.6 C 35 %
1870 07-10-2019 23:36:17 10.6 C 35 %
1871 07-10-2019 23:46:17 10.6 C 35 %
1872 07-10-2019 23:56:17 10.7 C 35 %
1873 08-10-2019 00:06:18 10.7 C 35 %
1874 08-10-2019 00:16:17 10.7 C 35 %
1875 08-10-2019 00:26:17 10.7 C 35 %
Sensor: Nr:Datum:Temp:Feuchte:
Aussen-T/F 1876 08-10-2019 00:36:18 10.8 C 35 %
1877 08-10-2019 00:46:17 10.8 C 35 %
1878 08-10-2019 00:56:17 11.1 C 30 %
1879 08-10-2019 01:06:18 11.3 C 30 %
1880 08-10-2019 01:16:17 11.3 C 30 %
1881 08-10-2019 01:26:17 11.2 C 30 %
1882 08-10-2019 01:36:17 11.3 C 30 %
1883 08-10-2019 01:46:17 11.3 C 30 %
1884 08-10-2019 01:56:17 11.5 C 30 %
1885 08-10-2019 02:06:18 11.2 C 30 %
1886 08-10-2019 02:16:17 11 C 31 %
1887 08-10-2019 02:26:17 11 C 32 %
1888 08-10-2019 02:36:18 11.1 C 31 %
1889 08-10-2019 02:46:17 11.4 C 31 %
1890 08-10-2019 02:56:17 11.4 C 30 %
1891 08-10-2019 03:06:18 11.5 C 30 %
1892 08-10-2019 03:16:17 11.4 C 31 %
1893 08-10-2019 03:26:17 11.2 C 31 %
1894 08-10-2019 03:36:17 11.2 C 31 %
1895 08-10-2019 03:46:17 11.3 C 32 %
1896 08-10-2019 03:56:17 11.2 C 32 %
1897 08-10-2019 04:06:18 11.2 C 32 %
1898 08-10-2019 04:16:17 11.3 C 31 %
1899 08-10-2019 04:26:17 11.5 C 30 %
1900 08-10-2019 04:36:17 11.5 C 30 %
Sensor: Nr:Datum:Temp:Feuchte:
Aussen-T/F 1901 08-10-2019 04:46:18 11.4 C 30 %
1902 08-10-2019 04:56:18 11.6 C 30 %
1903 08-10-2019 05:06:17 11.7 C 29 %
1904 08-10-2019 05:16:18 12 C 26 %
1905 08-10-2019 05:26:18 12.1 C 26 %
1906 08-10-2019 05:36:17 12.3 C 26 %
1907 08-10-2019 05:46:18 12 C 26 %
1908 08-10-2019 05:56:18 11.6 C 29 %
1909 08-10-2019 06:06:17 11.5 C 29 %
1910 08-10-2019 06:16:17 11.4 C 30 %
1911 08-10-2019 06:26:17 11.2 C 31 %
1912 08-10-2019 06:36:17 11.1 C 31 %
1913 08-10-2019 06:46:17 11 C 35 %
1914 08-10-2019 06:56:17 10.9 C 36 %
1915 08-10-2019 07:06:17 10.9 C 36 %
1916 08-10-2019 07:16:17 10.9 C 36 %
1917 08-10-2019 07:26:17 11.1 C 35 %
1918 08-10-2019 07:36:17 11.1 C 35 %
1919 08-10-2019 07:46:17 11.1 C 35 %
1920 08-10-2019 07:56:17 11 C 35 %
1921 08-10-2019 08:06:18 11.1 C 34 %
1922 08-10-2019 08:16:17 11.2 C 34 %
1923 08-10-2019 08:26:17 11.4 C 32 %
1924 08-10-2019 08:36:18 11.3 C 32 %
1925 08-10-2019 08:46:17 11.4 C 33 %
Sensor: Nr:Datum:Temp:Feuchte:
Aussen-T/F 1926 08-10-2019 08:56:17 11.4 C 33 %
1927 08-10-2019 09:06:18 11.6 C 31 %
1928 08-10-2019 09:16:17 11.6 C 31 %
1929 08-10-2019 09:26:17 11.7 C 31 %
1930 08-10-2019 09:36:18 11.8 C 30 %
1931 08-10-2019 09:46:17 12 C 30 %
1932 08-10-2019 09:56:17 12.1 C 29 %
1933 08-10-2019 10:06:17 12 C 29 %
1934 08-10-2019 10:16:18 11.8 C 30 %
1935 08-10-2019 10:26:18 12 C 30 %
1936 08-10-2019 10:36:17 12.1 C 29 %
1937 08-10-2019 10:46:17 12.6 C 28 %
1938 08-10-2019 10:56:17 12.9 C 28 %
1939 08-10-2019 11:06:17 13.1 C 27 %
1940 08-10-2019 11:16:17 13.5 C 26 %
1941 08-10-2019 11:26:17 13.6 C 26 %
1942 08-10-2019 11:36:17 13.8 C 26 %
1943 08-10-2019 11:46:18 13.6 C 26 %
1944 08-10-2019 11:56:18 13.6 C 26 %
1945 08-10-2019 12:06:17 13.7 C 26 %
1946 08-10-2019 12:16:17 13.6 C 26 %
1947 08-10-2019 12:26:17 13.7 C 26 %
1948 08-10-2019 12:36:17 13.7 C 26 %
1949 08-10-2019 12:46:18 13.8 C 26 %
1950 08-10-2019 12:56:18 14 C 25 %
Sensor: Nr:Datum:Temp:Feuchte:
Aussen-T/F 1951 08-10-2019 13:06:17 14 C 25 %
1952 08-10-2019 13:16:18 13.7 C 26 %
1953 08-10-2019 13:26:18 13.8 C 27 %
1954 08-10-2019 13:36:17 13.7 C 26 %
1955 08-10-2019 13:46:17 13.8 C 27 %
1956 08-10-2019 13:56:17 13.9 C 26 %
1957 08-10-2019 14:06:17 14 C 26 %
1958 08-10-2019 14:16:17 14.2 C 26 %
1959 08-10-2019 14:26:18 14.2 C 26 %
1960 08-10-2019 14:36:17 14.3 C 26 %
1961 08-10-2019 14:46:17 14.3 C 26 %
1962 08-10-2019 14:56:17 14.2 C 26 %
1963 08-10-2019 15:06:17 14.2 C 26 %
1964 08-10-2019 15:16:17 14.2 C 26 %
1965 08-10-2019 15:26:17 13.6 C 29 %
1966 08-10-2019 15:36:17 13.6 C 29 %
1967 08-10-2019 15:46:17 13.5 C 30 %
1968 08-10-2019 15:56:17 13.6 C 30 %
1969 08-10-2019 16:06:17 13.7 C 30 %
1970 08-10-2019 16:16:17 13.5 C 30 %
1971 08-10-2019 16:26:17 13.6 C 30 %
1972 08-10-2019 16:36:18 13.6 C 30 %
1973 08-10-2019 16:46:17 13.5 C 30 %
1974 08-10-2019 16:56:17 13.5 C 30 %
1975 08-10-2019 17:06:17 13.5 C 30 %
Sensor: Nr:Datum:Temp:Feuchte:
Aussen-T/F 1976 08-10-2019 17:16:17 13.4 C 32 %
1977 08-10-2019 17:26:17 13.4 C 32 %
1978 08-10-2019 17:36:17 13.3 C 32 %
1979 08-10-2019 17:46:18 13.4 C 32 %
1980 08-10-2019 17:56:18 13.5 C 33 %
1981 08-10-2019 18:06:17 13.5 C 32 %
1982 08-10-2019 18:16:17 13.5 C 32 %
1983 08-10-2019 18:26:17 13.5 C 32 %
1984 08-10-2019 18:36:17 13.3 C 32 %
1985 08-10-2019 18:46:18 13.1 C 34 %
1986 08-10-2019 18:56:18 13.1 C 35 %
1987 08-10-2019 19:06:17 13.2 C 35 %
1988 08-10-2019 19:16:18 13.1 C 34 %
1989 08-10-2019 19:26:18 13.6 C 35 %
1990 08-10-2019 19:36:17 13.1 C 35 %
1991 08-10-2019 19:46:17 13.1 C 35 %
1992 08-10-2019 19:56:17 13 C 35 %
1993 08-10-2019 20:06:17 13 C 35 %
1994 08-10-2019 20:16:18 13 C 35 %
1995 08-10-2019 20:26:18 12.9 C 35 %
1996 08-10-2019 20:36:17 12.8 C 35 %
1997 08-10-2019 20:46:17 12.7 C 35 %
1998 08-10-2019 20:56:17 12.7 C 35 %
1999 08-10-2019 21:06:18 12.7 C 35 %
2000 08-10-2019 21:16:17 12.6 C 35 %
Sensor: Nr:Datum:Temp:Feuchte:
Aussen-T/F 2001 08-10-2019 21:26:17 12.6 C 35 %
2002 08-10-2019 21:36:17 12.5 C 35 %
2003 08-10-2019 21:46:17 12.5 C 35 %
2004 08-10-2019 21:56:17 12.6 C 35 %
2005 08-10-2019 22:06:18 12.4 C 35 %
2006 08-10-2019 22:16:17 12.4 C 35 %
2007 08-10-2019 22:26:17 12.2 C 35 %
2008 08-10-2019 22:36:18 12 C 35 %
2009 08-10-2019 22:46:17 11.8 C 35 %
2010 08-10-2019 22:56:17 11.6 C 35 %
2011 08-10-2019 23:06:18 11.4 C 35 %
2012 08-10-2019 23:16:17 11.1 C 35 %
2013 08-10-2019 23:26:17 11.1 C 35 %
2014 08-10-2019 23:36:17 11 C 35 %
2015 08-10-2019 23:46:17 10.9 C 36 %
2016 08-10-2019 23:56:17 10.6 C 36 %
2017 09-10-2019 00:06:17 10.4 C 36 %
2018 09-10-2019 00:16:17 10.1 C 36 %
2019 09-10-2019 00:26:17 9.9 C 36 %
2020 09-10-2019 00:36:17 9.8 C 36 %
2021 09-10-2019 00:46:17 9.7 C 37 %
2022 09-10-2019 00:56:17 9.6 C 37 %
2023 09-10-2019 01:06:17 9.7 C 37 %
2024 09-10-2019 01:16:17 9.7 C 37 %
2025 09-10-2019 01:26:17 9.8 C 37 %
Sensor: Nr:Datum:Temp:Feuchte:
Aussen-T/F 2026 09-10-2019 01:36:17 9.8 C 37 %
2027 09-10-2019 01:46:17 9.9 C 37 %
2028 09-10-2019 01:56:17 9.9 C 36 %
2029 09-10-2019 02:06:17 10.1 C 36 %
2030 09-10-2019 02:16:17 10.2 C 35 %
2031 09-10-2019 02:26:17 10 C 35 %
2032 09-10-2019 02:36:17 9.8 C 36 %
2033 09-10-2019 02:46:17 10.1 C 36 %
2034 09-10-2019 02:56:17 10.5 C 36 %
2035 09-10-2019 03:06:18 10.4 C 36 %
2036 09-10-2019 03:16:17 10.2 C 36 %
2037 09-10-2019 03:26:17 9.7 C 36 %
2038 09-10-2019 03:36:18 9.6 C 36 %
2039 09-10-2019 03:46:17 10.3 C 36 %
2040 09-10-2019 03:56:17 11.1 C 35 %
2041 09-10-2019 04:06:17 11.2 C 31 %
2042 09-10-2019 04:16:17 11 C 30 %
2043 09-10-2019 04:26:17 11 C 31 %
2044 09-10-2019 04:36:17 11 C 31 %
2045 09-10-2019 04:46:17 11.1 C 31 %
2046 09-10-2019 04:56:17 10.5 C 32 %
2047 09-10-2019 05:06:18 10.3 C 35 %
2048 09-10-2019 05:16:17 10.4 C 34 %
2049 09-10-2019 05:26:17 10.6 C 33 %
2050 09-10-2019 05:36:18 10.8 C 32 %
Sensor: Nr:Datum:Temp:Feuchte:
Aussen-T/F 2051 09-10-2019 05:46:17 11.1 C 30 %
2052 09-10-2019 05:56:17 11.1 C 30 %
2053 09-10-2019 06:06:17 11.2 C 30 %
2054 09-10-2019 06:16:17 11.3 C 30 %
2055 09-10-2019 06:26:17 11.1 C 30 %
2056 09-10-2019 06:36:17 11.1 C 30 %
2057 09-10-2019 06:46:18 11 C 30 %
2058 09-10-2019 06:56:18 11 C 29 %
2059 09-10-2019 07:06:17 10.9 C 30 %
2060 09-10-2019 07:16:18 10.7 C 30 %
2061 09-10-2019 07:26:18 10.1 C 31 %
2062 09-10-2019 07:36:17 10.8 C 30 %
2063 09-10-2019 07:46:17 11.1 C 29 %
2064 09-10-2019 07:56:17 10.8 C 30 %
2065 09-10-2019 08:06:17 10.6 C 30 %
2066 09-10-2019 08:16:17 10.7 C 30 %
2067 09-10-2019 08:26:17 11 C 30 %
2068 09-10-2019 08:36:17 10.9 C 30 %
2069 09-10-2019 08:46:17 11.1 C 29 %
2070 09-10-2019 08:56:17 11.2 C 28 %
2071 09-10-2019 09:06:18 11.4 C 28 %
2072 09-10-2019 09:16:17 10.7 C 30 %
2073 09-10-2019 09:26:17 11 C 30 %
2074 09-10-2019 09:36:17 11.2 C 29 %
2075 09-10-2019 09:46:17 12.2 C 26 %
Sensor: Nr:Datum:Temp:Feuchte:
Aussen-T/F 2076 09-10-2019 09:56:17 12.3 C 25 %
2077 09-10-2019 10:06:17 12.3 C 25 %
2078 09-10-2019 10:16:18 12.5 C 26 %
2079 09-10-2019 10:26:18 13.1 C 24 %
2080 09-10-2019 10:36:17 13.3 C 23 %
2081 09-10-2019 10:46:17 13.3 C 22 %
2082 09-10-2019 10:56:17 13.6 C 22 %
2083 09-10-2019 11:06:17 13.5 C 22 %
2084 09-10-2019 11:16:17 13.6 C 23 %
2085 09-10-2019 11:26:17 14.1 C 21 %
2086 09-10-2019 11:36:17 14.1 C 22 %
2087 09-10-2019 11:46:17 13.8 C 20 %
2088 09-10-2019 11:56:17 13.8 C 21 %
2089 09-10-2019 12:06:17 13.8 C 21 %
2090 09-10-2019 12:16:17 13.6 C 21 %
2091 09-10-2019 12:26:17 12.8 C 25 %
2092 09-10-2019 12:36:18 13.5 C 24 %
2093 09-10-2019 12:46:17 12.6 C 26 %
2094 09-10-2019 12:56:17 12.6 C 27 %
2095 09-10-2019 13:06:17 12.5 C 28 %
2096 09-10-2019 13:16:17 12.3 C 30 %
2097 09-10-2019 13:26:17 13.1 C 28 %
2098 09-10-2019 13:36:17 14 C 25 %
2099 09-10-2019 13:46:18 13.7 C 26 %
2100 09-10-2019 13:56:18 13.7 C 25 %
Sensor: Nr:Datum:Temp:Feuchte:
Aussen-T/F 2101 09-10-2019 14:06:17 12.7 C 26 %
2102 09-10-2019 14:16:18 12 C 27 %
2103 09-10-2019 14:26:18 11.6 C 31 %
2104 09-10-2019 14:36:17 11.6 C 31 %
2105 09-10-2019 14:46:18 11.6 C 29 %
2106 09-10-2019 14:56:18 11.5 C 30 %
2107 09-10-2019 15:06:17 11.5 C 28 %
2108 09-10-2019 15:16:17 12 C 26 %
2109 09-10-2019 15:26:17 12.2 C 26 %
2110 09-10-2019 15:36:17 12.4 C 25 %
2111 09-10-2019 15:46:17 12.7 C 25 %
2112 09-10-2019 15:56:18 12.9 C 25 %
2113 09-10-2019 16:06:17 13 C 22 %
2114 09-10-2019 16:16:18 14.3 C 20 %
2115 09-10-2019 16:26:18 13.4 C 20 %
2116 09-10-2019 16:36:17 13.6 C 20 %
2117 09-10-2019 16:46:18 13.4 C 20 %
2118 09-10-2019 16:56:18 13.6 C 20 %
2119 09-10-2019 17:06:17 13.5 C 20 %
2120 09-10-2019 17:16:18 13.2 C 20 %
2121 09-10-2019 17:26:18 14.2 C 20 %
2122 09-10-2019 17:36:17 14.5 C 20 %
2123 09-10-2019 17:46:18 13.8 C 20 %
2124 09-10-2019 17:56:18 13 C 20 %
2125 09-10-2019 18:06:17 12.7 C 21 %
Sensor: Nr:Datum:Temp:Feuchte:
Aussen-T/F 2126 09-10-2019 18:16:18 12.4 C 20 %
2127 09-10-2019 18:26:18 12.1 C 22 %
2128 09-10-2019 18:36:17 11.9 C 24 %
2129 09-10-2019 18:46:17 11.9 C 25 %
2130 09-10-2019 18:56:17 11.7 C 25 %
2131 09-10-2019 19:06:17 11.8 C 25 %
2132 09-10-2019 19:16:17 11.5 C 25 %
2133 09-10-2019 19:26:17 11.3 C 26 %
2134 09-10-2019 19:36:18 11.2 C 26 %
2135 09-10-2019 19:46:17 11.3 C 25 %
2136 09-10-2019 19:56:17 11.4 C 25 %
2137 09-10-2019 20:06:18 11.2 C 25 %
2138 09-10-2019 20:16:17 10.8 C 26 %
2139 09-10-2019 20:26:17 10.7 C 26 %
2140 09-10-2019 20:36:17 10.7 C 26 %
2141 09-10-2019 20:46:17 10.8 C 26 %
2142 09-10-2019 20:56:17 10.8 C 26 %
2143 09-10-2019 21:06:17 11.1 C 25 %
2144 09-10-2019 21:16:17 10.9 C 26 %
2145 09-10-2019 21:26:17 10.8 C 26 %
2146 09-10-2019 21:36:18 10.8 C 27 %
2147 09-10-2019 21:46:17 11.2 C 25 %
2148 09-10-2019 21:56:17 11.1 C 25 %
2149 09-10-2019 22:06:17 11.3 C 25 %
2150 09-10-2019 22:16:17 11.1 C 25 %
Sensor: Nr:Datum:Temp:Feuchte:
Aussen-T/F 2151 09-10-2019 22:26:17 11 C 25 %
2152 09-10-2019 22:36:18 11 C 24 %
2153 09-10-2019 22:46:17 11 C 24 %
2154 09-10-2019 22:56:17 10.8 C 25 %
2155 09-10-2019 23:06:18 10.7 C 25 %
2156 09-10-2019 23:16:17 10.7 C 25 %
2157 09-10-2019 23:26:17 11 C 24 %
2158 09-10-2019 23:36:17 10.6 C 25 %
2159 09-10-2019 23:46:17 10.5 C 25 %
2160 09-10-2019 23:56:17 10.6 C 25 %
2161 10-10-2019 00:06:18 10.2 C 25 %
2162 10-10-2019 00:16:17 10.2 C 25 %
2163 10-10-2019 00:26:17 10.1 C 25 %
2164 10-10-2019 00:36:17 10.1 C 25 %
2165 10-10-2019 00:46:17 10 C 25 %
2166 10-10-2019 00:56:17 10 C 25 %
2167 10-10-2019 01:06:18 10.1 C 25 %
2168 10-10-2019 01:16:17 10.2 C 25 %
2169 10-10-2019 01:26:17 9.9 C 27 %
2170 10-10-2019 01:36:18 9.8 C 27 %
2171 10-10-2019 01:46:17 9.7 C 28 %
2172 10-10-2019 01:56:17 9.7 C 28 %
2173 10-10-2019 02:06:18 10.1 C 26 %
2174 10-10-2019 02:16:17 10.4 C 26 %
2175 10-10-2019 02:26:17 10.3 C 26 %
Sensor: Nr:Datum:Temp:Feuchte:
Aussen-T/F 2176 10-10-2019 02:36:18 10.3 C 26 %
2177 10-10-2019 02:46:17 10.4 C 26 %
2178 10-10-2019 02:56:17 10.4 C 26 %
2179 10-10-2019 03:06:17 10.4 C 26 %
2180 10-10-2019 03:16:17 9.9 C 30 %
2181 10-10-2019 03:26:17 9.8 C 30 %
2182 10-10-2019 03:36:17 9.9 C 30 %
2183 10-10-2019 03:46:18 9.8 C 31 %
2184 10-10-2019 03:56:18 10.1 C 29 %
2185 10-10-2019 04:06:17 9.7 C 30 %
2186 10-10-2019 04:16:17 10.2 C 28 %
2187 10-10-2019 04:26:17 10.2 C 28 %
2188 10-10-2019 04:36:17 10 C 29 %
2189 10-10-2019 04:46:18 9.8 C 31 %
2190 10-10-2019 04:56:18 9.6 C 35 %
2191 10-10-2019 05:06:17 9.5 C 34 %
2192 10-10-2019 05:16:18 9.6 C 33 %
2193 10-10-2019 05:26:18 9.8 C 31 %
2194 10-10-2019 05:36:17 9.9 C 31 %
2195 10-10-2019 05:46:18 9.8 C 31 %
2196 10-10-2019 05:56:18 10.1 C 30 %
2197 10-10-2019 06:06:17 10.1 C 30 %
2198 10-10-2019 06:16:18 10 C 30 %
2199 10-10-2019 06:26:18 9.9 C 31 %
2200 10-10-2019 06:36:17 9.8 C 31 %
Sensor: Nr:Datum:Temp:Feuchte:
Aussen-T/F 2201 10-10-2019 06:46:17 9.7 C 32 %
2202 10-10-2019 06:56:17 9.7 C 31 %
2203 10-10-2019 07:06:17 9.7 C 30 %
2204 10-10-2019 07:16:17 9.7 C 30 %
2205 10-10-2019 07:26:17 9.7 C 30 %
2206 10-10-2019 07:36:17 9.8 C 29 %
2207 10-10-2019 07:46:17 9.7 C 29 %
2208 10-10-2019 07:56:17 9.5 C 30 %
2209 10-10-2019 08:06:18 9.5 C 29 %
2210 10-10-2019 08:16:17 9.7 C 28 %
2211 10-10-2019 08:26:17 9.5 C 29 %
2212 10-10-2019 08:36:17 9.8 C 28 %
2213 10-10-2019 08:46:17 10 C 27 %
2214 10-10-2019 08:56:17 10.4 C 26 %
2215 10-10-2019 09:06:17 10.2 C 27 %
2216 10-10-2019 09:16:17 10.5 C 27 %
2217 10-10-2019 09:26:17 10.8 C 26 %
2218 10-10-2019 09:36:18 10.7 C 26 %
2219 10-10-2019 09:46:17 10.9 C 26 %
2220 10-10-2019 09:56:17 11 C 26 %
2221 10-10-2019 10:06:17 10.8 C 26 %
2222 10-10-2019 10:16:17 11.1 C 25 %
2223 10-10-2019 10:26:17 11 C 25 %
2224 10-10-2019 10:36:17 11.5 C 25 %
2225 10-10-2019 10:46:17 11.5 C 25 %
Sensor: Nr:Datum:Temp:Feuchte:
Aussen-T/F 2226 10-10-2019 10:56:17 11.6 C 25 %
2227 10-10-2019 11:06:17 11.7 C 25 %
2228 10-10-2019 11:16:17 12.3 C 23 %
2229 10-10-2019 11:26:17 12.6 C 20 %
2230 10-10-2019 11:36:17 12.7 C 20 %
2231 10-10-2019 11:46:17 12.6 C 21 %
2232 10-10-2019 11:56:17 12.7 C 21 %
2233 10-10-2019 12:06:17 13.4 C 20 %
2234 10-10-2019 12:16:18 13.4 C 20 %
2235 10-10-2019 12:26:18 13.5 C 20 %
2236 10-10-2019 12:36:17 13.6 C 20 %
2237 10-10-2019 12:46:17 14 C 20 %
2238 10-10-2019 12:56:17 14.2 C 20 %
2239 10-10-2019 13:06:17 14.6 C 20 %
2240 10-10-2019 13:16:18 14.5 C 20 %
2241 10-10-2019 13:26:18 14.7 C 20 %
2242 10-10-2019 13:36:17 15.2 C 20 %
2243 10-10-2019 13:46:18 14.3 C 20 %
2244 10-10-2019 13:56:18 14.8 C 20 %
2245 10-10-2019 14:06:17 14.7 C 20 %
2246 10-10-2019 14:16:17 15.5 C 20 %
2247 10-10-2019 14:26:17 14.7 C 20 %
2248 10-10-2019 14:36:17 13.7 C 20 %
2249 10-10-2019 14:46:18 15 C 20 %
2250 10-10-2019 14:56:18 15.2 C 20 %
Sensor: Nr:Datum:Temp:Feuchte:
Aussen-T/F 2251 10-10-2019 15:06:17 15 C 20 %
2252 10-10-2019 15:16:18 15.3 C 20 %
2253 10-10-2019 15:26:18 15.5 C 20 %
2254 10-10-2019 15:36:17 15.4 C 20 %
2255 10-10-2019 15:46:17 15.1 C 20 %
2256 10-10-2019 15:56:17 15.3 C 20 %
2257 10-10-2019 16:06:17 16.4 C 20 %
2258 10-10-2019 16:16:18 16 C 20 %
2259 10-10-2019 16:26:18 17.5 C 20 %
2260 10-10-2019 16:36:17 15.5 C 20 %
2261 10-10-2019 16:46:17 15.1 C 20 %
2262 10-10-2019 16:56:17 12.9 C 22 %
2263 10-10-2019 17:06:18 13 C 20 %
2264 10-10-2019 17:16:18 15.7 C 20 %
2265 10-10-2019 17:26:18 15.4 C 20 %
2266 10-10-2019 17:36:18 13.7 C 20 %
2267 10-10-2019 17:46:18 13.6 C 20 %
2268 10-10-2019 17:56:18 13.6 C 20 %
2269 10-10-2019 18:06:17 13.2 C 20 %
2270 10-10-2019 18:16:17 13.2 C 20 %
2271 10-10-2019 18:26:17 13.1 C 20 %
2272 10-10-2019 18:36:17 12.8 C 22 %
2273 10-10-2019 18:46:18 12.2 C 22 %
2274 10-10-2019 18:56:18 11.8 C 25 %
2275 10-10-2019 19:06:17 11.5 C 26 %
Sensor: Nr:Datum:Temp:Feuchte:
Aussen-T/F 2276 10-10-2019 19:16:17 11.1 C 27 %
2277 10-10-2019 19:26:17 11 C 27 %
2278 10-10-2019 19:36:17 11.2 C 26 %
2279 10-10-2019 19:46:17 11.5 C 26 %
2280 10-10-2019 19:56:17 12 C 25 %
2281 10-10-2019 20:06:17 12.1 C 24 %
2282 10-10-2019 20:16:17 11.9 C 25 %
2283 10-10-2019 20:26:17 12 C 25 %
2284 10-10-2019 20:36:18 11.9 C 26 %
2285 10-10-2019 20:46:17 11.4 C 26 %
2286 10-10-2019 20:56:17 11.2 C 27 %
2287 10-10-2019 21:06:17 10.8 C 28 %
2288 10-10-2019 21:16:17 10 C 30 %
2289 10-10-2019 21:26:17 10 C 31 %
2290 10-10-2019 21:36:17 9.7 C 33 %
2291 10-10-2019 21:46:17 9.4 C 35 %
2292 10-10-2019 21:56:17 9.4 C 35 %
2293 10-10-2019 22:06:17 9.1 C 36 %
2294 10-10-2019 22:16:17 9.5 C 37 %
2295 10-10-2019 22:26:17 9.3 C 36 %
2296 10-10-2019 22:36:17 9.2 C 36 %
2297 10-10-2019 22:46:17 9.1 C 36 %
2298 10-10-2019 22:56:17 9.2 C 37 %
2299 10-10-2019 23:06:17 9.1 C 37 %
2300 10-10-2019 23:16:18 9 C 37 %
Sensor: Nr:Datum:Temp:Feuchte:
Aussen-T/F 2301 10-10-2019 23:26:18 8.8 C 37 %
2302 10-10-2019 23:36:17 8.7 C 37 %
2303 10-10-2019 23:46:18 8.9 C 37 %
2304 10-10-2019 23:56:18 9 C 37 %
2305 11-10-2019 00:06:17 9 C 37 %
2306 11-10-2019 00:16:17 8.8 C 37 %
2307 11-10-2019 00:26:17 8.6 C 37 %
2308 11-10-2019 00:36:17 8.8 C 37 %
2309 11-10-2019 00:46:17 8.9 C 37 %
2310 11-10-2019 00:56:17 8.8 C 37 %
2311 11-10-2019 01:06:17 8.4 C 36 %
2312 11-10-2019 01:16:17 8.2 C 36 %
2313 11-10-2019 01:26:17 8.3 C 37 %
2314 11-10-2019 01:36:18 8.5 C 37 %
2315 11-10-2019 01:46:17 8 C 36 %
2316 11-10-2019 01:56:17 8.1 C 37 %
2317 11-10-2019 02:06:18 7.8 C 37 %
2318 11-10-2019 02:16:17 8 C 37 %
2319 11-10-2019 02:26:17 8 C 37 %
2320 11-10-2019 02:36:17 8.2 C 38 %
2321 11-10-2019 02:46:17 8.1 C 37 %
2322 11-10-2019 02:56:17 8 C 37 %
2323 11-10-2019 03:06:17 7.9 C 37 %
2324 11-10-2019 03:16:18 7.9 C 38 %
2325 11-10-2019 03:26:18 8.3 C 37 %
Sensor: Nr:Datum:Temp:Feuchte:
Aussen-T/F 2326 11-10-2019 03:36:17 8.8 C 37 %
2327 11-10-2019 03:46:17 9.2 C 36 %
2328 11-10-2019 03:56:17 9.8 C 32 %
2329 11-10-2019 04:06:17 9.9 C 30 %
2330 11-10-2019 04:16:17 9.8 C 30 %
2331 11-10-2019 04:26:17 9 C 31 %
2332 11-10-2019 04:36:18 9.1 C 31 %
2333 11-10-2019 04:46:17 9.1 C 31 %
2334 11-10-2019 04:56:17 9.2 C 32 %
2335 11-10-2019 05:06:17 9.4 C 31 %
2336 11-10-2019 05:16:17 9 C 31 %
2337 11-10-2019 05:26:17 9.2 C 31 %
2338 11-10-2019 05:36:17 9.2 C 31 %
2339 11-10-2019 05:46:17 8.8 C 32 %
2340 11-10-2019 05:56:17 8.4 C 33 %
2341 11-10-2019 06:06:18 8.4 C 35 %
2342 11-10-2019 06:16:17 8.7 C 36 %
2343 11-10-2019 06:26:17 8.8 C 35 %
2344 11-10-2019 06:36:18 8.9 C 35 %
2345 11-10-2019 06:46:17 9 C 35 %
2346 11-10-2019 06:56:17 9 C 35 %
2347 11-10-2019 07:06:17 9.1 C 35 %
2348 11-10-2019 07:16:17 9.3 C 34 %
2349 11-10-2019 07:26:17 9.7 C 32 %
2350 11-10-2019 07:36:17 9.7 C 32 %
Sensor: Nr:Datum:Temp:Feuchte:
Aussen-T/F 2351 11-10-2019 07:46:17 9.8 C 32 %
2352 11-10-2019 07:56:17 10.1 C 33 %
2353 11-10-2019 08:06:17 10.2 C 32 %
2354 11-10-2019 08:16:17 10.3 C 33 %
2355 11-10-2019 08:26:17 11 C 31 %
2356 11-10-2019 08:36:17 11.2 C 31 %
2357 11-10-2019 08:46:17 11.6 C 30 %
2358 11-10-2019 08:56:17 11.9 C 30 %
2359 11-10-2019 09:06:17 12.1 C 28 %
2360 11-10-2019 09:16:17 12.4 C 28 %
2361 11-10-2019 09:26:17 12.5 C 28 %
2362 11-10-2019 09:36:18 12.6 C 29 %
2363 11-10-2019 09:46:17 12.7 C 29 %
2364 11-10-2019 09:56:17 12.8 C 28 %
2365 11-10-2019 10:06:17 13 C 27 %
2366 11-10-2019 10:16:17 13.1 C 27 %
2367 11-10-2019 10:26:17 13.2 C 27 %
2368 11-10-2019 10:36:18 13.8 C 26 %
2369 11-10-2019 10:46:17 13.9 C 26 %
2370 11-10-2019 10:56:17 14 C 25 %
2371 11-10-2019 11:06:17 14.8 C 25 %
2372 11-10-2019 11:16:18 15.3 C 22 %
2373 11-10-2019 11:26:18 15.8 C 21 %
2374 11-10-2019 11:36:17 15.8 C 21 %
2375 11-10-2019 11:46:17 15.8 C 20 %
Sensor: Nr:Datum:Temp:Feuchte:
Aussen-T/F 2376 11-10-2019 11:56:17 15.7 C 20 %
2377 11-10-2019 12:06:17 15.6 C 20 %
2378 11-10-2019 12:16:17 15.8 C 20 %
2379 11-10-2019 12:26:17 16.4 C 20 %
2380 11-10-2019 12:36:18 16.6 C 20 %
2381 11-10-2019 12:46:17 16.1 C 20 %
2382 11-10-2019 12:56:17 16 C 20 %
2383 11-10-2019 13:06:18 16.7 C 20 %
2384 11-10-2019 13:16:17 16.6 C 20 %
2385 11-10-2019 13:26:17 16.6 C 20 %
2386 11-10-2019 13:36:17 16.9 C 20 %
2387 11-10-2019 13:46:17 17 C 20 %
2388 11-10-2019 13:56:17 16.5 C 20 %
2389 11-10-2019 14:06:17 16.4 C 20 %
2390 11-10-2019 14:16:17 16.4 C 20 %
2391 11-10-2019 14:26:17 16.3 C 20 %
2392 11-10-2019 14:36:17 16.2 C 20 %
2393 11-10-2019 14:46:17 16.4 C 20 %
2394 11-10-2019 14:56:17 16.8 C 20 %
2395 11-10-2019 15:06:17 17 C 20 %
2396 11-10-2019 15:16:17 16.8 C 20 %
2397 11-10-2019 15:26:18 16.8 C 20 %
2398 11-10-2019 15:36:17 16.7 C 20 %
2399 11-10-2019 15:46:18 16.8 C 20 %
2400 11-10-2019 15:56:18 16.6 C 20 %
Sensor: Nr:Datum:Temp:Feuchte:
Aussen-T/F 2401 11-10-2019 16:06:17 16.8 C 20 %
2402 11-10-2019 16:16:17 16.7 C 20 %
2403 11-10-2019 16:26:17 16.7 C 20 %
2404 11-10-2019 16:36:18 16.7 C 20 %
2405 11-10-2019 16:46:17 16.8 C 20 %
2406 11-10-2019 16:56:17 16.8 C 20 %
2407 11-10-2019 17:06:17 17.1 C 20 %
2408 11-10-2019 17:16:17 16.9 C 20 %
2409 11-10-2019 17:26:17 16.8 C 20 %
2410 11-10-2019 17:36:18 16.8 C 20 %
2411 11-10-2019 17:46:17 16.7 C 20 %
2412 11-10-2019 17:56:17 16.8 C 20 %
2413 11-10-2019 18:06:18 16.2 C 20 %
2414 11-10-2019 18:16:17 15.9 C 20 %
2415 11-10-2019 18:26:17 15.6 C 20 %
2416 11-10-2019 18:36:18 14.9 C 23 %
2417 11-10-2019 18:46:17 14.4 C 25 %
2418 11-10-2019 18:56:17 14 C 26 %
2419 11-10-2019 19:06:17 14 C 26 %
2420 11-10-2019 19:16:17 13.5 C 27 %
2421 11-10-2019 19:26:17 13.3 C 29 %
2422 11-10-2019 19:36:17 13.1 C 29 %
2423 11-10-2019 19:46:17 13 C 30 %
2424 11-10-2019 19:56:17 13.2 C 30 %
2425 11-10-2019 20:06:17 13.2 C 30 %
Sensor: Nr:Datum:Temp:Feuchte:
Aussen-T/F 2426 11-10-2019 20:16:18 13.1 C 30 %
2427 11-10-2019 20:26:18 13 C 30 %
2428 11-10-2019 20:36:17 12.9 C 30 %
2429 11-10-2019 20:46:17 12.5 C 31 %
2430 11-10-2019 20:56:17 12.6 C 31 %
2431 11-10-2019 21:06:17 12.5 C 32 %
2432 11-10-2019 21:16:18 12.1 C 32 %
2433 11-10-2019 21:26:18 12 C 32 %
2434 11-10-2019 21:36:17 11.7 C 35 %
2435 11-10-2019 21:46:17 11.5 C 35 %
2436 11-10-2019 21:56:17 11.3 C 35 %
2437 11-10-2019 22:06:17 11.2 C 35 %
2438 11-10-2019 22:16:17 11.2 C 36 %
2439 11-10-2019 22:26:17 11.2 C 36 %
2440 11-10-2019 22:36:18 11.1 C 36 %
2441 11-10-2019 22:46:17 11.2 C 37 %
2442 11-10-2019 22:56:17 11.2 C 36 %
2443 11-10-2019 23:06:17 11 C 36 %
2444 11-10-2019 23:16:17 11.1 C 36 %
2445 11-10-2019 23:26:17 11 C 36 %
2446 11-10-2019 23:36:18 10.8 C 37 %
2447 11-10-2019 23:46:17 10.6 C 36 %
2448 11-10-2019 23:56:17 10.5 C 37 %
2449 12-10-2019 00:06:17 10.4 C 37 %
2450 12-10-2019 00:16:18 10.5 C 37 %
Sensor: Nr:Datum:Temp:Feuchte:
Aussen-T/F 2451 12-10-2019 00:26:18 10.4 C 37 %
2452 12-10-2019 00:36:17 10.2 C 36 %
2453 12-10-2019 00:46:17 9.9 C 37 %
2454 12-10-2019 00:56:17 9.8 C 37 %
2455 12-10-2019 01:06:17 9.8 C 37 %
2456 12-10-2019 01:16:17 9.7 C 37 %
2457 12-10-2019 01:26:17 9.6 C 37 %
2458 12-10-2019 01:36:17 9.8 C 37 %
2459 12-10-2019 01:46:17 9.8 C 37 %
2460 12-10-2019 01:56:17 9.7 C 37 %
2461 12-10-2019 02:06:17 9.7 C 37 %
2462 12-10-2019 02:16:17 9.6 C 37 %
2463 12-10-2019 02:26:17 9.6 C 37 %
2464 12-10-2019 02:36:17 9.4 C 37 %
2465 12-10-2019 02:46:17 9.4 C 37 %
2466 12-10-2019 02:56:17 9.2 C 37 %
2467 12-10-2019 03:06:17 9.3 C 37 %
2468 12-10-2019 03:16:17 9.2 C 37 %
2469 12-10-2019 03:26:17 9.1 C 37 %
2470 12-10-2019 03:36:17 9 C 37 %
2471 12-10-2019 03:46:17 9 C 37 %
2472 12-10-2019 03:56:17 9 C 37 %
2473 12-10-2019 04:06:17 9.1 C 37 %
2474 12-10-2019 04:16:17 9.7 C 37 %
2475 12-10-2019 04:26:17 9.3 C 37 %
Sensor: Nr:Datum:Temp:Feuchte:
Aussen-T/F 2476 12-10-2019 04:36:17 9.2 C 36 %
2477 12-10-2019 04:46:17 9 C 36 %
2478 12-10-2019 04:56:18 9 C 37 %
2479 12-10-2019 05:06:17 9.1 C 37 %
2480 12-10-2019 05:16:17 8.8 C 37 %
2481 12-10-2019 05:26:17 8.6 C 37 %
2482 12-10-2019 05:36:17 8.3 C 37 %
2483 12-10-2019 05:46:17 8.4 C 37 %
2484 12-10-2019 05:56:17 8.2 C 37 %
2485 12-10-2019 06:06:18 8.3 C 37 %
2486 12-10-2019 06:16:17 8.1 C 37 %
2487 12-10-2019 06:26:17 8.1 C 37 %
2488 12-10-2019 06:36:18 7.9 C 37 %
2489 12-10-2019 06:46:17 7.8 C 37 %
2490 12-10-2019 06:56:17 8.1 C 37 %
2491 12-10-2019 07:06:18 8.2 C 37 %
2492 12-10-2019 07:16:17 8 C 37 %
2493 12-10-2019 07:26:17 7.8 C 37 %
2494 12-10-2019 07:36:17 7.8 C 37 %
2495 12-10-2019 07:46:17 7.9 C 37 %
2496 12-10-2019 07:56:17 8.2 C 37 %
2497 12-10-2019 08:06:17 8.5 C 37 %
2498 12-10-2019 08:16:17 8.1 C 37 %
2499 12-10-2019 08:26:17 7.9 C 37 %
2500 12-10-2019 08:36:17 7.9 C 37 %
Sensor: Nr:Datum:Temp:Feuchte:
Aussen-T/F 2501 12-10-2019 08:46:17 7.9 C 37 %
2502 12-10-2019 08:56:17 8.1 C 37 %
2503 12-10-2019 09:06:17 8.2 C 37 %
2504 12-10-2019 09:16:18 8.3 C 37 %
2505 12-10-2019 09:26:18 8.5 C 37 %
2506 12-10-2019 09:36:17 9 C 37 %
2507 12-10-2019 09:46:17 9.4 C 37 %
2508 12-10-2019 09:56:17 10 C 36 %
2509 12-10-2019 10:06:17 10.6 C 37 %
2510 12-10-2019 10:16:17 10.8 C 36 %
2511 12-10-2019 10:26:18 11.4 C 36 %
2512 12-10-2019 10:36:17 11.6 C 36 %
2513 12-10-2019 10:46:18 12.8 C 35 %
2514 12-10-2019 10:56:18 13.8 C 27 %
2515 12-10-2019 11:06:17 13.7 C 26 %
2516 12-10-2019 11:16:17 14.2 C 25 %
2517 12-10-2019 11:26:17 14.5 C 22 %
2518 12-10-2019 11:36:18 15.2 C 20 %
2519 12-10-2019 11:46:17 15.4 C 20 %
2520 12-10-2019 11:56:17 15.7 C 20 %
2521 12-10-2019 12:06:17 15.6 C 20 %
2522 12-10-2019 12:16:17 16.3 C 20 %
2523 12-10-2019 12:26:17 15.9 C 20 %
2524 12-10-2019 12:36:18 16 C 20 %
2525 12-10-2019 12:46:17 16.2 C 20 %
Sensor: Nr:Datum:Temp:Feuchte:
Aussen-T/F 2526 12-10-2019 12:56:17 16.5 C 20 %
2527 12-10-2019 13:06:17 17.5 C 20 %
2528 12-10-2019 13:16:17 17.5 C 20 %
2529 12-10-2019 13:26:17 18.9 C 20 %
2530 12-10-2019 13:36:17 20.7 C 20 %
2531 12-10-2019 13:46:17 20.1 C 20 %
2532 12-10-2019 13:56:17 20 C 20 %
2533 12-10-2019 14:06:17 20.4 C 20 %
2534 12-10-2019 14:16:17 21.3 C 20 %
2535 12-10-2019 14:26:17 21.1 C 20 %
2536 12-10-2019 14:36:17 20.7 C 20 %
2537 12-10-2019 14:46:17 20.3 C 20 %
2538 12-10-2019 14:56:17 20.1 C 20 %
2539 12-10-2019 15:06:17 20.2 C 20 %
2540 12-10-2019 15:16:17 20.6 C 20 %
2541 12-10-2019 15:26:17 20.6 C 20 %
2542 12-10-2019 15:36:17 20.6 C 20 %
2543 12-10-2019 15:46:17 20.4 C 20 %
2544 12-10-2019 15:56:17 20.2 C 20 %
2545 12-10-2019 16:06:17 20.2 C 20 %
2546 12-10-2019 16:16:17 19.5 C 20 %
2547 12-10-2019 16:26:18 19.5 C 20 %
2548 12-10-2019 16:36:18 19.6 C 20 %
2549 12-10-2019 16:46:17 19.7 C 20 %
2550 12-10-2019 16:56:17 19.9 C 20 %
Sensor: Nr:Datum:Temp:Feuchte:
Aussen-T/F 2551 12-10-2019 17:06:17 19.5 C 20 %
2552 12-10-2019 17:16:17 19.2 C 20 %
2553 12-10-2019 17:26:18 19 C 20 %
2554 12-10-2019 17:36:17 18.7 C 20 %
2555 12-10-2019 17:46:18 18.4 C 20 %
2556 12-10-2019 17:56:18 17.9 C 20 %
2557 12-10-2019 18:06:17 17.3 C 20 %
2558 12-10-2019 18:16:17 17 C 20 %
2559 12-10-2019 18:26:17 16.6 C 20 %
2560 12-10-2019 18:36:18 15.9 C 21 %
2561 12-10-2019 18:46:17 15.4 C 23 %
2562 12-10-2019 18:56:17 15.2 C 24 %
2563 12-10-2019 19:06:17 15.1 C 24 %
2564 12-10-2019 19:16:17 14.7 C 26 %
2565 12-10-2019 19:26:17 14.5 C 26 %
2566 12-10-2019 19:36:17 14.5 C 26 %
2567 12-10-2019 19:46:17 14.5 C 26 %
2568 12-10-2019 19:56:17 14.4 C 26 %
2569 12-10-2019 20:06:17 14.4 C 26 %
2570 12-10-2019 20:16:17 14 C 27 %
2571 12-10-2019 20:26:17 14 C 27 %
2572 12-10-2019 20:36:18 13.8 C 29 %
2573 12-10-2019 20:46:17 13.7 C 30 %
2574 12-10-2019 20:56:17 13.6 C 30 %
2575 12-10-2019 21:06:17 13.5 C 31 %
Sensor: Nr:Datum:Temp:Feuchte:
Aussen-T/F 2576 12-10-2019 21:16:17 13.6 C 31 %
2577 12-10-2019 21:26:17 14 C 31 %
2578 12-10-2019 21:36:17 13.9 C 30 %
2579 12-10-2019 21:46:18 14.7 C 27 %
2580 12-10-2019 21:56:18 14.9 C 26 %
2581 12-10-2019 22:06:17 14.7 C 26 %
2582 12-10-2019 22:16:17 14.4 C 27 %
2583 12-10-2019 22:26:17 14 C 28 %
2584 12-10-2019 22:36:17 13.8 C 30 %
2585 12-10-2019 22:46:17 14.1 C 31 %
2586 12-10-2019 22:56:17 13.9 C 31 %
2587 12-10-2019 23:06:17 13.7 C 32 %
2588 12-10-2019 23:16:17 13.4 C 32 %
2589 12-10-2019 23:26:17 13.4 C 33 %
2590 12-10-2019 23:36:18 13.3 C 33 %
2591 12-10-2019 23:46:17 13.1 C 34 %
2592 12-10-2019 23:56:17 13.1 C 35 %
2593 13-10-2019 00:06:17 13.2 C 35 %
2594 13-10-2019 00:16:18 12.9 C 35 %
2595 13-10-2019 00:26:18 12.6 C 35 %
2596 13-10-2019 00:36:17 12.7 C 35 %
2597 13-10-2019 00:46:17 12.4 C 35 %
2598 13-10-2019 00:56:17 12.5 C 36 %
2599 13-10-2019 01:06:18 12.4 C 35 %
2600 13-10-2019 01:16:17 12.3 C 35 %
Sensor: Nr:Datum:Temp:Feuchte:
Aussen-T/F 2601 13-10-2019 01:26:17 12.3 C 35 %
2602 13-10-2019 01:36:17 12.2 C 35 %
2603 13-10-2019 01:46:17 12.1 C 35 %
2604 13-10-2019 01:56:17 12 C 35 %
2605 13-10-2019 02:06:17 12.4 C 36 %
2606 13-10-2019 02:16:18 12.7 C 36 %
2607 13-10-2019 02:26:18 12.7 C 36 %
2608 13-10-2019 02:36:17 13 C 35 %
2609 13-10-2019 02:46:17 13.2 C 35 %
2610 13-10-2019 02:56:17 13.1 C 35 %
2611 13-10-2019 03:06:17 12.5 C 35 %
2612 13-10-2019 03:16:17 12.6 C 35 %
2613 13-10-2019 03:26:17 12.7 C 35 %
2614 13-10-2019 03:36:18 12.3 C 35 %
2615 13-10-2019 03:46:17 12.7 C 35 %
2616 13-10-2019 03:56:17 12.8 C 35 %
2617 13-10-2019 04:06:17 12.4 C 35 %
2618 13-10-2019 04:16:17 12.2 C 35 %
2619 13-10-2019 04:26:17 11.9 C 35 %
2620 13-10-2019 04:36:18 11.9 C 36 %
2621 13-10-2019 04:46:17 12 C 35 %
2622 13-10-2019 04:56:17 12.4 C 35 %
2623 13-10-2019 05:06:18 13 C 35 %
2624 13-10-2019 05:16:17 12.9 C 35 %
2625 13-10-2019 05:26:17 13 C 35 %
Sensor: Nr:Datum:Temp:Feuchte:
Aussen-T/F 2626 13-10-2019 05:36:17 13 C 35 %
2627 13-10-2019 05:46:17 12.9 C 35 %
2628 13-10-2019 05:56:17 13.1 C 35 %
2629 13-10-2019 06:06:17 12.9 C 35 %
2630 13-10-2019 06:16:17 13.2 C 35 %
2631 13-10-2019 06:26:17 13.2 C 35 %
2632 13-10-2019 06:36:17 13.1 C 35 %
2633 13-10-2019 06:46:17 13 C 35 %
2634 13-10-2019 06:56:17 13.2 C 35 %
2635 13-10-2019 07:06:17 13 C 35 %
2636 13-10-2019 07:16:18 13 C 35 %
2637 13-10-2019 07:26:18 13 C 35 %
2638 13-10-2019 07:36:17 13.2 C 35 %
2639 13-10-2019 07:46:17 13 C 35 %
2640 13-10-2019 07:56:17 13 C 35 %
2641 13-10-2019 08:06:17 12.7 C 35 %
2642 13-10-2019 08:16:18 12.2 C 35 %
2643 13-10-2019 08:26:18 12 C 35 %
2644 13-10-2019 08:36:17 11.8 C 35 %
2645 13-10-2019 08:46:18 12.7 C 35 %
2646 13-10-2019 08:56:18 12.5 C 35 %
2647 13-10-2019 09:06:17 12.8 C 35 %
2648 13-10-2019 09:16:18 13.1 C 35 %
2649 13-10-2019 09:26:18 13.6 C 35 %
2650 13-10-2019 09:36:17 13.2 C 34 %
Sensor: Nr:Datum:Temp:Feuchte:
Aussen-T/F 2651 13-10-2019 09:46:18 13 C 34 %
2652 13-10-2019 09:56:18 13 C 34 %
2653 13-10-2019 10:06:17 13.6 C 35 %
2654 13-10-2019 10:16:17 14.1 C 35 %
2655 13-10-2019 10:26:17 14 C 33 %
2656 13-10-2019 10:36:17 14.3 C 33 %
2657 13-10-2019 10:46:17 14.9 C 33 %
2658 13-10-2019 10:56:17 15 C 32 %
2659 13-10-2019 11:06:17 15.3 C 32 %
2660 13-10-2019 11:16:17 15.5 C 31 %
2661 13-10-2019 11:26:17 15.3 C 31 %
2662 13-10-2019 11:36:18 16.1 C 30 %
2663 13-10-2019 11:46:17 15.9 C 32 %
2664 13-10-2019 11:56:17 16.3 C 32 %
2665 13-10-2019 12:06:18 16.8 C 30 %
2666 13-10-2019 12:16:17 17.1 C 28 %
2667 13-10-2019 12:26:17 17.8 C 27 %
2668 13-10-2019 12:36:17 18.7 C 26 %
2669 13-10-2019 12:46:17 19.3 C 23 %
2670 13-10-2019 12:56:17 19.5 C 23 %
2671 13-10-2019 13:06:17 19.7 C 24 %
2672 13-10-2019 13:16:17 20 C 22 %
2673 13-10-2019 13:26:17 20.9 C 20 %
2674 13-10-2019 13:36:17 22.7 C 20 %
2675 13-10-2019 13:46:17 23.2 C 20 %
Sensor: Nr:Datum:Temp:Feuchte:
Aussen-T/F 2676 13-10-2019 13:56:17 22.1 C 20 %
2677 13-10-2019 14:06:18 22.5 C 20 %
2678 13-10-2019 14:16:17 23.4 C 20 %
2679 13-10-2019 14:26:17 24.8 C 20 %
2680 13-10-2019 14:36:18 23.2 C 20 %
2681 13-10-2019 14:46:17 22.5 C 20 %
2682 13-10-2019 14:56:17 21.9 C 20 %
2683 13-10-2019 15:06:17 21.3 C 20 %
2684 13-10-2019 15:16:17 21.6 C 20 %
2685 13-10-2019 15:26:17 22.1 C 20 %
2686 13-10-2019 15:36:17 22.5 C 20 %
2687 13-10-2019 15:46:17 22.1 C 20 %
2688 13-10-2019 15:56:17 22 C 20 %
2689 13-10-2019 16:06:17 22.3 C 20 %
2690 13-10-2019 16:16:18 23.1 C 20 %
2691 13-10-2019 16:26:18 23.6 C 20 %
2692 13-10-2019 16:36:17 25.1 C 20 %
2693 13-10-2019 16:46:18 25.4 C 20 %
2694 13-10-2019 16:56:18 24.8 C 20 %
2695 13-10-2019 17:06:17 25.7 C 20 %
2696 13-10-2019 17:16:17 25 C 20 %
2697 13-10-2019 17:26:17 24 C 20 %
2698 13-10-2019 17:36:18 23.6 C 20 %
2699 13-10-2019 17:46:17 22.2 C 20 %
2700 13-10-2019 17:56:17 21 C 20 %
Sensor: Nr:Datum:Temp:Feuchte:
Aussen-T/F 2701 13-10-2019 18:06:18 20 C 20 %
2702 13-10-2019 18:16:17 19.4 C 20 %
2703 13-10-2019 18:26:17 19.1 C 20 %
2704 13-10-2019 18:36:17 18.7 C 21 %
2705 13-10-2019 18:46:17 18.6 C 21 %
2706 13-10-2019 18:56:17 18.2 C 22 %
2707 13-10-2019 19:06:17 18.1 C 22 %
2708 13-10-2019 19:16:18 18.1 C 22 %
2709 13-10-2019 19:26:18 18.1 C 22 %
2710 13-10-2019 19:36:17 18.1 C 22 %
2711 13-10-2019 19:46:17 17.9 C 23 %
2712 13-10-2019 19:56:17 17.8 C 23 %
2713 13-10-2019 20:06:17 17.8 C 23 %
2714 13-10-2019 20:16:17 17.9 C 23 %
2715 13-10-2019 20:26:17 17.7 C 23 %
2716 13-10-2019 20:36:18 17.5 C 24 %
2717 13-10-2019 20:46:17 17.2 C 24 %
2718 13-10-2019 20:56:17 17.2 C 24 %
2719 13-10-2019 21:06:18 16.9 C 25 %
2720 13-10-2019 21:16:17 16.8 C 25 %
2721 13-10-2019 21:26:17 16.9 C 25 %
2722 13-10-2019 21:36:18 16.6 C 25 %
2723 13-10-2019 21:46:17 16.3 C 25 %
2724 13-10-2019 21:56:17 16.6 C 25 %
2725 13-10-2019 22:06:17 16.4 C 25 %
Sensor: Nr:Datum:Temp:Feuchte:
Aussen-T/F 2726 13-10-2019 22:16:17 16.2 C 25 %
2727 13-10-2019 22:26:17 16.2 C 25 %
2728 13-10-2019 22:36:17 16 C 25 %
2729 13-10-2019 22:46:17 16.4 C 24 %
2730 13-10-2019 22:56:17 16.4 C 22 %
2731 13-10-2019 23:06:17 16.1 C 23 %
2732 13-10-2019 23:16:17 15.9 C 25 %
2733 13-10-2019 23:26:17 15.5 C 25 %
2734 13-10-2019 23:36:17 15.4 C 26 %
2735 13-10-2019 23:46:18 15.4 C 26 %
2736 13-10-2019 23:56:18 15.4 C 26 %
2737 14-10-2019 00:06:17 15.4 C 25 %
2738 14-10-2019 00:16:17 14.9 C 26 %
2739 14-10-2019 00:26:17 14.7 C 27 %
2740 14-10-2019 00:36:17 14.8 C 27 %
2741 14-10-2019 00:46:17 14.9 C 27 %
2742 14-10-2019 00:56:17 15 C 26 %
2743 14-10-2019 01:06:17 14.8 C 27 %
2744 14-10-2019 01:16:17 14.8 C 27 %
2745 14-10-2019 01:26:17 14.6 C 27 %
2746 14-10-2019 01:36:18 14.4 C 28 %
2747 14-10-2019 01:46:17 14.6 C 27 %
2748 14-10-2019 01:56:17 14.6 C 27 %
2749 14-10-2019 02:06:17 14.5 C 27 %
2750 14-10-2019 02:16:17 14.3 C 27 %
Sensor: Nr:Datum:Temp:Feuchte:
Aussen-T/F 2751 14-10-2019 02:26:17 14.1 C 28 %
2752 14-10-2019 02:36:18 14 C 29 %
2753 14-10-2019 02:46:17 13.8 C 30 %
2754 14-10-2019 02:56:17 13.6 C 30 %
2755 14-10-2019 03:06:17 13.4 C 31 %
2756 14-10-2019 03:16:17 13.2 C 31 %
2757 14-10-2019 03:26:17 13.4 C 34 %
2758 14-10-2019 03:36:17 13.3 C 32 %
2759 14-10-2019 03:46:17 13 C 32 %
2760 14-10-2019 03:56:17 12.8 C 34 %
2761 14-10-2019 04:06:17 12.8 C 35 %
2762 14-10-2019 04:16:17 12.6 C 35 %
2763 14-10-2019 04:26:18 12.4 C 35 %
2764 14-10-2019 04:36:17 12.3 C 35 %
2765 14-10-2019 04:46:17 12.2 C 35 %
2766 14-10-2019 04:56:17 12.3 C 35 %
2767 14-10-2019 05:06:17 12.4 C 36 %
2768 14-10-2019 05:16:17 12.8 C 36 %
2769 14-10-2019 05:26:17 12.8 C 36 %
2770 14-10-2019 05:36:18 12.9 C 36 %
2771 14-10-2019 05:46:17 12.8 C 35 %
2772 14-10-2019 05:56:17 12.7 C 35 %
2773 14-10-2019 06:06:17 12.3 C 34 %
2774 14-10-2019 06:16:17 12 C 34 %
2775 14-10-2019 06:26:17 12 C 35 %
Sensor: Nr:Datum:Temp:Feuchte:
Aussen-T/F 2776 14-10-2019 06:36:18 11.9 C 36 %
2777 14-10-2019 06:46:17 11.7 C 35 %
2778 14-10-2019 06:56:17 11.7 C 36 %
2779 14-10-2019 07:06:17 11.6 C 36 %
2780 14-10-2019 07:16:17 11.8 C 36 %
2781 14-10-2019 07:26:17 11.9 C 36 %
2782 14-10-2019 07:36:17 12.1 C 36 %
2783 14-10-2019 07:46:17 12.5 C 36 %
2784 14-10-2019 07:56:17 12.4 C 36 %
2785 14-10-2019 08:06:17 12.4 C 35 %
2786 14-10-2019 08:16:17 12.2 C 35 %
2787 14-10-2019 08:26:17 12.3 C 35 %
2788 14-10-2019 08:36:18 12.5 C 35 %
2789 14-10-2019 08:46:17 12.5 C 35 %
2790 14-10-2019 08:56:17 12.6 C 35 %
2791 14-10-2019 09:06:17 12.8 C 34 %
2792 14-10-2019 09:16:17 12.9 C 34 %
2793 14-10-2019 09:26:17 13 C 32 %
2794 14-10-2019 09:36:18 13 C 32 %
2795 14-10-2019 09:46:17 13 C 32 %
2796 14-10-2019 09:56:17 13.1 C 33 %
2797 14-10-2019 10:06:18 13.1 C 33 %
2798 14-10-2019 10:16:17 13.1 C 33 %
2799 14-10-2019 10:26:17 13.2 C 33 %
2800 14-10-2019 10:36:17 13.3 C 34 %
Sensor: Nr:Datum:Temp:Feuchte:
Aussen-T/F 2801 14-10-2019 10:46:17 13.7 C 35 %
2802 14-10-2019 10:56:17 13.9 C 35 %
2803 14-10-2019 11:06:17 14.1 C 33 %
2804 14-10-2019 11:16:17 14.5 C 32 %
2805 14-10-2019 11:26:17 14.7 C 32 %
2806 14-10-2019 11:36:17 15.4 C 29 %
2807 14-10-2019 11:46:18 15.4 C 29 %
2808 14-10-2019 11:56:18 16.1 C 27 %
2809 14-10-2019 12:06:17 16.5 C 26 %
2810 14-10-2019 12:16:17 17.1 C 25 %
2811 14-10-2019 12:26:17 17.2 C 25 %
2812 14-10-2019 12:36:17 17.3 C 25 %
2813 14-10-2019 12:46:17 17.5 C 24 %
2814 14-10-2019 12:56:17 18.1 C 23 %
2815 14-10-2019 13:06:17 18.2 C 23 %
2816 14-10-2019 13:16:17 19 C 21 %
2817 14-10-2019 13:26:17 19.9 C 20 %
2818 14-10-2019 13:36:17 21.6 C 20 %
2819 14-10-2019 13:46:17 23 C 20 %
2820 14-10-2019 13:56:17 22.6 C 20 %
2821 14-10-2019 14:06:17 22.9 C 20 %
2822 14-10-2019 14:16:17 24.6 C 20 %
2823 14-10-2019 14:26:17 22.5 C 20 %
2824 14-10-2019 14:36:18 21.8 C 20 %
2825 14-10-2019 14:46:17 21.4 C 20 %
Sensor: Nr:Datum:Temp:Feuchte:
Aussen-T/F 2826 14-10-2019 14:56:17 21 C 20 %
2827 14-10-2019 15:06:17 20.1 C 20 %
2828 14-10-2019 15:16:17 21.1 C 20 %
2829 14-10-2019 15:26:17 20.9 C 20 %
2830 14-10-2019 15:36:18 20.6 C 20 %
2831 14-10-2019 15:46:17 20.5 C 20 %
2832 14-10-2019 15:56:17 20.9 C 20 %
2833 14-10-2019 16:06:17 21.3 C 20 %
2834 14-10-2019 16:16:18 21.3 C 20 %
2835 14-10-2019 16:26:18 22.4 C 20 %
2836 14-10-2019 16:36:17 23.7 C 20 %
2837 14-10-2019 16:46:17 23.6 C 20 %
2838 14-10-2019 16:56:17 23.8 C 20 %
2839 14-10-2019 17:06:17 22.8 C 20 %
2840 14-10-2019 17:16:18 22.9 C 20 %
2841 14-10-2019 17:26:18 22.4 C 20 %
2842 14-10-2019 17:36:17 21.6 C 20 %
2843 14-10-2019 17:46:17 21.2 C 20 %
2844 14-10-2019 17:56:17 20 C 20 %
2845 14-10-2019 18:06:17 19.6 C 20 %
2846 14-10-2019 18:16:17 18.6 C 20 %
2847 14-10-2019 18:26:17 18.2 C 20 %
2848 14-10-2019 18:36:18 17.9 C 20 %
2849 14-10-2019 18:46:17 17.5 C 20 %
2850 14-10-2019 18:56:17 17.2 C 21 %
Sensor: Nr:Datum:Temp:Feuchte:
Aussen-T/F 2851 14-10-2019 19:06:17 16.8 C 22 %
2852 14-10-2019 19:16:17 16.9 C 22 %
2853 14-10-2019 19:26:17 16.4 C 23 %
2854 14-10-2019 19:36:17 16.4 C 24 %
2855 14-10-2019 19:46:17 16.4 C 24 %
2856 14-10-2019 19:56:17 16.3 C 24 %
2857 14-10-2019 20:06:18 16.1 C 24 %
2858 14-10-2019 20:16:17 15.8 C 25 %
2859 14-10-2019 20:26:17 16.2 C 25 %
2860 14-10-2019 20:36:17 15.7 C 25 %
2861 14-10-2019 20:46:17 15.7 C 25 %
2862 14-10-2019 20:56:18 15.7 C 25 %
2863 14-10-2019 21:06:17 15.1 C 25 %
2864 14-10-2019 21:16:17 15.2 C 25 %
2865 14-10-2019 21:26:17 15 C 25 %
2866 14-10-2019 21:36:17 14.8 C 26 %
2867 14-10-2019 21:46:17 14.7 C 27 %
2868 14-10-2019 21:56:17 14.2 C 28 %
2869 14-10-2019 22:06:17 14.1 C 28 %
2870 14-10-2019 22:16:17 14.2 C 30 %
2871 14-10-2019 22:26:17 14.2 C 30 %
2872 14-10-2019 22:36:17 14.2 C 30 %
2873 14-10-2019 22:46:17 14.2 C 29 %
2874 14-10-2019 22:56:17 14.7 C 28 %
2875 14-10-2019 23:06:17 14.5 C 27 %
Sensor: Nr:Datum:Temp:Feuchte:
Aussen-T/F 2876 14-10-2019 23:16:17 14.7 C 27 %
2877 14-10-2019 23:26:17 14.6 C 27 %
2878 14-10-2019 23:36:17 14.4 C 27 %
2879 14-10-2019 23:46:17 14.5 C 27 %
2880 14-10-2019 23:56:17 14.4 C 27 %
2881 15-10-2019 00:06:17 14.5 C 27 %
2882 15-10-2019 00:16:17 14.3 C 27 %
2883 15-10-2019 00:26:18 14.4 C 27 %
2884 15-10-2019 00:36:17 14.4 C 27 %
2885 15-10-2019 00:47:17 14.1 C 27 %
2886 15-10-2019 00:57:17 14.1 C 28 %
2887 15-10-2019 01:06:18 14 C 29 %
2888 15-10-2019 01:16:17 13.5 C 30 %
2889 15-10-2019 01:26:17 13.4 C 31 %
2890 15-10-2019 01:36:17 13.4 C 32 %
2891 15-10-2019 01:46:17 13.4 C 32 %
2892 15-10-2019 01:56:17 13.2 C 31 %
2893 15-10-2019 02:07:17 12.9 C 32 %
2894 15-10-2019 02:16:17 12.7 C 33 %
2895 15-10-2019 02:26:17 12.7 C 35 %
2896 15-10-2019 02:36:17 12.5 C 34 %
2897 15-10-2019 02:46:17 12.2 C 34 %
2898 15-10-2019 02:56:18 12.3 C 35 %
2899 15-10-2019 03:06:17 11.9 C 36 %
2900 15-10-2019 03:16:18 12.1 C 36 %
Sensor: Nr:Datum:Temp:Feuchte:
Aussen-T/F 2901 15-10-2019 03:26:18 12.1 C 36 %
2902 15-10-2019 03:36:17 11.7 C 36 %
2903 15-10-2019 03:46:17 11.8 C 36 %
2904 15-10-2019 03:56:18 11.7 C 36 %
2905 15-10-2019 04:06:17 11.8 C 36 %
2906 15-10-2019 04:17:17 11.6 C 36 %
2907 15-10-2019 04:27:17 11.7 C 36 %
2908 15-10-2019 04:36:18 11.7 C 37 %
2909 15-10-2019 04:47:17 11.5 C 36 %
2910 15-10-2019 04:57:17 11.4 C 36 %
2911 15-10-2019 05:06:17 11.2 C 36 %
2912 15-10-2019 05:16:17 11.3 C 36 %
2913 15-10-2019 05:26:17 11.4 C 36 %
2914 15-10-2019 05:36:18 11.2 C 36 %
2915 15-10-2019 05:46:17 11.1 C 36 %
2916 15-10-2019 05:56:17 11.3 C 36 %
2917 15-10-2019 06:07:17 11.2 C 36 %
2918 15-10-2019 06:16:17 11.2 C 36 %
2919 15-10-2019 06:26:17 11.5 C 36 %
2920 15-10-2019 06:37:17 11.7 C 36 %
2921 15-10-2019 06:47:17 11.6 C 36 %
2922 15-10-2019 06:56:17 11.4 C 36 %
2923 15-10-2019 07:06:18 11.5 C 36 %
2924 15-10-2019 07:17:17 11.3 C 36 %
2925 15-10-2019 07:26:17 11.3 C 36 %
Sensor: Nr:Datum:Temp:Feuchte:
Aussen-T/F 2926 15-10-2019 07:36:18 11.2 C 36 %
2927 15-10-2019 07:47:17 11.2 C 36 %
2928 15-10-2019 07:57:17 11 C 36 %
2929 15-10-2019 08:06:18 11.2 C 36 %
2930 15-10-2019 08:17:17 11.2 C 36 %
2931 15-10-2019 08:27:17 11.2 C 36 %
2932 15-10-2019 08:37:17 11.3 C 36 %
2933 15-10-2019 08:46:18 11.4 C 36 %
2934 15-10-2019 08:56:18 11.6 C 36 %
2935 15-10-2019 09:07:17 11.8 C 36 %
2936 15-10-2019 09:17:17 11.9 C 36 %
2937 15-10-2019 09:27:17 12.2 C 35 %
2938 15-10-2019 09:37:17 12.4 C 35 %
2939 15-10-2019 09:47:17 12.6 C 35 %
2940 15-10-2019 09:57:17 12.9 C 35 %
2941 15-10-2019 10:07:17 12.9 C 32 %
2942 15-10-2019 10:17:17 13.5 C 32 %
2943 15-10-2019 10:27:17 13.4 C 30 %
2944 15-10-2019 10:36:17 13.3 C 30 %
2945 15-10-2019 10:47:17 13.9 C 30 %
2946 15-10-2019 10:57:17 14.6 C 28 %
2947 15-10-2019 11:07:17 15.2 C 27 %
2948 15-10-2019 11:17:17 15.2 C 27 %
2949 15-10-2019 11:27:17 16.5 C 23 %
2950 15-10-2019 11:36:18 17 C 21 %
Sensor: Nr:Datum:Temp:Feuchte:
Aussen-T/F 2951 15-10-2019 11:47:17 17.1 C 21 %
2952 15-10-2019 11:57:17 17.4 C 21 %
2953 15-10-2019 12:07:17 17.8 C 20 %
2954 15-10-2019 12:17:17 18.3 C 20 %
2955 15-10-2019 12:27:17 18.4 C 20 %
2956 15-10-2019 12:37:17 18.6 C 20 %
2957 15-10-2019 12:47:17 18.4 C 20 %
2958 15-10-2019 12:57:17 18.5 C 20 %
2959 15-10-2019 13:06:18 18.6 C 20 %
2960 15-10-2019 13:17:17 18.5 C 20 %
2961 15-10-2019 13:27:17 18.4 C 20 %
2962 15-10-2019 13:37:17 18.2 C 20 %
2963 15-10-2019 13:47:17 18.2 C 20 %
2964 15-10-2019 13:57:17 18 C 20 %
2965 15-10-2019 14:07:17 18 C 20 %
2966 15-10-2019 14:17:17 18 C 20 %
2967 15-10-2019 14:27:17 17.9 C 20 %
2968 15-10-2019 14:37:17 17.7 C 20 %
2969 15-10-2019 14:47:17 17.7 C 20 %
2970 15-10-2019 14:57:17 17.7 C 20 %
2971 15-10-2019 15:07:17 17.8 C 20 %
2972 15-10-2019 15:17:17 17.6 C 20 %
2973 15-10-2019 15:27:17 17 C 20 %
2974 15-10-2019 15:37:18 16.4 C 20 %
2975 15-10-2019 15:47:17 16.5 C 20 %
Sensor: Nr:Datum:Temp:Feuchte:
Aussen-T/F 2976 15-10-2019 15:57:17 16.6 C 20 %
2977 15-10-2019 16:07:18 16.6 C 20 %
2978 15-10-2019 16:17:17 16.8 C 20 %
2979 15-10-2019 16:27:17 16.8 C 20 %
2980 15-10-2019 16:37:17 17 C 20 %
2981 15-10-2019 16:47:17 16.8 C 20 %
2982 15-10-2019 16:57:17 16.6 C 20 %
2983 15-10-2019 17:07:17 16.2 C 20 %
2984 15-10-2019 17:17:18 16 C 21 %
2985 15-10-2019 17:27:18 15.4 C 25 %
2986 15-10-2019 17:37:17 15 C 27 %
2987 15-10-2019 17:47:17 14.9 C 28 %
2988 15-10-2019 17:57:18 14.7 C 30 %
2989 15-10-2019 18:07:17 14.6 C 29 %
2990 15-10-2019 18:17:18 14.4 C 28 %
2991 15-10-2019 18:27:18 14.1 C 29 %
2992 15-10-2019 18:37:17 14 C 31 %
2993 15-10-2019 18:47:17 14 C 31 %
2994 15-10-2019 18:57:17 13.9 C 31 %
2995 15-10-2019 19:07:17 13.8 C 31 %
2996 15-10-2019 19:17:17 13.7 C 32 %
2997 15-10-2019 19:27:17 13.7 C 33 %
2998 15-10-2019 19:37:17 13.6 C 33 %
2999 15-10-2019 19:47:17 13.6 C 33 %
3000 15-10-2019 19:57:17 13.5 C 33 %
Sensor: Nr:Datum:Temp:Feuchte:
Aussen-T/F 3001 15-10-2019 20:07:18 13.5 C 35 %
3002 15-10-2019 20:17:17 13.3 C 35 %
3003 15-10-2019 20:27:17 13.3 C 35 %
3004 15-10-2019 20:37:17 13.2 C 35 %
3005 15-10-2019 20:47:17 13.2 C 35 %
3006 15-10-2019 20:57:17 13.1 C 35 %
3007 15-10-2019 21:07:18 13.1 C 35 %
3008 15-10-2019 21:17:17 13.1 C 35 %
3009 15-10-2019 21:27:17 13 C 35 %
3010 15-10-2019 21:37:17 13 C 35 %
3011 15-10-2019 21:47:17 13 C 35 %
3012 15-10-2019 21:57:17 12.9 C 35 %
3013 15-10-2019 22:07:17 12.9 C 35 %
3014 15-10-2019 22:17:17 13 C 34 %
3015 15-10-2019 22:27:17 13 C 34 %
3016 15-10-2019 22:37:17 13.1 C 32 %
3017 15-10-2019 22:47:17 12.9 C 34 %
3018 15-10-2019 22:57:17 12.9 C 34 %
3019 15-10-2019 23:07:17 13 C 34 %
3020 15-10-2019 23:17:18 13 C 27 %
3021 15-10-2019 23:27:18 12.7 C 27 %
3022 15-10-2019 23:37:17 12.2 C 27 %
3023 15-10-2019 23:47:17 12.3 C 26 %
3024 15-10-2019 23:57:17 11.9 C 29 %
3025 16-10-2019 00:07:17 11.8 C 29 %
Sensor: Nr:Datum:Temp:Feuchte:
Aussen-T/F 3026 16-10-2019 00:17:17 11.8 C 29 %
3027 16-10-2019 00:27:17 11.9 C 29 %
3028 16-10-2019 00:37:18 11.5 C 31 %
3029 16-10-2019 00:47:17 11.4 C 33 %
3030 16-10-2019 00:57:17 11.4 C 35 %
3031 16-10-2019 01:07:18 11.4 C 35 %
3032 16-10-2019 01:17:17 11.3 C 35 %
3033 16-10-2019 01:27:17 11.4 C 35 %
3034 16-10-2019 01:37:17 11.3 C 35 %
3035 16-10-2019 01:47:17 11.4 C 35 %
3036 16-10-2019 01:57:17 11.3 C 35 %
3037 16-10-2019 02:07:17 11.3 C 36 %
3038 16-10-2019 02:17:17 11.2 C 36 %
3039 16-10-2019 02:27:17 11.3 C 36 %
3040 16-10-2019 02:37:17 11.4 C 35 %
3041 16-10-2019 02:47:18 11.3 C 35 %
3042 16-10-2019 02:57:18 11.3 C 35 %
3043 16-10-2019 03:07:17 11.4 C 35 %
3044 16-10-2019 03:17:17 11.3 C 33 %
3045 16-10-2019 03:27:17 11.3 C 33 %
3046 16-10-2019 03:37:18 11.5 C 31 %
3047 16-10-2019 03:47:17 11.4 C 30 %
3048 16-10-2019 03:57:17 11.4 C 30 %
3049 16-10-2019 04:07:18 11.5 C 29 %
3050 16-10-2019 04:17:17 11.4 C 30 %
Sensor: Nr:Datum:Temp:Feuchte:
Aussen-T/F 3051 16-10-2019 04:27:17 11.4 C 29 %
3052 16-10-2019 04:37:17 11.3 C 30 %
3053 16-10-2019 04:47:17 11.2 C 31 %
3054 16-10-2019 04:57:17 11.2 C 31 %
3055 16-10-2019 05:07:18 11.2 C 29 %
3056 16-10-2019 05:17:17 11.1 C 31 %
3057 16-10-2019 05:27:17 11.2 C 30 %
3058 16-10-2019 05:37:18 11.1 C 30 %
3059 16-10-2019 05:47:17 10.9 C 31 %
3060 16-10-2019 05:57:17 11 C 30 %
3061 16-10-2019 06:07:17 11 C 28 %
3062 16-10-2019 06:17:17 11.1 C 27 %
3063 16-10-2019 06:27:17 10.9 C 26 %
3064 16-10-2019 06:37:17 11.1 C 26 %
3065 16-10-2019 06:47:17 11.6 C 25 %
3066 16-10-2019 06:57:17 11.6 C 25 %
3067 16-10-2019 07:07:17 11 C 26 %
3068 16-10-2019 07:17:17 10.6 C 29 %
3069 16-10-2019 07:27:17 10.4 C 30 %
3070 16-10-2019 07:37:18 10.5 C 28 %
3071 16-10-2019 07:47:17 10.5 C 28 %
3072 16-10-2019 07:57:17 10.5 C 27 %
3073 16-10-2019 08:07:18 10.5 C 27 %
3074 16-10-2019 08:17:17 10.4 C 27 %
3075 16-10-2019 08:27:17 10.7 C 26 %
Sensor: Nr:Datum:Temp:Feuchte:
Aussen-T/F 3076 16-10-2019 08:37:17 10.1 C 29 %
3077 16-10-2019 08:47:17 9.8 C 32 %
3078 16-10-2019 08:57:17 9.8 C 33 %
3079 16-10-2019 09:07:17 9.9 C 32 %
3080 16-10-2019 09:17:17 9.9 C 35 %
3081 16-10-2019 09:27:17 10.7 C 36 %
3082 16-10-2019 09:37:17 11.4 C 27 %
3083 16-10-2019 09:47:17 12 C 24 %
3084 16-10-2019 09:57:17 12.2 C 23 %
3085 16-10-2019 10:07:17 12.5 C 22 %
3086 16-10-2019 10:17:17 12.6 C 22 %
3087 16-10-2019 10:27:17 12.7 C 20 %
3088 16-10-2019 10:37:18 13.2 C 20 %
3089 16-10-2019 10:47:17 13.6 C 20 %
3090 16-10-2019 10:57:17 13.6 C 20 %
3091 16-10-2019 11:07:17 14.1 C 20 %
3092 16-10-2019 11:17:17 14.4 C 20 %
3093 16-10-2019 11:27:17 14.3 C 20 %
3094 16-10-2019 11:37:17 14.3 C 20 %
3095 16-10-2019 11:47:17 14.7 C 20 %
3096 16-10-2019 11:57:17 14.9 C 20 %
3097 16-10-2019 12:07:17 14.9 C 20 %
3098 16-10-2019 12:17:17 15 C 20 %
3099 16-10-2019 12:27:17 14.6 C 20 %
3100 16-10-2019 12:37:17 14.2 C 20 %
Sensor: Nr:Datum:Temp:Feuchte:
Aussen-T/F 3101 16-10-2019 12:47:17 13.6 C 20 %
3102 16-10-2019 12:57:17 13.3 C 25 %
3103 16-10-2019 13:07:17 13.4 C 27 %
3104 16-10-2019 13:17:17 13.5 C 27 %
3105 16-10-2019 13:27:17 13.5 C 27 %
3106 16-10-2019 13:37:18 13.4 C 27 %
3107 16-10-2019 13:47:17 13.3 C 29 %
3108 16-10-2019 13:57:17 13 C 28 %
3109 16-10-2019 14:07:17 13 C 30 %
3110 16-10-2019 14:17:17 13 C 30 %
3111 16-10-2019 14:27:17 13 C 30 %
3112 16-10-2019 14:37:17 13 C 30 %
3113 16-10-2019 14:47:17 13 C 30 %
3114 16-10-2019 14:57:17 13.1 C 29 %
3115 16-10-2019 15:07:17 13.6 C 27 %
3116 16-10-2019 15:17:17 13.8 C 26 %
3117 16-10-2019 15:27:17 13.8 C 26 %
3118 16-10-2019 15:37:18 14.5 C 25 %
3119 16-10-2019 15:47:17 14.6 C 25 %
3120 16-10-2019 15:57:17 14.3 C 25 %
3121 16-10-2019 16:07:17 14.4 C 24 %
3122 16-10-2019 16:17:17 15.4 C 21 %
3123 16-10-2019 16:27:17 15.8 C 20 %
3124 16-10-2019 16:37:18 15.1 C 20 %
3125 16-10-2019 16:47:17 14.8 C 25 %
Sensor: Nr:Datum:Temp:Feuchte:
Aussen-T/F 3126 16-10-2019 16:57:17 14.6 C 25 %
3127 16-10-2019 17:07:17 14.2 C 26 %
3128 16-10-2019 17:17:17 14.2 C 27 %
3129 16-10-2019 17:27:17 14.1 C 27 %
3130 16-10-2019 17:37:18 14.3 C 27 %
3131 16-10-2019 17:47:17 14.6 C 26 %
3132 16-10-2019 17:57:17 14 C 26 %
3133 16-10-2019 18:07:17 13.8 C 30 %
3134 16-10-2019 18:17:17 13.7 C 30 %
3135 16-10-2019 18:27:17 13.4 C 32 %
3136 16-10-2019 18:37:18 13.4 C 33 %
3137 16-10-2019 18:47:17 13.3 C 33 %
3138 16-10-2019 18:57:17 13.2 C 34 %
3139 16-10-2019 19:07:18 13.2 C 34 %
3140 16-10-2019 19:17:17 13.1 C 34 %
3141 16-10-2019 19:27:17 13.1 C 34 %
3142 16-10-2019 19:37:17 13.1 C 34 %
3143 16-10-2019 19:47:17 13.1 C 35 %
3144 16-10-2019 19:57:17 13.1 C 34 %
3145 16-10-2019 20:07:17 13 C 34 %
3146 16-10-2019 20:17:18 12.9 C 35 %
3147 16-10-2019 20:27:18 12.7 C 35 %
3148 16-10-2019 20:37:17 12.7 C 35 %
3149 16-10-2019 20:47:17 12.5 C 35 %
3150 16-10-2019 20:57:17 12.4 C 35 %
Sensor: Nr:Datum:Temp:Feuchte:
Aussen-T/F 3151 16-10-2019 21:07:17 12.3 C 35 %
3152 16-10-2019 21:17:17 12.1 C 35 %
3153 16-10-2019 21:27:17 12.1 C 35 %
3154 16-10-2019 21:37:17 12 C 35 %
3155 16-10-2019 21:47:17 12.1 C 35 %
3156 16-10-2019 21:57:17 12.1 C 35 %
3157 16-10-2019 22:07:17 12.1 C 35 %
3158 16-10-2019 22:17:17 12 C 35 %
3159 16-10-2019 22:27:17 12 C 35 %
3160 16-10-2019 22:37:18 12.1 C 35 %
3161 16-10-2019 22:47:17 12.1 C 35 %
3162 16-10-2019 22:57:17 12 C 34 %
3163 16-10-2019 23:07:18 12.1 C 34 %
3164 16-10-2019 23:17:17 12 C 33 %
3165 16-10-2019 23:27:17 12.1 C 33 %
3166 16-10-2019 23:37:17 11.9 C 34 %
3167 16-10-2019 23:47:17 12.2 C 30 %
3168 16-10-2019 23:57:17 12.2 C 30 %
3169 17-10-2019 00:07:17 12.3 C 30 %
3170 17-10-2019 00:17:17 12.4 C 30 %
3171 17-10-2019 00:27:17 12.3 C 30 %
3172 17-10-2019 00:37:17 12.3 C 31 %
3173 17-10-2019 00:47:17 12.3 C 31 %
3174 17-10-2019 00:57:17 12.3 C 32 %
3175 17-10-2019 01:07:18 12.2 C 32 %
Sensor: Nr:Datum:Temp:Feuchte:
Aussen-T/F 3176 17-10-2019 01:17:17 12.2 C 33 %
3177 17-10-2019 01:27:17 12 C 34 %
3178 17-10-2019 01:37:18 11.7 C 35 %
3179 17-10-2019 01:47:17 11.7 C 35 %
3180 17-10-2019 01:57:17 11.4 C 35 %
3181 17-10-2019 02:07:18 11.7 C 35 %
3182 17-10-2019 02:17:17 11.8 C 34 %
3183 17-10-2019 02:27:17 12 C 32 %
3184 17-10-2019 02:37:17 12 C 31 %
3185 17-10-2019 02:47:18 12.2 C 31 %
3186 17-10-2019 02:57:18 12.4 C 30 %
3187 17-10-2019 03:07:17 12.4 C 30 %
3188 17-10-2019 03:17:17 12.3 C 30 %
3189 17-10-2019 03:27:18 12.3 C 30 %
3190 17-10-2019 03:37:17 12.6 C 28 %
3191 17-10-2019 03:47:17 13 C 25 %
3192 17-10-2019 03:57:17 13.1 C 25 %
3193 17-10-2019 04:07:17 13.4 C 25 %
3194 17-10-2019 04:17:17 13.1 C 25 %
3195 17-10-2019 04:27:17 13.4 C 25 %
3196 17-10-2019 04:37:17 13.3 C 25 %
3197 17-10-2019 04:47:17 13.4 C 25 %
3198 17-10-2019 04:57:17 13.6 C 23 %
3199 17-10-2019 05:07:18 13.6 C 25 %
3200 17-10-2019 05:17:17 13.7 C 23 %
Sensor: Nr:Datum:Temp:Feuchte:
Aussen-T/F 3201 17-10-2019 05:27:17 14.1 C 21 %
3202 17-10-2019 05:37:17 14.1 C 21 %
3203 17-10-2019 05:47:17 13.8 C 23 %
3204 17-10-2019 05:57:17 13.8 C 22 %
3205 17-10-2019 06:07:17 13.8 C 23 %
3206 17-10-2019 06:17:17 13.7 C 23 %
3207 17-10-2019 06:27:17 14 C 22 %
3208 17-10-2019 06:37:18 13.7 C 23 %
3209 17-10-2019 06:47:17 14.1 C 21 %
3210 17-10-2019 06:57:17 13.8 C 23 %
3211 17-10-2019 07:07:17 13.7 C 23 %
3212 17-10-2019 07:17:18 13.5 C 25 %
3213 17-10-2019 07:27:18 13.5 C 25 %
3214 17-10-2019 07:37:17 13.8 C 24 %
3215 17-10-2019 07:47:18 14.1 C 22 %
3216 17-10-2019 07:57:18 14.2 C 22 %
3217 17-10-2019 08:07:17 13.7 C 25 %
3218 17-10-2019 08:17:17 13.8 C 25 %
3219 17-10-2019 08:27:17 15.2 C 20 %
3220 17-10-2019 08:37:17 15.3 C 20 %
3221 17-10-2019 08:47:17 15.2 C 20 %
3222 17-10-2019 08:57:17 15.3 C 20 %
3223 17-10-2019 09:07:17 15.3 C 20 %
3224 17-10-2019 09:17:17 15.4 C 20 %
3225 17-10-2019 09:27:17 15.5 C 20 %
Sensor: Nr:Datum:Temp:Feuchte:
Aussen-T/F 3226 17-10-2019 09:37:18 15.5 C 20 %
3227 17-10-2019 09:47:17 15.5 C 20 %
3228 17-10-2019 09:57:17 15.4 C 20 %
3229 17-10-2019 10:07:18 15.7 C 20 %
3230 17-10-2019 10:17:17 15.9 C 20 %
3231 17-10-2019 10:27:17 16.2 C 20 %
3232 17-10-2019 10:37:17 16.4 C 20 %
3233 17-10-2019 10:47:17 16.5 C 20 %
3234 17-10-2019 10:57:17 16.6 C 20 %
3235 17-10-2019 11:07:17 17 C 20 %
3236 17-10-2019 11:17:17 17.2 C 20 %
3237 17-10-2019 11:27:18 17.2 C 20 %
3238 17-10-2019 11:37:17 17.1 C 20 %
3239 17-10-2019 11:47:17 16.9 C 20 %
3240 17-10-2019 11:57:17 16.8 C 20 %
3241 17-10-2019 12:07:17 16.5 C 20 %
3242 17-10-2019 12:17:17 16.4 C 20 %
3243 17-10-2019 12:27:18 16.3 C 20 %
3244 17-10-2019 12:37:17 16.6 C 20 %
3245 17-10-2019 12:47:17 16.8 C 20 %
3246 17-10-2019 12:57:17 17.2 C 20 %
3247 17-10-2019 13:07:18 17.1 C 20 %
3248 17-10-2019 13:17:17 17 C 20 %
3249 17-10-2019 13:27:17 16.8 C 20 %
3250 17-10-2019 13:37:17 17 C 20 %
Sensor: Nr:Datum:Temp:Feuchte:
Aussen-T/F 3251 17-10-2019 13:47:17 17.2 C 20 %
3252 17-10-2019 13:57:17 17.3 C 20 %
3253 17-10-2019 14:07:17 17.3 C 20 %
3254 17-10-2019 14:17:17 16.7 C 20 %
3255 17-10-2019 14:27:17 16.4 C 20 %
3256 17-10-2019 14:37:17 16.2 C 20 %
3257 17-10-2019 14:47:18 16.6 C 20 %
3258 17-10-2019 14:57:18 16.7 C 20 %
3259 17-10-2019 15:07:17 16.7 C 20 %
3260 17-10-2019 15:17:17 16.8 C 20 %
3261 17-10-2019 15:27:17 16.7 C 20 %
3262 17-10-2019 15:37:17 16.2 C 20 %
3263 17-10-2019 15:47:17 16 C 20 %
3264 17-10-2019 15:57:17 15.1 C 25 %
3265 17-10-2019 16:07:18 14.9 C 30 %
3266 17-10-2019 16:17:17 14.9 C 30 %
3267 17-10-2019 16:27:17 14.8 C 31 %
3268 17-10-2019 16:37:17 14.7 C 31 %
3269 17-10-2019 16:47:17 14.6 C 34 %
3270 17-10-2019 16:57:17 14.5 C 35 %
3271 17-10-2019 17:07:18 14.5 C 35 %
3272 17-10-2019 17:17:17 14.4 C 35 %
3273 17-10-2019 17:27:17 14.4 C 35 %
3274 17-10-2019 17:37:17 14.3 C 35 %
3275 17-10-2019 17:47:17 14.2 C 35 %
Sensor: Nr:Datum:Temp:Feuchte:
Aussen-T/F 3276 17-10-2019 17:57:17 14.2 C 35 %
3277 17-10-2019 18:07:17 14.2 C 35 %
3278 17-10-2019 18:17:18 14 C 35 %
3279 17-10-2019 18:27:18 13.9 C 36 %
3280 17-10-2019 18:37:17 13.8 C 36 %
3281 17-10-2019 18:47:17 13.7 C 35 %
3282 17-10-2019 18:57:17 13.7 C 36 %
3283 17-10-2019 19:07:17 13.6 C 36 %
3284 17-10-2019 19:17:17 13.5 C 35 %
3285 17-10-2019 19:27:17 13.5 C 35 %
3286 17-10-2019 19:37:17 13.5 C 35 %
3287 17-10-2019 19:47:17 13.5 C 35 %
3288 17-10-2019 19:57:17 13.5 C 35 %
3289 17-10-2019 20:07:17 13.5 C 35 %
3290 17-10-2019 20:17:17 13.5 C 35 %
3291 17-10-2019 20:27:18 13.5 C 35 %
3292 17-10-2019 20:37:17 13.5 C 35 %
3293 17-10-2019 20:47:17 13.4 C 35 %
3294 17-10-2019 20:57:17 13.4 C 35 %
3295 17-10-2019 21:07:17 13.4 C 35 %
3296 17-10-2019 21:17:17 13.4 C 35 %
3297 17-10-2019 21:27:17 13.4 C 35 %
3298 17-10-2019 21:37:17 13.4 C 35 %
3299 17-10-2019 21:47:17 13.5 C 35 %
3300 17-10-2019 21:57:17 13.4 C 35 %
Sensor: Nr:Datum:Temp:Feuchte:
Aussen-T/F 3301 17-10-2019 22:07:17 13.4 C 35 %
3302 17-10-2019 22:17:17 13.3 C 35 %
3303 17-10-2019 22:27:18 13.3 C 35 %
3304 17-10-2019 22:37:17 13.3 C 35 %
3305 17-10-2019 22:47:17 13.4 C 35 %
3306 17-10-2019 22:57:17 13.4 C 35 %
3307 17-10-2019 23:07:17 13.4 C 35 %
3308 17-10-2019 23:17:17 13.4 C 35 %
3309 17-10-2019 23:27:17 13.4 C 35 %
3310 17-10-2019 23:37:17 13.5 C 35 %
3311 17-10-2019 23:47:18 13.5 C 35 %
3312 17-10-2019 23:57:18 13.4 C 35 %
3313 18-10-2019 00:07:17 13.4 C 35 %
3314 18-10-2019 00:17:17 13.4 C 35 %
3315 18-10-2019 00:27:17 13.4 C 34 %
3316 18-10-2019 00:37:17 13.4 C 34 %
3317 18-10-2019 00:47:17 13.3 C 34 %
3318 18-10-2019 00:57:17 12.8 C 34 %
3319 18-10-2019 01:07:17 12.6 C 35 %
3320 18-10-2019 01:17:17 12.4 C 35 %
3321 18-10-2019 01:27:17 12.1 C 35 %
3322 18-10-2019 01:37:18 12.2 C 35 %
3323 18-10-2019 01:47:17 12.1 C 35 %
3324 18-10-2019 01:57:17 11.8 C 35 %
3325 18-10-2019 02:07:18 11.8 C 36 %
Sensor: Nr:Datum:Temp:Feuchte:
Aussen-T/F 3326 18-10-2019 02:17:18 11.5 C 36 %
3327 18-10-2019 02:27:18 11.4 C 36 %
3328 18-10-2019 02:37:17 11.5 C 36 %
3329 18-10-2019 02:47:17 11.3 C 36 %
3330 18-10-2019 02:57:17 11.5 C 37 %
3331 18-10-2019 03:07:17 11.4 C 36 %
3332 18-10-2019 03:17:17 11.1 C 36 %
3333 18-10-2019 03:27:17 10.9 C 37 %
3334 18-10-2019 03:37:17 10.7 C 37 %
3335 18-10-2019 03:47:17 10.7 C 37 %
3336 18-10-2019 03:57:17 10.7 C 37 %
3337 18-10-2019 04:07:17 10.7 C 37 %
3338 18-10-2019 04:17:17 10.8 C 37 %
3339 18-10-2019 04:27:17 11.1 C 36 %
3340 18-10-2019 04:37:18 10.9 C 37 %
3341 18-10-2019 04:47:17 10.9 C 37 %
3342 18-10-2019 04:57:17 10.9 C 37 %
3343 18-10-2019 05:07:18 10.9 C 37 %
3344 18-10-2019 05:17:17 10.8 C 37 %
3345 18-10-2019 05:27:17 11.1 C 36 %
3346 18-10-2019 05:37:17 11.5 C 36 %
3347 18-10-2019 05:47:17 11.8 C 36 %
3348 18-10-2019 05:57:17 11.9 C 36 %
3349 18-10-2019 06:07:18 12.2 C 36 %
3350 18-10-2019 06:17:17 11.9 C 36 %
Sensor: Nr:Datum:Temp:Feuchte:
Aussen-T/F 3351 18-10-2019 06:27:17 12 C 35 %
3352 18-10-2019 06:37:18 12.1 C 35 %
3353 18-10-2019 06:47:17 12.1 C 35 %
3354 18-10-2019 06:57:17 12 C 35 %
3355 18-10-2019 07:07:18 12.1 C 35 %
3356 18-10-2019 07:17:17 12.1 C 35 %
3357 18-10-2019 07:27:17 11.9 C 36 %
3358 18-10-2019 07:37:17 11.7 C 36 %
3359 18-10-2019 07:47:17 11.9 C 36 %
3360 18-10-2019 07:57:17 12 C 35 %
3361 18-10-2019 08:07:17 12.1 C 35 %
3362 18-10-2019 08:17:18 12.3 C 35 %
3363 18-10-2019 08:27:18 12.4 C 35 %
3364 18-10-2019 08:37:17 12.4 C 35 %
3365 18-10-2019 08:47:18 12.4 C 35 %
3366 18-10-2019 08:57:18 12.6 C 35 %
3367 18-10-2019 09:07:17 12.7 C 35 %
3368 18-10-2019 09:17:17 12.8 C 35 %
3369 18-10-2019 09:27:17 12.9 C 35 %
3370 18-10-2019 09:37:18 13.3 C 35 %
3371 18-10-2019 09:47:17 13.4 C 35 %
3372 18-10-2019 09:57:17 13.4 C 35 %
3373 18-10-2019 10:07:18 13.7 C 34 %
3374 18-10-2019 10:17:17 13.9 C 33 %
3375 18-10-2019 10:27:17 14.3 C 33 %
Sensor: Nr:Datum:Temp:Feuchte:
Aussen-T/F 3376 18-10-2019 10:37:17 14.4 C 32 %
3377 18-10-2019 10:47:17 14.7 C 32 %
3378 18-10-2019 10:57:17 15 C 30 %
3379 18-10-2019 11:07:17 15.1 C 27 %
3380 18-10-2019 11:17:17 15.2 C 27 %
3381 18-10-2019 11:27:17 15.7 C 20 %
3382 18-10-2019 11:37:17 16.1 C 20 %
3383 18-10-2019 11:47:18 15.7 C 20 %
3384 18-10-2019 11:57:18 15.7 C 20 %
3385 18-10-2019 12:07:17 15.6 C 20 %
3386 18-10-2019 12:17:17 16.4 C 20 %
3387 18-10-2019 12:27:17 16.8 C 20 %
3388 18-10-2019 12:37:17 16.9 C 20 %
3389 18-10-2019 12:47:18 16.8 C 20 %
3390 18-10-2019 12:57:18 17 C 20 %
3391 18-10-2019 13:07:17 17 C 20 %
3392 18-10-2019 13:17:17 17 C 20 %
3393 18-10-2019 13:27:17 13.8 C 20 %
3394 18-10-2019 13:37:17 12.4 C 20 %
3395 18-10-2019 13:47:17 12.1 C 22 %
3396 18-10-2019 13:57:17 11.9 C 23 %
3397 18-10-2019 14:07:17 12.4 C 20 %
3398 18-10-2019 14:17:17 13.4 C 20 %
3399 18-10-2019 14:27:17 13.7 C 20 %
3400 18-10-2019 14:37:18 13.4 C 20 %
Sensor: Nr:Datum:Temp:Feuchte:
Aussen-T/F 3401 18-10-2019 14:47:17 13.3 C 20 %
3402 18-10-2019 14:57:17 13.8 C 20 %
3403 18-10-2019 15:07:17 13.7 C 20 %
3404 18-10-2019 15:17:17 14.4 C 20 %
3405 18-10-2019 15:27:17 14.4 C 20 %
3406 18-10-2019 15:37:17 14.4 C 20 %
3407 18-10-2019 15:47:17 14.2 C 20 %
3408 18-10-2019 15:57:18 14.4 C 20 %
3409 18-10-2019 16:07:17 14.3 C 20 %
3410 18-10-2019 16:17:17 14.6 C 20 %
3411 18-10-2019 16:27:17 14.9 C 20 %
3412 18-10-2019 16:37:18 16.1 C 20 %
3413 18-10-2019 16:47:17 17.5 C 20 %
3414 18-10-2019 16:57:17 16.8 C 20 %
3415 18-10-2019 17:07:17 16.9 C 20 %
3416 18-10-2019 17:17:17 16.6 C 20 %
3417 18-10-2019 17:27:17 16.5 C 20 %
3418 18-10-2019 17:37:18 16.6 C 20 %
3419 18-10-2019 17:47:17 15.2 C 20 %
3420 18-10-2019 17:57:17 14.5 C 20 %
3421 18-10-2019 18:07:17 12.8 C 20 %
3422 18-10-2019 18:17:17 12.3 C 20 %
3423 18-10-2019 18:27:17 11.5 C 20 %
3424 18-10-2019 18:37:18 11.2 C 20 %
3425 18-10-2019 18:47:17 10.8 C 21 %
Sensor: Nr:Datum:Temp:Feuchte:
Aussen-T/F 3426 18-10-2019 18:57:17 10.6 C 22 %
3427 18-10-2019 19:07:17 10.4 C 25 %
3428 18-10-2019 19:17:17 10.4 C 23 %
3429 18-10-2019 19:27:17 10 C 25 %
3430 18-10-2019 19:37:18 9.7 C 26 %
3431 18-10-2019 19:47:17 9.5 C 28 %
3432 18-10-2019 19:57:17 9 C 30 %
3433 18-10-2019 20:07:18 9.1 C 30 %
3434 18-10-2019 20:17:17 9 C 30 %
3435 18-10-2019 20:27:17 9 C 31 %
3436 18-10-2019 20:37:17 9 C 31 %
3437 18-10-2019 20:47:17 9 C 31 %
3438 18-10-2019 20:57:17 8.7 C 32 %
3439 18-10-2019 21:07:17 8.5 C 32 %
3440 18-10-2019 21:17:17 8.5 C 33 %
3441 18-10-2019 21:27:17 8.3 C 33 %
3442 18-10-2019 21:37:17 8.4 C 35 %
3443 18-10-2019 21:47:17 8.5 C 35 %
3444 18-10-2019 21:57:17 8.6 C 36 %
3445 18-10-2019 22:07:17 8.6 C 35 %
3446 18-10-2019 22:17:17 8.7 C 36 %
3447 18-10-2019 22:27:17 8.7 C 36 %
3448 18-10-2019 22:37:17 8.6 C 35 %
3449 18-10-2019 22:47:17 8.7 C 35 %
3450 18-10-2019 22:57:17 8.6 C 35 %
Sensor: Nr:Datum:Temp:Feuchte:
Aussen-T/F 3451 18-10-2019 23:07:17 8.7 C 36 %
3452 18-10-2019 23:17:17 8.6 C 35 %
3453 18-10-2019 23:27:17 8.6 C 35 %
3454 18-10-2019 23:37:17 8.7 C 35 %
3455 18-10-2019 23:47:17 8.6 C 35 %
3456 18-10-2019 23:57:17 8.5 C 34 %
3457 19-10-2019 00:07:17 8.5 C 35 %
3458 19-10-2019 00:17:17 8.5 C 35 %
3459 19-10-2019 00:27:17 8.9 C 35 %
3460 19-10-2019 00:37:17 9.1 C 31 %
3461 19-10-2019 00:47:17 9.1 C 30 %
3462 19-10-2019 00:57:17 9 C 30 %
3463 19-10-2019 01:07:17 9.3 C 30 %
3464 19-10-2019 01:17:17 9.1 C 30 %
3465 19-10-2019 01:27:17 9.5 C 28 %
3466 19-10-2019 01:37:17 9.3 C 29 %
3467 19-10-2019 01:47:17 9 C 30 %
3468 19-10-2019 01:57:17 8.8 C 31 %
3469 19-10-2019 02:07:17 9 C 32 %
3470 19-10-2019 02:17:17 9 C 32 %
3471 19-10-2019 02:27:17 9.1 C 32 %
3472 19-10-2019 02:37:17 9.2 C 32 %
3473 19-10-2019 02:47:17 9.2 C 32 %
3474 19-10-2019 02:57:18 9.3 C 32 %
3475 19-10-2019 03:07:17 9.3 C 32 %
Sensor: Nr:Datum:Temp:Feuchte:
Aussen-T/F 3476 19-10-2019 03:17:18 9.3 C 32 %
3477 19-10-2019 03:27:18 9.3 C 32 %
3478 19-10-2019 03:37:17 9.3 C 31 %
3479 19-10-2019 03:47:17 9.4 C 31 %
3480 19-10-2019 03:57:17 9.4 C 31 %
3481 19-10-2019 04:07:17 9.4 C 31 %
3482 19-10-2019 04:17:18 9.4 C 31 %
3483 19-10-2019 04:27:18 9.5 C 32 %
3484 19-10-2019 04:37:17 9.7 C 31 %
3485 19-10-2019 04:47:18 9.8 C 31 %
3486 19-10-2019 04:57:18 10 C 30 %
3487 19-10-2019 05:07:17 10.2 C 30 %
3488 19-10-2019 05:17:18 10.2 C 30 %
3489 19-10-2019 05:27:18 10.5 C 28 %
3490 19-10-2019 05:37:17 10.5 C 28 %
3491 19-10-2019 05:47:17 10.2 C 28 %
3492 19-10-2019 05:57:17 10.2 C 29 %
3493 19-10-2019 06:07:17 10.2 C 29 %
3494 19-10-2019 06:17:18 10.2 C 30 %
3495 19-10-2019 06:27:18 10 C 30 %
3496 19-10-2019 06:37:17 9.9 C 32 %
3497 19-10-2019 06:47:17 9.8 C 32 %
3498 19-10-2019 06:57:17 10 C 31 %
3499 19-10-2019 07:07:17 10 C 31 %
3500 19-10-2019 07:17:17 10.1 C 31 %
Sensor: Nr:Datum:Temp:Feuchte:
Aussen-T/F 3501 19-10-2019 07:27:17 10.1 C 31 %
3502 19-10-2019 07:37:17 10.3 C 30 %
3503 19-10-2019 07:47:17 10.3 C 30 %
3504 19-10-2019 07:57:17 10.3 C 31 %
3505 19-10-2019 08:07:18 10.4 C 31 %
3506 19-10-2019 08:17:17 10.6 C 31 %
3507 19-10-2019 08:27:17 10.8 C 30 %
3508 19-10-2019 08:37:17 10.9 C 30 %
3509 19-10-2019 08:47:17 11 C 30 %
3510 19-10-2019 08:57:17 11.1 C 29 %
3511 19-10-2019 09:07:17 11.4 C 28 %
3512 19-10-2019 09:17:17 11.7 C 27 %
3513 19-10-2019 09:27:17 12 C 26 %
3514 19-10-2019 09:37:18 12.1 C 25 %
3515 19-10-2019 09:47:17 12.4 C 22 %
3516 19-10-2019 09:57:17 12.9 C 23 %
3517 19-10-2019 10:07:18 13 C 20 %
3518 19-10-2019 10:17:17 13.3 C 20 %
3519 19-10-2019 10:27:17 13.3 C 20 %
3520 19-10-2019 10:37:18 13.2 C 20 %
3521 19-10-2019 10:47:17 12.9 C 23 %
3522 19-10-2019 10:57:17 13.1 C 25 %
3523 19-10-2019 11:07:18 13.2 C 24 %
3524 19-10-2019 11:17:17 13.3 C 25 %
3525 19-10-2019 11:27:17 13.4 C 25 %
Sensor: Nr:Datum:Temp:Feuchte:
Aussen-T/F 3526 19-10-2019 11:37:17 13.8 C 24 %
3527 19-10-2019 11:47:17 14.5 C 20 %
3528 19-10-2019 11:57:17 14.9 C 20 %
3529 19-10-2019 12:07:17 15.7 C 20 %
3530 19-10-2019 12:17:17 15.6 C 20 %
3531 19-10-2019 12:27:17 15.8 C 20 %
3532 19-10-2019 12:37:17 16.1 C 20 %
3533 19-10-2019 12:47:18 16 C 20 %
3534 19-10-2019 12:57:18 16.4 C 20 %
3535 19-10-2019 13:07:17 16.7 C 20 %
3536 19-10-2019 13:17:17 17 C 20 %
3537 19-10-2019 13:27:17 16.4 C 20 %
3538 19-10-2019 13:37:18 17.1 C 20 %
3539 19-10-2019 13:47:17 17.3 C 20 %
3540 19-10-2019 13:57:17 17.7 C 20 %
3541 19-10-2019 14:07:17 17.7 C 20 %
3542 19-10-2019 14:17:17 17.7 C 20 %
3543 19-10-2019 14:27:18 17.6 C 20 %
3544 19-10-2019 14:37:18 17.8 C 20 %
3545 19-10-2019 14:47:18 17.8 C 20 %
3546 19-10-2019 14:57:18 17.5 C 20 %
3547 19-10-2019 15:07:18 17.5 C 20 %
3548 19-10-2019 15:17:17 18.3 C 20 %
3549 19-10-2019 15:27:17 17.9 C 20 %
3550 19-10-2019 15:37:17 17.7 C 20 %
Sensor: Nr:Datum:Temp:Feuchte:
Aussen-T/F 3551 19-10-2019 15:47:17 17.3 C 20 %
3552 19-10-2019 15:57:17 17.2 C 20 %
3553 19-10-2019 16:07:17 17.3 C 20 %
3554 19-10-2019 16:17:17 17.9 C 20 %
3555 19-10-2019 16:27:17 17.2 C 20 %
3556 19-10-2019 16:37:17 17.4 C 20 %
3557 19-10-2019 16:47:17 18.9 C 20 %
3558 19-10-2019 16:57:17 18.3 C 20 %
3559 19-10-2019 17:07:17 17.3 C 20 %
3560 19-10-2019 17:17:17 16.9 C 20 %
3561 19-10-2019 17:27:17 16.5 C 20 %
3562 19-10-2019 17:37:17 16 C 20 %
3563 19-10-2019 17:47:17 15.5 C 20 %
3564 19-10-2019 17:57:17 15.1 C 20 %
3565 19-10-2019 18:07:17 14.4 C 27 %
3566 19-10-2019 18:17:17 14.1 C 30 %
3567 19-10-2019 18:27:17 14 C 30 %
3568 19-10-2019 18:37:17 13.5 C 32 %
3569 19-10-2019 18:47:17 13.4 C 35 %
3570 19-10-2019 18:57:17 13.4 C 36 %
3571 19-10-2019 19:07:17 13.3 C 36 %
3572 19-10-2019 19:17:17 13.3 C 36 %
3573 19-10-2019 19:27:17 13.2 C 36 %
3574 19-10-2019 19:37:18 13.2 C 36 %
3575 19-10-2019 19:47:17 13.2 C 36 %
Sensor: Nr:Datum:Temp:Feuchte:
Aussen-T/F 3576 19-10-2019 19:57:17 13.1 C 36 %
3577 19-10-2019 20:07:17 13.1 C 36 %
3578 19-10-2019 20:17:17 13 C 36 %
3579 19-10-2019 20:27:17 12.9 C 36 %
3580 19-10-2019 20:37:18 12.9 C 36 %
3581 19-10-2019 20:47:17 12.9 C 36 %
3582 19-10-2019 20:57:17 13 C 35 %
3583 19-10-2019 21:07:18 13 C 35 %
3584 19-10-2019 21:17:18 13 C 35 %
3585 19-10-2019 21:27:18 13 C 35 %
3586 19-10-2019 21:37:18 13 C 34 %
3587 19-10-2019 21:47:17 12.9 C 35 %
3588 19-10-2019 21:57:17 12.8 C 35 %
3589 19-10-2019 22:07:17 12.8 C 36 %
3590 19-10-2019 22:17:17 12.7 C 36 %
3591 19-10-2019 22:27:17 12.6 C 36 %
3592 19-10-2019 22:37:17 12.6 C 36 %
3593 19-10-2019 22:47:17 12.5 C 36 %
3594 19-10-2019 22:57:17 12.5 C 36 %
3595 19-10-2019 23:07:17 12.4 C 36 %
3596 19-10-2019 23:17:17 12.4 C 36 %
3597 19-10-2019 23:27:17 12.4 C 36 %
3598 19-10-2019 23:37:17 12.4 C 36 %
3599 19-10-2019 23:47:17 12.3 C 36 %
3600 19-10-2019 23:57:17 12.4 C 36 %
Sensor: Nr:Datum:Temp:Feuchte:
Aussen-T/F 3601 20-10-2019 00:07:17 12.4 C 36 %
3602 20-10-2019 00:17:17 12.4 C 36 %
3603 20-10-2019 00:27:17 12.5 C 36 %
3604 20-10-2019 00:37:17 12.5 C 36 %
3605 20-10-2019 00:47:17 12.5 C 36 %
3606 20-10-2019 00:57:17 12.5 C 36 %
3607 20-10-2019 01:07:18 12.6 C 36 %
3608 20-10-2019 01:17:17 12.6 C 36 %
3609 20-10-2019 01:27:17 12.6 C 36 %
3610 20-10-2019 01:37:17 12.6 C 36 %
3611 20-10-2019 01:47:17 12.6 C 36 %
3612 20-10-2019 01:57:17 12.6 C 36 %
3613 20-10-2019 02:07:17 12.6 C 36 %
3614 20-10-2019 02:17:17 12.6 C 35 %
3615 20-10-2019 02:27:17 12.5 C 35 %
3616 20-10-2019 02:37:17 12.5 C 35 %
3617 20-10-2019 02:47:17 12.5 C 35 %
3618 20-10-2019 02:57:17 12.5 C 35 %
3619 20-10-2019 03:07:18 12.5 C 35 %
3620 20-10-2019 03:17:18 12.5 C 35 %
3621 20-10-2019 03:27:18 12.5 C 35 %
3622 20-10-2019 03:37:18 12.6 C 35 %
3623 20-10-2019 03:47:17 12.6 C 35 %
3624 20-10-2019 03:57:17 12.6 C 35 %
3625 20-10-2019 04:07:17 12.6 C 35 %
Sensor: Nr:Datum:Temp:Feuchte:
Aussen-T/F 3626 20-10-2019 04:17:17 12.6 C 35 %
3627 20-10-2019 04:27:17 12.6 C 35 %
3628 20-10-2019 04:37:17 12.6 C 35 %
3629 20-10-2019 04:47:17 12.5 C 35 %
3630 20-10-2019 04:57:17 12.5 C 35 %
3631 20-10-2019 05:07:18 12.5 C 35 %
3632 20-10-2019 05:17:17 12.4 C 35 %
3633 20-10-2019 05:27:17 12.3 C 35 %
3634 20-10-2019 05:37:17 12.3 C 35 %
3635 20-10-2019 05:47:17 12.3 C 35 %
3636 20-10-2019 05:57:17 12.2 C 35 %
3637 20-10-2019 06:07:17 12.2 C 35 %
3638 20-10-2019 06:17:17 12.1 C 35 %
3639 20-10-2019 06:27:17 12 C 35 %
3640 20-10-2019 06:37:18 12 C 35 %
3641 20-10-2019 06:47:17 12 C 35 %
3642 20-10-2019 06:57:17 12 C 35 %
3643 20-10-2019 07:07:17 12 C 35 %
3644 20-10-2019 07:17:17 12 C 35 %
3645 20-10-2019 07:27:17 12.1 C 35 %
3646 20-10-2019 07:37:17 12.1 C 35 %
3647 20-10-2019 07:47:17 12.1 C 35 %
3648 20-10-2019 07:57:17 12 C 35 %
3649 20-10-2019 08:07:17 12 C 35 %
3650 20-10-2019 08:17:17 12 C 35 %
Sensor: Nr:Datum:Temp:Feuchte:
Aussen-T/F 3651 20-10-2019 08:27:17 12.1 C 35 %
3652 20-10-2019 08:37:18 12.2 C 35 %
3653 20-10-2019 08:47:17 12.2 C 35 %
3654 20-10-2019 08:57:17 12.3 C 35 %
3655 20-10-2019 09:07:17 12.5 C 35 %
3656 20-10-2019 09:17:17 12.4 C 35 %
3657 20-10-2019 09:27:17 12.4 C 35 %
3658 20-10-2019 09:37:17 12.5 C 35 %
3659 20-10-2019 09:47:17 12.4 C 35 %
3660 20-10-2019 09:57:17 12.4 C 35 %
3661 20-10-2019 10:07:17 12.5 C 35 %
3662 20-10-2019 10:17:17 12.7 C 35 %
3663 20-10-2019 10:27:17 12.6 C 35 %
3664 20-10-2019 10:37:17 12.7 C 35 %
3665 20-10-2019 10:47:17 12.7 C 35 %
3666 20-10-2019 10:57:17 12.6 C 34 %
3667 20-10-2019 11:07:18 12.8 C 35 %
3668 20-10-2019 11:17:17 12.8 C 35 %
3669 20-10-2019 11:27:17 12.8 C 34 %
3670 20-10-2019 11:37:17 12.9 C 34 %
3671 20-10-2019 11:47:17 13 C 33 %
3672 20-10-2019 11:57:17 13.1 C 33 %
3673 20-10-2019 12:07:18 13.2 C 33 %
3674 20-10-2019 12:17:17 13.2 C 33 %
3675 20-10-2019 12:27:17 13.4 C 34 %
Sensor: Nr:Datum:Temp:Feuchte:
Aussen-T/F 3676 20-10-2019 12:37:17 13.4 C 34 %
3677 20-10-2019 12:47:17 13.6 C 33 %
3678 20-10-2019 12:57:17 13.5 C 33 %
3679 20-10-2019 13:07:17 13.5 C 33 %
3680 20-10-2019 13:17:17 13.5 C 33 %
3681 20-10-2019 13:27:17 13.5 C 33 %
3682 20-10-2019 13:37:17 13.5 C 34 %
3683 20-10-2019 13:47:17 13.6 C 35 %
3684 20-10-2019 13:57:17 13.9 C 33 %
3685 20-10-2019 14:07:17 13.8 C 33 %
3686 20-10-2019 14:17:17 13.7 C 33 %
3687 20-10-2019 14:27:17 13.7 C 33 %
3688 20-10-2019 14:37:17 13.9 C 34 %
3689 20-10-2019 14:47:17 14.1 C 34 %
3690 20-10-2019 14:57:17 14.1 C 33 %
3691 20-10-2019 15:07:17 14 C 33 %
3692 20-10-2019 15:17:17 14 C 35 %
3693 20-10-2019 15:27:17 14 C 35 %
3694 20-10-2019 15:37:17 14.1 C 35 %
3695 20-10-2019 15:47:17 14.1 C 35 %
3696 20-10-2019 15:57:17 14.2 C 35 %
3697 20-10-2019 16:07:17 14.4 C 35 %
3698 20-10-2019 16:17:17 14.5 C 34 %
3699 20-10-2019 16:27:17 14.4 C 34 %
3700 20-10-2019 16:37:18 14.5 C 34 %
Sensor: Nr:Datum:Temp:Feuchte:
Aussen-T/F 3701 20-10-2019 16:47:17 14.5 C 34 %
3702 20-10-2019 16:57:17 14.5 C 34 %
3703 20-10-2019 17:07:17 14.5 C 34 %
3704 20-10-2019 17:17:17 14.4 C 34 %
3705 20-10-2019 17:27:17 14.2 C 35 %
3706 20-10-2019 17:37:18 14.1 C 35 %
3707 20-10-2019 17:47:17 14.1 C 35 %
3708 20-10-2019 17:57:17 14 C 35 %
3709 20-10-2019 18:07:17 14 C 35 %
3710 20-10-2019 18:17:17 13.9 C 35 %
3711 20-10-2019 18:27:17 13.8 C 35 %
3712 20-10-2019 18:37:17 13.8 C 35 %
3713 20-10-2019 18:47:17 13.8 C 35 %
3714 20-10-2019 18:57:17 13.7 C 35 %
3715 20-10-2019 19:07:17 13.6 C 35 %
3716 20-10-2019 19:17:17 13.6 C 35 %
3717 20-10-2019 19:27:17 13.6 C 35 %
3718 20-10-2019 19:37:17 13.5 C 35 %
3719 20-10-2019 19:47:17 13.6 C 35 %
3720 20-10-2019 19:57:17 13.7 C 35 %
3721 20-10-2019 20:07:18 13.6 C 35 %
3722 20-10-2019 20:17:17 13.6 C 35 %
3723 20-10-2019 20:27:17 13.4 C 35 %
3724 20-10-2019 20:37:17 13 C 35 %
3725 20-10-2019 20:47:17 13.4 C 35 %
Sensor: Nr:Datum:Temp:Feuchte:
Aussen-T/F 3726 20-10-2019 20:57:17 13.4 C 35 %
3727 20-10-2019 21:07:18 13.5 C 35 %
3728 20-10-2019 21:17:17 13.6 C 35 %
3729 20-10-2019 21:27:17 13.5 C 35 %
3730 20-10-2019 21:37:17 13.5 C 35 %
3731 20-10-2019 21:47:17 13.5 C 35 %
3732 20-10-2019 21:57:17 13.5 C 35 %
3733 20-10-2019 22:07:17 13.5 C 35 %
3734 20-10-2019 22:17:17 13.5 C 35 %
3735 20-10-2019 22:27:17 13.4 C 35 %
3736 20-10-2019 22:37:17 13.4 C 35 %
3737 20-10-2019 22:47:17 13.4 C 35 %
3738 20-10-2019 22:57:17 13.3 C 35 %
3739 20-10-2019 23:07:17 13.4 C 35 %
3740 20-10-2019 23:17:17 13.4 C 35 %
3741 20-10-2019 23:27:17 13.4 C 35 %
3742 20-10-2019 23:37:17 13.5 C 35 %
3743 20-10-2019 23:47:17 13.6 C 35 %
3744 20-10-2019 23:57:17 13.6 C 35 %
3745 21-10-2019 00:07:17 13.5 C 35 %
3746 21-10-2019 00:17:17 13.4 C 35 %
3747 21-10-2019 00:27:17 13.8 C 35 %
3748 21-10-2019 00:37:17 13.8 C 35 %
3749 21-10-2019 00:47:17 14 C 35 %
3750 21-10-2019 00:57:17 14 C 34 %
Sensor: Nr:Datum:Temp:Feuchte:
Aussen-T/F 3751 21-10-2019 01:07:17 13.7 C 34 %
3752 21-10-2019 01:17:17 13.6 C 34 %
3753 21-10-2019 01:27:17 13.5 C 34 %
3754 21-10-2019 01:37:17 13.5 C 34 %
3755 21-10-2019 01:47:17 13.3 C 34 %
3756 21-10-2019 01:57:17 13.3 C 34 %
3757 21-10-2019 02:07:18 13.2 C 34 %
3758 21-10-2019 02:17:17 13 C 34 %
3759 21-10-2019 02:27:17 12.9 C 35 %
3760 21-10-2019 02:37:17 13.1 C 34 %
3761 21-10-2019 02:47:17 13.1 C 35 %
3762 21-10-2019 02:57:17 13 C 34 %
3763 21-10-2019 03:07:18 13.2 C 35 %
3764 21-10-2019 03:17:17 13.1 C 35 %
3765 21-10-2019 03:27:17 13 C 35 %
3766 21-10-2019 03:37:17 13 C 34 %
3767 21-10-2019 03:47:17 13 C 34 %
3768 21-10-2019 03:57:17 12.8 C 35 %
3769 21-10-2019 04:07:17 12.8 C 35 %
3770 21-10-2019 04:17:17 12.6 C 35 %
3771 21-10-2019 04:27:17 12.2 C 34 %
3772 21-10-2019 04:37:17 12 C 34 %
3773 21-10-2019 04:47:17 12.2 C 35 %
3774 21-10-2019 04:57:17 12.3 C 35 %
3775 21-10-2019 05:07:18 12.4 C 35 %
Sensor: Nr:Datum:Temp:Feuchte:
Aussen-T/F 3776 21-10-2019 05:17:18 12.8 C 35 %
3777 21-10-2019 05:27:18 13 C 35 %
3778 21-10-2019 05:37:17 13 C 35 %
3779 21-10-2019 05:47:17 13 C 35 %
3780 21-10-2019 05:57:17 12.8 C 35 %
3781 21-10-2019 06:07:17 12.9 C 35 %
3782 21-10-2019 06:17:17 12.9 C 35 %
3783 21-10-2019 06:27:17 13.1 C 35 %
3784 21-10-2019 06:37:17 13.2 C 35 %
3785 21-10-2019 06:47:17 13.1 C 35 %
3786 21-10-2019 06:57:17 13 C 35 %
3787 21-10-2019 07:07:17 12.7 C 35 %
3788 21-10-2019 07:17:17 12.5 C 35 %
3789 21-10-2019 07:27:17 12.4 C 34 %
3790 21-10-2019 07:37:18 12.3 C 35 %
3791 21-10-2019 07:47:17 12.2 C 35 %
3792 21-10-2019 07:57:17 12.1 C 35 %
3793 21-10-2019 08:07:17 12 C 34 %
3794 21-10-2019 08:17:17 12 C 34 %
3795 21-10-2019 08:27:17 11.7 C 35 %
3796 21-10-2019 08:37:17 12 C 35 %
3797 21-10-2019 08:47:17 12.1 C 35 %
3798 21-10-2019 08:57:17 12.2 C 35 %
3799 21-10-2019 09:07:18 12.2 C 35 %
3800 21-10-2019 09:17:17 12.2 C 35 %
Sensor: Nr:Datum:Temp:Feuchte:
Aussen-T/F 3801 21-10-2019 09:27:17 12.1 C 35 %
3802 21-10-2019 09:37:17 12.3 C 35 %
3803 21-10-2019 09:47:17 12.1 C 35 %
3804 21-10-2019 09:57:17 12.2 C 35 %
3805 21-10-2019 10:07:17 12.2 C 35 %
3806 21-10-2019 10:17:17 12.5 C 35 %
3807 21-10-2019 10:27:17 13.1 C 38 %
3808 21-10-2019 10:37:17 13.5 C 39 %
3809 21-10-2019 10:47:17 13.8 C 39 %
3810 21-10-2019 10:57:17 13.3 C 36 %
3811 21-10-2019 11:07:18 13.4 C 35 %
3812 21-10-2019 11:17:18 13.3 C 33 %
3813 21-10-2019 11:27:18 13.3 C 33 %
3814 21-10-2019 11:37:18 13.8 C 32 %
3815 21-10-2019 11:47:17 13.7 C 32 %
3816 21-10-2019 11:57:17 14.2 C 31 %
3817 21-10-2019 12:07:17 14.1 C 30 %
3818 21-10-2019 12:17:17 14.6 C 30 %
3819 21-10-2019 12:27:17 14.9 C 27 %
3820 21-10-2019 12:37:17 15.4 C 24 %
3821 21-10-2019 12:47:17 15.9 C 20 %
3822 21-10-2019 12:57:17 16.1 C 20 %
3823 21-10-2019 13:07:18 16.5 C 20 %
3824 21-10-2019 13:17:18 17.2 C 20 %
3825 21-10-2019 13:27:18 17.5 C 20 %
Sensor: Nr:Datum:Temp:Feuchte:
Aussen-T/F 3826 21-10-2019 13:37:18 18.2 C 20 %
3827 21-10-2019 13:47:17 18.1 C 20 %
3828 21-10-2019 13:57:17 17.5 C 20 %
3829 21-10-2019 14:07:17 17.1 C 20 %
3830 21-10-2019 14:17:17 16.8 C 20 %
3831 21-10-2019 14:27:17 17.1 C 20 %
3832 21-10-2019 14:37:17 17 C 20 %
3833 21-10-2019 14:47:17 16.6 C 20 %
3834 21-10-2019 14:57:17 16.6 C 20 %
3835 21-10-2019 15:07:18 16.6 C 20 %
3836 21-10-2019 15:17:17 16.2 C 20 %
3837 21-10-2019 15:27:17 16.5 C 20 %
3838 21-10-2019 15:37:17 16.6 C 20 %
3839 21-10-2019 15:47:17 17.1 C 20 %
3840 21-10-2019 15:57:17 17.1 C 20 %
3841 21-10-2019 16:07:17 16.4 C 20 %
3842 21-10-2019 16:17:17 15.9 C 20 %
3843 21-10-2019 16:27:17 15.7 C 20 %
3844 21-10-2019 16:37:17 15.4 C 20 %
3845 21-10-2019 16:47:17 15.2 C 20 %
3846 21-10-2019 16:57:17 15.2 C 20 %
3847 21-10-2019 17:07:18 14.7 C 20 %
3848 21-10-2019 17:17:17 14.7 C 20 %
3849 21-10-2019 17:27:17 14.8 C 20 %
3850 21-10-2019 17:37:17 14.1 C 20 %
Sensor: Nr:Datum:Temp:Feuchte:
Aussen-T/F 3851 21-10-2019 17:47:17 13.8 C 20 %
3852 21-10-2019 17:57:17 13.9 C 20 %
3853 21-10-2019 18:07:17 14 C 20 %
3854 21-10-2019 18:17:17 13.4 C 20 %
3855 21-10-2019 18:27:17 13.1 C 20 %
3856 21-10-2019 18:37:17 12.8 C 20 %
3857 21-10-2019 18:47:17 12.6 C 20 %
3858 21-10-2019 18:57:17 12.4 C 21 %
3859 21-10-2019 19:07:18 12.2 C 24 %
3860 21-10-2019 19:17:18 11.9 C 25 %
3861 21-10-2019 19:27:18 11.8 C 25 %
3862 21-10-2019 19:37:18 11.8 C 25 %
3863 21-10-2019 19:47:17 11.8 C 25 %
3864 21-10-2019 19:57:17 11.5 C 25 %
3865 21-10-2019 20:07:17 11.2 C 26 %
3866 21-10-2019 20:17:17 11.1 C 28 %
3867 21-10-2019 20:27:17 11 C 29 %
3868 21-10-2019 20:37:17 10.9 C 29 %
3869 21-10-2019 20:47:17 10.9 C 30 %
3870 21-10-2019 20:57:17 11 C 28 %
3871 21-10-2019 21:07:18 11 C 28 %
3872 21-10-2019 21:17:17 10.9 C 29 %
3873 21-10-2019 21:27:17 11 C 28 %
3874 21-10-2019 21:37:17 11 C 27 %
3875 21-10-2019 21:47:17 10.7 C 30 %
Sensor: Nr:Datum:Temp:Feuchte:
Aussen-T/F 3876 21-10-2019 21:57:17 10.8 C 30 %
3877 21-10-2019 22:07:17 10.9 C 31 %
3878 21-10-2019 22:17:17 10.9 C 30 %
3879 21-10-2019 22:27:17 11 C 28 %
3880 21-10-2019 22:37:17 11 C 28 %
3881 21-10-2019 22:47:17 11.1 C 26 %
3882 21-10-2019 22:57:17 11.1 C 28 %
3883 21-10-2019 23:07:18 11.1 C 27 %
3884 21-10-2019 23:17:18 11 C 27 %
3885 21-10-2019 23:27:18 10.6 C 28 %
3886 21-10-2019 23:37:18 10.2 C 30 %
3887 21-10-2019 23:47:17 10.4 C 29 %
3888 21-10-2019 23:57:18 10.2 C 30 %
3889 22-10-2019 00:07:17 10.2 C 30 %
3890 22-10-2019 00:17:17 10.2 C 31 %
3891 22-10-2019 00:27:17 10.4 C 31 %
3892 22-10-2019 00:37:17 10.3 C 31 %
3893 22-10-2019 00:47:17 10.4 C 30 %
3894 22-10-2019 00:57:17 10.4 C 31 %
3895 22-10-2019 01:07:17 10.5 C 31 %
3896 22-10-2019 01:17:17 10.6 C 31 %
3897 22-10-2019 01:27:17 10.6 C 30 %
3898 22-10-2019 01:37:17 10.5 C 31 %
3899 22-10-2019 01:47:17 10.5 C 31 %
3900 22-10-2019 01:57:17 10.7 C 30 %
Sensor: Nr:Datum:Temp:Feuchte:
Aussen-T/F 3901 22-10-2019 02:07:18 10.5 C 30 %
3902 22-10-2019 02:17:17 10.4 C 30 %
3903 22-10-2019 02:27:18 10.5 C 29 %
3904 22-10-2019 02:37:18 10.5 C 29 %
3905 22-10-2019 02:47:17 10.4 C 29 %
3906 22-10-2019 02:57:17 10.4 C 29 %
3907 22-10-2019 03:07:17 10.5 C 30 %
3908 22-10-2019 03:17:17 10.4 C 31 %
3909 22-10-2019 03:27:17 10.4 C 30 %
3910 22-10-2019 03:37:17 10.5 C 29 %
3911 22-10-2019 03:47:17 10.4 C 30 %
3912 22-10-2019 03:57:17 10.3 C 31 %
3913 22-10-2019 04:07:18 10.3 C 31 %
3914 22-10-2019 04:17:17 10.2 C 31 %
3915 22-10-2019 04:27:17 9.8 C 31 %
3916 22-10-2019 04:37:18 9.7 C 32 %
3917 22-10-2019 04:47:17 9.7 C 32 %
3918 22-10-2019 04:57:18 9.6 C 32 %
3919 22-10-2019 05:07:17 9.3 C 32 %
3920 22-10-2019 05:17:17 9.1 C 33 %
3921 22-10-2019 05:27:17 9 C 35 %
3922 22-10-2019 05:37:17 9.2 C 36 %
3923 22-10-2019 05:47:17 9.5 C 36 %
3924 22-10-2019 05:57:17 9.6 C 35 %
3925 22-10-2019 06:07:18 9.6 C 35 %
Sensor: Nr:Datum:Temp:Feuchte:
Aussen-T/F 3926 22-10-2019 06:17:17 9.5 C 34 %
3927 22-10-2019 06:27:17 9.5 C 35 %
3928 22-10-2019 06:37:17 9.6 C 33 %
3929 22-10-2019 06:47:17 9.6 C 32 %
3930 22-10-2019 06:57:17 9.6 C 33 %
3931 22-10-2019 07:07:17 9.6 C 34 %
3932 22-10-2019 07:17:17 9.6 C 34 %
3933 22-10-2019 07:27:17 9.2 C 33 %
3934 22-10-2019 07:37:17 9 C 34 %
3935 22-10-2019 07:47:17 9 C 35 %
3936 22-10-2019 07:57:17 9.3 C 34 %
3937 22-10-2019 08:07:17 9.4 C 32 %
3938 22-10-2019 08:17:17 9.5 C 32 %
3939 22-10-2019 08:27:17 9.6 C 33 %
3940 22-10-2019 08:37:17 9.6 C 35 %
3941 22-10-2019 08:47:17 9.7 C 35 %
3942 22-10-2019 08:57:17 9.8 C 34 %
3943 22-10-2019 09:07:18 9.9 C 34 %
3944 22-10-2019 09:17:17 10.1 C 30 %
3945 22-10-2019 09:27:17 10.5 C 25 %
3946 22-10-2019 09:37:17 10.6 C 22 %
3947 22-10-2019 09:47:17 10.8 C 22 %
3948 22-10-2019 09:57:17 11 C 21 %
3949 22-10-2019 10:07:17 11.1 C 20 %
3950 22-10-2019 10:17:17 11.7 C 20 %
Sensor: Nr:Datum:Temp:Feuchte:
Aussen-T/F 3951 22-10-2019 10:27:17 11.9 C 20 %
3952 22-10-2019 10:37:18 12 C 20 %
3953 22-10-2019 10:47:17 12.5 C 20 %
3954 22-10-2019 10:57:17 12.4 C 20 %
3955 22-10-2019 11:07:17 13.1 C 20 %
3956 22-10-2019 11:17:17 12.9 C 20 %
3957 22-10-2019 11:27:17 13.3 C 20 %
3958 22-10-2019 11:37:17 13.5 C 20 %
3959 22-10-2019 11:47:17 13.4 C 20 %
3960 22-10-2019 11:57:17 13.8 C 20 %
3961 22-10-2019 12:07:17 13.4 C 20 %
3962 22-10-2019 12:17:17 13.6 C 20 %
3963 22-10-2019 12:27:17 13.8 C 20 %
3964 22-10-2019 12:37:17 14 C 20 %
3965 22-10-2019 12:47:17 14.5 C 20 %
3966 22-10-2019 12:57:17 14.6 C 20 %
3967 22-10-2019 13:07:17 14.5 C 20 %
3968 22-10-2019 13:17:17 14.3 C 20 %
3969 22-10-2019 13:27:18 15.1 C 20 %
3970 22-10-2019 13:37:18 18.5 C 20 %
3971 22-10-2019 13:47:18 18.3 C 20 %
3972 22-10-2019 13:57:18 20.2 C 20 %
3973 22-10-2019 14:07:18 19 C 20 %
3974 22-10-2019 14:17:18 18.3 C 20 %
3975 22-10-2019 14:27:18 15.6 C 20 %
Sensor: Nr:Datum:Temp:Feuchte:
Aussen-T/F 3976 22-10-2019 14:37:17 15.1 C 20 %
3977 22-10-2019 14:47:17 14.8 C 20 %
3978 22-10-2019 14:57:17 14.5 C 20 %
3979 22-10-2019 15:07:17 14.2 C 20 %
3980 22-10-2019 15:17:17 14.3 C 20 %
3981 22-10-2019 15:27:17 14.7 C 20 %
3982 22-10-2019 15:37:17 14 C 20 %
3983 22-10-2019 15:47:17 14.1 C 20 %
3984 22-10-2019 15:57:17 13.7 C 20 %
3985 22-10-2019 16:07:18 14.7 C 20 %
3986 22-10-2019 16:17:17 14.1 C 20 %
3987 22-10-2019 16:27:17 13.7 C 20 %
3988 22-10-2019 16:37:18 15 C 20 %
3989 22-10-2019 16:47:17 13.9 C 20 %
3990 22-10-2019 16:57:17 13.7 C 20 %
3991 22-10-2019 17:07:17 16.4 C 20 %
3992 22-10-2019 17:17:17 16.8 C 20 %
3993 22-10-2019 17:27:17 16.1 C 20 %
3994 22-10-2019 17:37:18 14.4 C 20 %
3995 22-10-2019 17:47:17 13.3 C 20 %
3996 22-10-2019 17:57:17 12.5 C 20 %
3997 22-10-2019 18:07:17 12.1 C 20 %
3998 22-10-2019 18:17:17 11.8 C 20 %
3999 22-10-2019 18:27:17 11.4 C 20 %
4000 22-10-2019 18:37:17 11.4 C 23 %
Sensor: Nr:Datum:Temp:Feuchte:
Aussen-T/F 4001 22-10-2019 18:47:17 11.1 C 25 %
4002 22-10-2019 18:57:17 11.2 C 26 %
4003 22-10-2019 19:07:18 11 C 26 %
4004 22-10-2019 19:17:17 10.8 C 28 %
4005 22-10-2019 19:27:17 10.6 C 30 %
4006 22-10-2019 19:37:18 10.3 C 32 %
4007 22-10-2019 19:47:17 10.3 C 33 %
4008 22-10-2019 19:57:17 10.4 C 33 %
4009 22-10-2019 20:07:17 10 C 32 %
4010 22-10-2019 20:17:17 10 C 32 %
4011 22-10-2019 20:27:17 9.5 C 35 %
4012 22-10-2019 20:37:18 9.6 C 35 %
4013 22-10-2019 20:47:17 9.5 C 35 %
4014 22-10-2019 20:57:17 9.5 C 36 %
4015 22-10-2019 21:07:18 9.4 C 36 %
4016 22-10-2019 21:17:17 9 C 35 %
4017 22-10-2019 21:27:17 9.1 C 36 %
4018 22-10-2019 21:37:18 9.1 C 36 %
4019 22-10-2019 21:47:17 9.1 C 36 %
4020 22-10-2019 21:57:17 9.4 C 37 %
4021 22-10-2019 22:07:17 9.6 C 38 %
4022 22-10-2019 22:17:17 9.6 C 38 %
4023 22-10-2019 22:27:17 9.5 C 36 %
4024 22-10-2019 22:37:17 9.4 C 36 %
4025 22-10-2019 22:47:17 9.6 C 37 %
Sensor: Nr:Datum:Temp:Feuchte:
Aussen-T/F 4026 22-10-2019 22:57:17 9.4 C 36 %
4027 22-10-2019 23:07:17 9.4 C 36 %
4028 22-10-2019 23:17:18 9.4 C 36 %
4029 22-10-2019 23:27:18 9.1 C 35 %
4030 22-10-2019 23:37:17 8.7 C 36 %
4031 22-10-2019 23:47:17 8.7 C 36 %
4032 22-10-2019 23:57:18 8.4 C 36 %
4033 23-10-2019 00:07:17 8.2 C 36 %
4034 23-10-2019 00:17:18 8.1 C 36 %
4035 23-10-2019 00:27:18 8 C 36 %
4036 23-10-2019 00:37:17 7.9 C 37 %
4037 23-10-2019 00:47:17 7.8 C 37 %
4038 23-10-2019 00:57:17 7.8 C 37 %
4039 23-10-2019 01:07:17 7.9 C 37 %
4040 23-10-2019 01:17:17 7.8 C 38 %
4041 23-10-2019 01:27:17 7.6 C 37 %
4042 23-10-2019 01:37:17 7.6 C 37 %
4043 23-10-2019 01:47:17 7.6 C 37 %
4044 23-10-2019 01:57:18 7.5 C 37 %
4045 23-10-2019 02:07:17 7.4 C 37 %
4046 23-10-2019 02:17:18 7.3 C 37 %
4047 23-10-2019 02:27:18 7.4 C 38 %
4048 23-10-2019 02:37:17 7.3 C 37 %
4049 23-10-2019 02:47:17 7.1 C 37 %
4050 23-10-2019 02:57:17 7.4 C 38 %
Sensor: Nr:Datum:Temp:Feuchte:
Aussen-T/F 4051 23-10-2019 03:07:17 7.3 C 37 %
4052 23-10-2019 03:17:17 7.1 C 37 %
4053 23-10-2019 03:27:17 7.1 C 37 %
4054 23-10-2019 03:37:17 7.1 C 37 %
4055 23-10-2019 03:47:17 7.3 C 37 %
4056 23-10-2019 03:57:17 7.4 C 38 %
4057 23-10-2019 04:07:17 7.3 C 37 %
4058 23-10-2019 04:17:17 6.9 C 37 %
4059 23-10-2019 04:27:17 6.9 C 38 %
4060 23-10-2019 04:37:17 6.8 C 38 %
4061 23-10-2019 04:47:17 6.7 C 37 %
4062 23-10-2019 04:57:17 7.2 C 38 %
4063 23-10-2019 05:07:17 7.8 C 38 %
4064 23-10-2019 05:17:17 8 C 37 %
4065 23-10-2019 05:27:17 7.9 C 37 %
4066 23-10-2019 05:37:18 7.9 C 37 %
4067 23-10-2019 05:47:17 7.4 C 37 %
4068 23-10-2019 05:57:17 7.8 C 37 %
4069 23-10-2019 06:07:18 7.7 C 37 %
4070 23-10-2019 06:17:17 7.4 C 37 %
4071 23-10-2019 06:27:18 7.3 C 37 %
4072 23-10-2019 06:37:17 7.3 C 37 %
4073 23-10-2019 06:47:17 7.8 C 37 %
4074 23-10-2019 06:57:18 7.7 C 37 %
4075 23-10-2019 07:07:17 7.5 C 37 %
Sensor: Nr:Datum:Temp:Feuchte:
Aussen-T/F 4076 23-10-2019 07:17:17 7.3 C 37 %
4077 23-10-2019 07:27:18 7.3 C 37 %
4078 23-10-2019 07:37:17 7 C 36 %
4079 23-10-2019 07:47:17 7 C 37 %
4080 23-10-2019 07:57:17 6.7 C 37 %
4081 23-10-2019 08:07:17 6.8 C 37 %
4082 23-10-2019 08:17:17 7 C 37 %
4083 23-10-2019 08:27:17 7.5 C 37 %
4084 23-10-2019 08:37:17 7.6 C 37 %
4085 23-10-2019 08:47:17 7.7 C 37 %
4086 23-10-2019 08:57:17 7.7 C 37 %
4087 23-10-2019 09:07:18 7.7 C 37 %
4088 23-10-2019 09:17:17 8.3 C 37 %
4089 23-10-2019 09:27:17 8.3 C 37 %
4090 23-10-2019 09:37:17 8.6 C 37 %
4091 23-10-2019 09:47:17 8.5 C 37 %
4092 23-10-2019 09:57:17 8.8 C 37 %
4093 23-10-2019 10:07:17 8.9 C 37 %
4094 23-10-2019 10:17:17 9.1 C 36 %
4095 23-10-2019 10:27:17 9.2 C 36 %
4096 23-10-2019 10:37:17 9.5 C 36 %
4097 23-10-2019 10:47:17 10.1 C 36 %
4098 23-10-2019 10:57:17 10.1 C 36 %
4099 23-10-2019 11:07:17 10.5 C 34 %
4100 23-10-2019 11:17:17 10.8 C 34 %
Sensor: Nr:Datum:Temp:Feuchte:
Aussen-T/F 4101 23-10-2019 11:27:17 11.2 C 32 %
4102 23-10-2019 11:37:17 11.4 C 28 %
4103 23-10-2019 11:47:17 11.6 C 27 %
4104 23-10-2019 11:57:17 11.9 C 26 %
4105 23-10-2019 12:07:17 12 C 25 %
4106 23-10-2019 12:17:17 12.2 C 25 %
4107 23-10-2019 12:27:17 12.2 C 25 %
4108 23-10-2019 12:37:17 12.3 C 25 %
4109 23-10-2019 12:47:18 12.6 C 24 %
4110 23-10-2019 12:57:18 12.7 C 23 %
4111 23-10-2019 13:07:17 13 C 21 %
4112 23-10-2019 13:17:17 13.1 C 20 %
4113 23-10-2019 13:27:17 13.3 C 21 %
4114 23-10-2019 13:37:17 13.6 C 20 %
4115 23-10-2019 13:47:17 13.9 C 20 %
4116 23-10-2019 13:57:18 13.9 C 20 %
4117 23-10-2019 14:07:17 14.2 C 20 %
4118 23-10-2019 14:17:17 14.3 C 20 %
4119 23-10-2019 14:27:17 14.2 C 20 %
4120 23-10-2019 14:37:17 14.5 C 20 %
4121 23-10-2019 14:47:18 14.2 C 20 %
4122 23-10-2019 14:57:18 14.4 C 20 %
4123 23-10-2019 15:07:17 14.5 C 20 %
4124 23-10-2019 15:17:17 14.4 C 20 %
4125 23-10-2019 15:27:17 14.6 C 20 %
Sensor: Nr:Datum:Temp:Feuchte:
Aussen-T/F 4126 23-10-2019 15:37:17 14.7 C 20 %
4127 23-10-2019 15:47:17 14.7 C 20 %
4128 23-10-2019 15:57:17 14.7 C 20 %
4129 23-10-2019 16:07:17 14.9 C 20 %
4130 23-10-2019 16:17:17 14.9 C 20 %
4131 23-10-2019 16:27:17 15.1 C 20 %
4132 23-10-2019 16:37:17 15.1 C 20 %
4133 23-10-2019 16:47:17 15 C 20 %
4134 23-10-2019 16:57:17 15 C 20 %
4135 23-10-2019 17:07:18 14.7 C 22 %
4136 23-10-2019 17:17:17 14.4 C 23 %
4137 23-10-2019 17:27:17 14.4 C 23 %
4138 23-10-2019 17:37:17 14.4 C 23 %
4139 23-10-2019 17:47:17 14.1 C 24 %
4140 23-10-2019 17:57:17 13.9 C 25 %
4141 23-10-2019 18:07:17 13.7 C 26 %
4142 23-10-2019 18:17:17 13.5 C 27 %
4143 23-10-2019 18:27:17 13.3 C 27 %
4144 23-10-2019 18:37:18 13.3 C 28 %
4145 23-10-2019 18:47:17 13.3 C 28 %
4146 23-10-2019 18:57:17 12.8 C 30 %
4147 23-10-2019 19:07:17 12.8 C 30 %
4148 23-10-2019 19:17:17 12.8 C 30 %
4149 23-10-2019 19:27:17 12.8 C 30 %
4150 23-10-2019 19:37:17 12.8 C 30 %
Sensor: Nr:Datum:Temp:Feuchte:
Aussen-T/F 4151 23-10-2019 19:47:17 12.8 C 30 %
4152 23-10-2019 19:57:17 12.8 C 30 %
4153 23-10-2019 20:07:17 12.8 C 30 %
4154 23-10-2019 20:17:17 12.8 C 30 %
4155 23-10-2019 20:27:17 12.8 C 30 %
4156 23-10-2019 20:37:17 12.8 C 30 %
4157 23-10-2019 20:47:17 12.8 C 30 %
4158 23-10-2019 20:57:17 12.8 C 30 %
4159 23-10-2019 21:07:17 12.7 C 30 %
4160 23-10-2019 21:17:17 12.8 C 30 %
4161 23-10-2019 21:27:17 12.8 C 30 %
4162 23-10-2019 21:37:17 12.8 C 30 %
4163 23-10-2019 21:47:17 12.7 C 30 %
4164 23-10-2019 21:57:18 12.7 C 30 %
4165 23-10-2019 22:07:17 12.5 C 30 %
4166 23-10-2019 22:17:17 12.4 C 32 %
4167 23-10-2019 22:27:17 12.5 C 32 %
4168 23-10-2019 22:37:17 12.5 C 31 %
4169 23-10-2019 22:47:18 12.4 C 32 %
4170 23-10-2019 22:57:18 12.4 C 32 %
4171 23-10-2019 23:07:17 12.4 C 33 %
4172 23-10-2019 23:17:17 12.4 C 32 %
4173 23-10-2019 23:27:17 12.3 C 32 %
4174 23-10-2019 23:37:17 12.2 C 32 %
4175 23-10-2019 23:47:17 12 C 33 %
Sensor: Nr:Datum:Temp:Feuchte:
Aussen-T/F 4176 23-10-2019 23:57:17 12 C 33 %
4177 24-10-2019 00:07:18 11.9 C 34 %
4178 24-10-2019 00:17:17 11.8 C 35 %
4179 24-10-2019 00:27:17 11.7 C 35 %
4180 24-10-2019 00:37:17 11.7 C 35 %
4181 24-10-2019 00:47:17 11.5 C 36 %
4182 24-10-2019 00:57:17 11.4 C 36 %
4183 24-10-2019 01:07:18 11.4 C 36 %
4184 24-10-2019 01:17:17 11.4 C 36 %
4185 24-10-2019 01:27:17 11.4 C 36 %
4186 24-10-2019 01:37:17 11.7 C 37 %
4187 24-10-2019 01:47:17 11.9 C 37 %
4188 24-10-2019 01:57:17 11.9 C 37 %
4189 24-10-2019 02:07:17 12 C 35 %
4190 24-10-2019 02:17:17 12 C 35 %
4191 24-10-2019 02:27:17 11.4 C 35 %
4192 24-10-2019 02:37:17 11.4 C 36 %
4193 24-10-2019 02:47:17 11.4 C 36 %
4194 24-10-2019 02:57:17 11.4 C 36 %
4195 24-10-2019 03:07:17 11.3 C 36 %
4196 24-10-2019 03:17:17 11.1 C 36 %
4197 24-10-2019 03:27:17 11 C 36 %
4198 24-10-2019 03:37:17 11 C 36 %
4199 24-10-2019 03:47:18 10.8 C 37 %
4200 24-10-2019 03:57:18 10.8 C 37 %
Sensor: Nr:Datum:Temp:Feuchte:
Aussen-T/F 4201 24-10-2019 04:07:17 10.6 C 37 %
4202 24-10-2019 04:17:17 10.4 C 37 %
4203 24-10-2019 04:27:17 10.8 C 37 %
4204 24-10-2019 04:37:17 10.9 C 37 %
4205 24-10-2019 04:47:18 11 C 37 %
4206 24-10-2019 04:57:18 11 C 37 %
4207 24-10-2019 05:07:17 11.2 C 36 %
4208 24-10-2019 05:17:17 11.3 C 36 %
4209 24-10-2019 05:27:17 11.3 C 36 %
4210 24-10-2019 05:37:18 11.4 C 36 %
4211 24-10-2019 05:47:17 11.4 C 36 %
4212 24-10-2019 05:57:17 11.3 C 36 %
4213 24-10-2019 06:07:18 11.3 C 36 %
4214 24-10-2019 06:17:17 11 C 36 %
4215 24-10-2019 06:27:17 11.2 C 36 %
4216 24-10-2019 06:37:17 11.5 C 36 %
4217 24-10-2019 06:47:17 11.8 C 36 %
4218 24-10-2019 06:57:17 11.8 C 36 %
4219 24-10-2019 07:07:17 11.7 C 36 %
4220 24-10-2019 07:17:17 11.7 C 35 %
4221 24-10-2019 07:27:17 11.9 C 35 %
4222 24-10-2019 07:37:17 12 C 34 %
4223 24-10-2019 07:47:18 11.8 C 35 %
4224 24-10-2019 07:57:18 11.8 C 35 %
4225 24-10-2019 08:07:17 12 C 34 %
Sensor: Nr:Datum:Temp:Feuchte:
Aussen-T/F 4226 24-10-2019 08:17:17 12.1 C 33 %
4227 24-10-2019 08:27:17 12.2 C 33 %
4228 24-10-2019 08:37:17 12.2 C 32 %
4229 24-10-2019 08:47:18 12.2 C 32 %
4230 24-10-2019 08:57:18 12.4 C 33 %
4231 24-10-2019 09:07:17 12.5 C 32 %
4232 24-10-2019 09:17:17 12.7 C 31 %
4233 24-10-2019 09:27:17 12.7 C 30 %
4234 24-10-2019 09:37:17 12.7 C 30 %
4235 24-10-2019 09:47:17 12.9 C 31 %
4236 24-10-2019 09:57:18 13.2 C 28 %
4237 24-10-2019 10:07:17 13.4 C 26 %
4238 24-10-2019 10:17:17 13.5 C 27 %
4239 24-10-2019 10:27:17 13.9 C 27 %
4240 24-10-2019 10:37:17 14.1 C 25 %
4241 24-10-2019 10:47:17 14.3 C 23 %
4242 24-10-2019 10:57:17 14.8 C 24 %
4243 24-10-2019 11:07:18 15 C 20 %
4244 24-10-2019 11:17:17 15.2 C 20 %
4245 24-10-2019 11:27:18 15.2 C 20 %
4246 24-10-2019 11:37:17 15.4 C 20 %
4247 24-10-2019 11:47:17 15 C 20 %
4248 24-10-2019 11:57:17 15.1 C 20 %
4249 24-10-2019 12:07:17 14.6 C 23 %
4250 24-10-2019 12:17:17 14.4 C 25 %
Sensor: Nr:Datum:Temp:Feuchte:
Aussen-T/F 4251 24-10-2019 12:27:17 14.8 C 24 %
4252 24-10-2019 12:37:17 14.8 C 24 %
4253 24-10-2019 12:47:18 15.8 C 21 %
4254 24-10-2019 12:57:18 16.2 C 20 %
4255 24-10-2019 13:07:17 16.4 C 20 %
4256 24-10-2019 13:17:17 16.1 C 21 %
4257 24-10-2019 13:27:17 16.1 C 20 %
4258 24-10-2019 13:37:17 18.5 C 20 %
4259 24-10-2019 13:47:17 19.8 C 20 %
4260 24-10-2019 13:57:17 19.3 C 20 %
4261 24-10-2019 14:07:18 17.2 C 20 %
4262 24-10-2019 14:17:17 17.3 C 20 %
4263 24-10-2019 14:27:18 17.9 C 20 %
4264 24-10-2019 14:37:17 18.3 C 20 %
4265 24-10-2019 14:47:17 18.3 C 20 %
4266 24-10-2019 14:57:17 18.7 C 20 %
4267 24-10-2019 15:07:17 18.9 C 20 %
4268 24-10-2019 15:17:17 19.6 C 20 %
4269 24-10-2019 15:27:17 19.6 C 20 %
4270 24-10-2019 15:37:17 18.9 C 20 %
4271 24-10-2019 15:47:18 18.5 C 20 %
4272 24-10-2019 15:57:18 18.3 C 20 %
4273 24-10-2019 16:07:17 18.2 C 20 %
4274 24-10-2019 16:17:17 18.6 C 20 %
4275 24-10-2019 16:27:17 19.1 C 20 %
Sensor: Nr:Datum:Temp:Feuchte:
Aussen-T/F 4276 24-10-2019 16:37:17 20.1 C 20 %
4277 24-10-2019 16:47:17 20.9 C 20 %
4278 24-10-2019 16:57:17 19.5 C 20 %
4279 24-10-2019 17:07:17 19.5 C 20 %
4280 24-10-2019 17:17:17 19.8 C 20 %
4281 24-10-2019 17:27:17 19.1 C 20 %
4282 24-10-2019 17:37:17 17 C 20 %
4283 24-10-2019 17:47:17 16.6 C 20 %
4284 24-10-2019 17:57:17 16.6 C 20 %
4285 24-10-2019 18:07:17 15.7 C 20 %
4286 24-10-2019 18:17:17 15 C 20 %
4287 24-10-2019 18:27:17 14.9 C 20 %
4288 24-10-2019 18:37:17 14.8 C 20 %
4289 24-10-2019 18:47:18 14.9 C 20 %
4290 24-10-2019 18:57:18 14.6 C 20 %
4291 24-10-2019 19:07:18 14.3 C 21 %
4292 24-10-2019 19:17:17 14.1 C 21 %
4293 24-10-2019 19:27:17 14 C 22 %
4294 24-10-2019 19:37:17 14 C 22 %
4295 24-10-2019 19:47:17 13.6 C 23 %
4296 24-10-2019 19:57:17 13.4 C 24 %
4297 24-10-2019 20:07:18 13.4 C 25 %
4298 24-10-2019 20:17:17 13.4 C 25 %
4299 24-10-2019 20:27:17 13.2 C 25 %
4300 24-10-2019 20:37:17 13.2 C 25 %
Sensor: Nr:Datum:Temp:Feuchte:
Aussen-T/F 4301 24-10-2019 20:47:17 13.1 C 25 %
4302 24-10-2019 20:57:17 13.1 C 24 %
4303 24-10-2019 21:07:17 13.2 C 24 %
4304 24-10-2019 21:17:17 13 C 25 %
4305 24-10-2019 21:27:17 12.9 C 26 %
4306 24-10-2019 21:37:17 12.7 C 26 %
4307 24-10-2019 21:47:17 12.6 C 27 %
4308 24-10-2019 21:57:17 12.5 C 27 %
4309 24-10-2019 22:07:18 12.4 C 28 %
4310 24-10-2019 22:17:17 12.4 C 29 %
4311 24-10-2019 22:27:17 12.3 C 29 %
4312 24-10-2019 22:37:17 12.2 C 30 %
4313 24-10-2019 22:47:17 12.5 C 31 %
4314 24-10-2019 22:57:17 12.7 C 30 %
4315 24-10-2019 23:07:18 12.8 C 30 %
4316 24-10-2019 23:17:17 13 C 27 %
4317 24-10-2019 23:27:18 13 C 27 %
4318 24-10-2019 23:37:17 12.7 C 28 %
4319 24-10-2019 23:47:17 12.1 C 30 %
4320 24-10-2019 23:57:17 11.6 C 31 %
4321 25-10-2019 00:07:17 11.6 C 32 %
4322 25-10-2019 00:17:17 11.5 C 35 %
4323 25-10-2019 00:27:17 11.3 C 35 %
4324 25-10-2019 00:37:17 11.3 C 35 %
4325 25-10-2019 00:47:18 11.3 C 35 %
Sensor: Nr:Datum:Temp:Feuchte:
Aussen-T/F 4326 25-10-2019 00:57:18 11.5 C 36 %
4327 25-10-2019 01:07:17 11.3 C 35 %
4328 25-10-2019 01:17:17 11.1 C 35 %
4329 25-10-2019 01:27:17 11.2 C 36 %
4330 25-10-2019 01:37:17 11.1 C 35 %
4331 25-10-2019 01:47:17 11 C 34 %
4332 25-10-2019 01:57:17 10.8 C 35 %
4333 25-10-2019 02:07:17 10.8 C 35 %
4334 25-10-2019 02:17:17 10.8 C 36 %
4335 25-10-2019 02:27:17 10.9 C 35 %
4336 25-10-2019 02:37:18 10.6 C 35 %
4337 25-10-2019 02:47:17 11.8 C 35 %
4338 25-10-2019 02:57:17 11.4 C 30 %
4339 25-10-2019 03:07:17 11.3 C 30 %
4340 25-10-2019 03:17:17 11.9 C 27 %
4341 25-10-2019 03:27:17 12.4 C 25 %
4342 25-10-2019 03:37:17 12 C 26 %
4343 25-10-2019 03:47:17 12.5 C 26 %
4344 25-10-2019 03:57:18 12.7 C 26 %
4345 25-10-2019 04:07:17 12.1 C 26 %
4346 25-10-2019 04:17:17 12.4 C 26 %
4347 25-10-2019 04:27:17 12.9 C 24 %
4348 25-10-2019 04:37:17 13.3 C 20 %
4349 25-10-2019 04:47:17 13.5 C 20 %
4350 25-10-2019 04:57:17 12.3 C 25 %
Sensor: Nr:Datum:Temp:Feuchte:
Aussen-T/F 4351 25-10-2019 05:07:17 11.7 C 26 %
4352 25-10-2019 05:17:17 11.7 C 26 %
4353 25-10-2019 05:27:17 12.3 C 24 %
4354 25-10-2019 05:37:18 12.8 C 22 %
4355 25-10-2019 05:47:17 12.6 C 23 %
4356 25-10-2019 05:57:17 12.1 C 25 %
4357 25-10-2019 06:07:17 11.8 C 27 %
4358 25-10-2019 06:17:17 11.8 C 27 %
4359 25-10-2019 06:27:17 12.8 C 24 %
4360 25-10-2019 06:37:18 13.5 C 20 %
4361 25-10-2019 06:47:17 13.4 C 21 %
4362 25-10-2019 06:57:17 13.2 C 21 %
4363 25-10-2019 07:07:17 13.9 C 20 %
4364 25-10-2019 07:17:17 12.7 C 23 %
4365 25-10-2019 07:27:17 12.4 C 25 %
4366 25-10-2019 07:37:17 12.7 C 25 %
4367 25-10-2019 07:47:18 12.7 C 25 %
4368 25-10-2019 07:57:18 12.8 C 23 %
4369 25-10-2019 08:07:17 12.5 C 25 %
4370 25-10-2019 08:17:17 12.2 C 25 %
4371 25-10-2019 08:27:17 11.9 C 28 %
4372 25-10-2019 08:37:17 11.9 C 28 %
4373 25-10-2019 08:47:18 11.8 C 29 %
4374 25-10-2019 08:57:18 12 C 28 %
4375 25-10-2019 09:07:17 12.1 C 28 %
Sensor: Nr:Datum:Temp:Feuchte:
Aussen-T/F 4376 25-10-2019 09:17:17 12.6 C 27 %
4377 25-10-2019 09:27:17 13 C 24 %
4378 25-10-2019 09:37:17 13.1 C 21 %
4379 25-10-2019 09:47:17 13.5 C 20 %
4380 25-10-2019 09:57:17 13.4 C 21 %
4381 25-10-2019 10:07:18 13 C 23 %
4382 25-10-2019 10:17:17 13 C 23 %
4383 25-10-2019 10:27:17 13.9 C 20 %
4384 25-10-2019 10:37:17 14.2 C 20 %
4385 25-10-2019 10:47:17 14.4 C 20 %
4386 25-10-2019 10:57:17 14.8 C 20 %
4387 25-10-2019 11:07:17 14.8 C 20 %
4388 25-10-2019 11:17:17 14.9 C 20 %
4389 25-10-2019 11:27:17 15.1 C 20 %
4390 25-10-2019 11:37:18 15 C 20 %
4391 25-10-2019 11:47:17 15.1 C 20 %
4392 25-10-2019 11:57:17 15.1 C 20 %
4393 25-10-2019 12:07:17 15.2 C 20 %
4394 25-10-2019 12:17:17 15.2 C 20 %
4395 25-10-2019 12:27:17 15.3 C 20 %
4396 25-10-2019 12:37:17 15.4 C 20 %
4397 25-10-2019 12:47:17 15.8 C 20 %
4398 25-10-2019 12:57:18 16 C 20 %
4399 25-10-2019 13:07:17 16.6 C 20 %
4400 25-10-2019 13:17:17 16.6 C 20 %
Sensor: Nr:Datum:Temp:Feuchte:
Aussen-T/F 4401 25-10-2019 13:27:17 17.3 C 20 %
4402 25-10-2019 13:37:17 16.7 C 20 %
4403 25-10-2019 13:47:18 17.2 C 20 %
4404 25-10-2019 13:57:18 17.1 C 20 %
4405 25-10-2019 14:07:17 17.9 C 20 %
4406 25-10-2019 14:17:17 17.5 C 20 %
4407 25-10-2019 14:27:17 16.8 C 20 %
4408 25-10-2019 14:37:17 16.9 C 20 %
4409 25-10-2019 14:47:17 16.6 C 20 %
4410 25-10-2019 14:57:18 16.7 C 20 %
4411 25-10-2019 15:07:17 16.8 C 20 %
4412 25-10-2019 15:17:17 16.7 C 20 %
4413 25-10-2019 15:27:17 16.7 C 20 %
4414 25-10-2019 15:37:17 16.8 C 20 %
4415 25-10-2019 15:47:17 16.5 C 20 %
4416 25-10-2019 15:57:17 16.8 C 20 %
4417 25-10-2019 16:07:18 16.9 C 20 %
4418 25-10-2019 16:17:17 16.6 C 20 %
4419 25-10-2019 16:27:17 17 C 20 %
4420 25-10-2019 16:37:17 16.7 C 20 %
4421 25-10-2019 16:47:18 16.6 C 20 %
4422 25-10-2019 16:57:18 17.2 C 20 %
4423 25-10-2019 17:07:17 17.1 C 20 %
4424 25-10-2019 17:17:17 16 C 20 %
4425 25-10-2019 17:27:17 15.7 C 20 %
Sensor: Nr:Datum:Temp:Feuchte:
Aussen-T/F 4426 25-10-2019 17:37:17 14.2 C 20 %
4427 25-10-2019 17:47:17 13.6 C 20 %
4428 25-10-2019 17:57:17 13.4 C 20 %
4429 25-10-2019 18:07:17 12.8 C 20 %
4430 25-10-2019 18:17:17 12.3 C 20 %
4431 25-10-2019 18:27:17 12.3 C 20 %
4432 25-10-2019 18:37:17 12.2 C 20 %
4433 25-10-2019 18:47:18 11.8 C 22 %
4434 25-10-2019 18:57:18 11.7 C 24 %
4435 25-10-2019 19:07:17 11.7 C 25 %
4436 25-10-2019 19:17:17 11.2 C 26 %
4437 25-10-2019 19:27:17 11.1 C 27 %
4438 25-10-2019 19:37:17 11.1 C 27 %
4439 25-10-2019 19:47:18 11 C 28 %
4440 25-10-2019 19:57:18 10.9 C 28 %
4441 25-10-2019 20:07:17 11 C 28 %
4442 25-10-2019 20:17:17 10.7 C 28 %
4443 25-10-2019 20:27:17 10.6 C 28 %
4444 25-10-2019 20:37:17 10.5 C 29 %
4445 25-10-2019 20:47:18 10.5 C 30 %
4446 25-10-2019 20:57:18 10.6 C 30 %
4447 25-10-2019 21:07:17 10.7 C 29 %
4448 25-10-2019 21:17:17 10.3 C 30 %
4449 25-10-2019 21:27:17 10.1 C 30 %
4450 25-10-2019 21:37:17 10.3 C 32 %
Sensor: Nr:Datum:Temp:Feuchte:
Aussen-T/F 4451 25-10-2019 21:47:18 10 C 31 %
4452 25-10-2019 21:57:18 10 C 33 %
4453 25-10-2019 22:07:17 10.8 C 34 %
4454 25-10-2019 22:17:17 11 C 30 %
4455 25-10-2019 22:27:17 11 C 30 %
4456 25-10-2019 22:37:17 11 C 29 %
4457 25-10-2019 22:47:17 11.2 C 29 %
4458 25-10-2019 22:57:17 11.5 C 28 %
4459 25-10-2019 23:07:17 11.6 C 28 %
4460 25-10-2019 23:17:17 12.2 C 25 %
4461 25-10-2019 23:27:17 12.5 C 25 %
4462 25-10-2019 23:37:17 12.5 C 24 %
4463 25-10-2019 23:47:17 12.8 C 22 %
4464 25-10-2019 23:57:17 13 C 21 %
4465 26-10-2019 00:07:17 13.2 C 20 %
4466 26-10-2019 00:17:17 13.5 C 20 %
4467 26-10-2019 00:27:17 13.4 C 20 %
4468 26-10-2019 00:37:18 13.2 C 20 %
4469 26-10-2019 00:47:17 13.6 C 20 %
4470 26-10-2019 00:57:17 13.3 C 20 %
4471 26-10-2019 01:07:17 13 C 20 %
4472 26-10-2019 01:17:17 13.1 C 20 %
4473 26-10-2019 01:27:17 13.1 C 20 %
4474 26-10-2019 01:37:17 13.7 C 20 %
4475 26-10-2019 01:47:18 13.8 C 20 %
Sensor: Nr:Datum:Temp:Feuchte:
Aussen-T/F 4476 26-10-2019 01:57:18 14 C 20 %
4477 26-10-2019 02:07:17 13.6 C 20 %
4478 26-10-2019 02:17:17 12.7 C 21 %
4479 26-10-2019 02:27:17 12.7 C 21 %
4480 26-10-2019 02:37:17 12.1 C 25 %
4481 26-10-2019 02:47:18 11.8 C 27 %
4482 26-10-2019 02:57:18 11.7 C 28 %
4483 26-10-2019 03:07:17 11.4 C 30 %
4484 26-10-2019 03:17:17 11.2 C 30 %
4485 26-10-2019 03:27:17 11.2 C 31 %
4486 26-10-2019 03:37:17 11.1 C 32 %
4487 26-10-2019 03:47:17 10.8 C 33 %
4488 26-10-2019 03:57:17 10.7 C 33 %
4489 26-10-2019 04:07:17 10.5 C 35 %
4490 26-10-2019 04:17:17 11.1 C 35 %
4491 26-10-2019 04:27:17 10.7 C 37 %
4492 26-10-2019 04:37:17 10.9 C 35 %
4493 26-10-2019 04:47:17 11.6 C 30 %
4494 26-10-2019 04:57:17 11.8 C 28 %
4495 26-10-2019 05:07:17 12 C 26 %
4496 26-10-2019 05:17:17 12 C 26 %
4497 26-10-2019 05:27:17 12 C 26 %
4498 26-10-2019 05:37:17 11.9 C 27 %
4499 26-10-2019 05:47:18 11.4 C 29 %
4500 26-10-2019 05:57:18 11.2 C 30 %
Sensor: Nr:Datum:Temp:Feuchte:
Aussen-T/F 4501 26-10-2019 06:07:17 11.1 C 30 %
4502 26-10-2019 06:17:17 10.9 C 34 %
4503 26-10-2019 06:27:17 10.8 C 35 %
4504 26-10-2019 06:37:17 10.9 C 36 %
4505 26-10-2019 06:47:17 11 C 35 %
4506 26-10-2019 06:57:17 10.7 C 35 %
4507 26-10-2019 07:07:17 10.5 C 35 %
4508 26-10-2019 07:17:17 10.2 C 35 %
4509 26-10-2019 07:27:17 10.1 C 35 %
4510 26-10-2019 07:37:17 9.8 C 36 %
4511 26-10-2019 07:47:17 9.5 C 37 %
4512 26-10-2019 07:57:17 9.3 C 36 %
4513 26-10-2019 08:07:17 9.1 C 36 %
4514 26-10-2019 08:17:17 9 C 37 %
4515 26-10-2019 08:27:17 9 C 38 %
4516 26-10-2019 08:37:17 9.2 C 38 %
4517 26-10-2019 08:47:17 9.2 C 38 %
4518 26-10-2019 08:57:17 9.2 C 37 %
4519 26-10-2019 09:07:17 9.3 C 37 %
4520 26-10-2019 09:17:17 9.5 C 37 %
4521 26-10-2019 09:27:17 9.7 C 37 %
4522 26-10-2019 09:37:17 9.9 C 37 %
4523 26-10-2019 09:47:18 10 C 36 %
4524 26-10-2019 09:57:18 10.3 C 36 %
4525 26-10-2019 10:07:17 10.5 C 35 %
Sensor: Nr:Datum:Temp:Feuchte:
Aussen-T/F 4526 26-10-2019 10:17:17 10.7 C 35 %
4527 26-10-2019 10:27:17 10.7 C 35 %
4528 26-10-2019 10:37:17 11.3 C 33 %
4529 26-10-2019 10:47:18 11.5 C 33 %
4530 26-10-2019 10:57:18 11.7 C 32 %
4531 26-10-2019 11:07:17 12 C 31 %
4532 26-10-2019 11:17:17 12.4 C 31 %
4533 26-10-2019 11:27:17 12.7 C 30 %
4534 26-10-2019 11:37:17 13.2 C 28 %
4535 26-10-2019 11:47:18 13.4 C 26 %
4536 26-10-2019 11:57:18 13.6 C 26 %
4537 26-10-2019 12:07:17 13.8 C 25 %
4538 26-10-2019 12:17:17 14.2 C 23 %
4539 26-10-2019 12:27:17 14.4 C 25 %
4540 26-10-2019 12:37:17 14.7 C 23 %
4541 26-10-2019 12:47:17 14.8 C 23 %
4542 26-10-2019 12:57:18 15 C 20 %
4543 26-10-2019 13:07:18 15 C 20 %
4544 26-10-2019 13:17:17 14.9 C 21 %
4545 26-10-2019 13:27:17 15 C 20 %
4546 26-10-2019 13:37:17 16.3 C 20 %
4547 26-10-2019 13:47:18 18.5 C 20 %
4548 26-10-2019 13:57:18 20.9 C 20 %
4549 26-10-2019 14:07:17 20.6 C 20 %
4550 26-10-2019 14:17:17 17.8 C 20 %
Sensor: Nr:Datum:Temp:Feuchte:
Aussen-T/F 4551 26-10-2019 14:27:17 16.3 C 20 %
4552 26-10-2019 14:37:17 16.2 C 20 %
4553 26-10-2019 14:47:17 16.5 C 20 %
4554 26-10-2019 14:57:17 16.9 C 20 %
4555 26-10-2019 15:07:17 16.8 C 20 %
4556 26-10-2019 15:17:17 16.8 C 20 %
4557 26-10-2019 15:27:17 16.6 C 20 %
4558 26-10-2019 15:37:17 16.5 C 20 %
4559 26-10-2019 15:47:18 16.6 C 20 %
4560 26-10-2019 15:57:18 16.7 C 20 %
4561 26-10-2019 16:07:17 16.6 C 20 %
4562 26-10-2019 16:17:17 17 C 20 %
4563 26-10-2019 16:27:17 16.2 C 20 %
4564 26-10-2019 16:37:17 15.9 C 20 %
4565 26-10-2019 16:47:17 15.6 C 20 %
4566 26-10-2019 16:57:17 15.2 C 20 %
4567 26-10-2019 17:07:17 14.9 C 21 %
4568 26-10-2019 17:17:17 14.8 C 22 %
4569 26-10-2019 17:27:17 14.4 C 21 %
4570 26-10-2019 17:37:17 14.2 C 22 %
4571 26-10-2019 17:47:17 13.7 C 24 %
4572 26-10-2019 17:57:17 13.7 C 24 %
4573 26-10-2019 18:07:18 13.1 C 25 %
4574 26-10-2019 18:17:17 13.1 C 25 %
4575 26-10-2019 18:27:17 12.8 C 26 %
Sensor: Nr:Datum:Temp:Feuchte:
Aussen-T/F 4576 26-10-2019 18:37:17 12.4 C 26 %
4577 26-10-2019 18:47:17 12.2 C 27 %
4578 26-10-2019 18:57:17 12.3 C 27 %
4579 26-10-2019 19:07:18 11.9 C 28 %
4580 26-10-2019 19:17:17 11.9 C 30 %
4581 26-10-2019 19:27:17 11.8 C 30 %
4582 26-10-2019 19:37:17 11.8 C 31 %
4583 26-10-2019 19:47:17 11.9 C 30 %
4584 26-10-2019 19:57:17 12 C 29 %
4585 26-10-2019 20:07:17 12 C 29 %
4586 26-10-2019 20:17:17 12 C 28 %
4587 26-10-2019 20:27:17 12.3 C 28 %
4588 26-10-2019 20:37:17 12.4 C 28 %
4589 26-10-2019 20:47:17 12.3 C 27 %
4590 26-10-2019 20:57:18 12.3 C 27 %
4591 26-10-2019 21:07:17 12.4 C 28 %
4592 26-10-2019 21:17:17 12.2 C 27 %
4593 26-10-2019 21:27:17 12 C 28 %
4594 26-10-2019 21:37:17 12 C 29 %
4595 26-10-2019 21:47:17 12.2 C 30 %
4596 26-10-2019 21:57:17 11.8 C 32 %
4597 26-10-2019 22:07:17 11.8 C 33 %
4598 26-10-2019 22:17:17 11.8 C 32 %
4599 26-10-2019 22:27:17 11.8 C 31 %
4600 26-10-2019 22:37:18 11.8 C 32 %
Sensor: Nr:Datum:Temp:Feuchte:
Aussen-T/F 4601 26-10-2019 22:47:17 11.7 C 33 %
4602 26-10-2019 22:57:17 11.8 C 33 %
4603 26-10-2019 23:07:17 11.8 C 32 %
4604 26-10-2019 23:17:17 12.1 C 30 %
4605 26-10-2019 23:27:17 12.4 C 28 %
4606 26-10-2019 23:37:17 12.6 C 26 %
4607 26-10-2019 23:47:17 12.5 C 27 %
4608 26-10-2019 23:57:17 12.5 C 27 %
4609 27-10-2019 00:07:18 12.8 C 25 %
4610 27-10-2019 00:17:17 12.9 C 25 %
4611 27-10-2019 00:27:17 12.9 C 25 %
4612 27-10-2019 00:37:17 13.5 C 20 %
4613 27-10-2019 00:47:17 13.4 C 20 %
4614 27-10-2019 00:57:17 13.7 C 20 %
4615 27-10-2019 01:07:17 13 C 20 %
4616 27-10-2019 01:17:17 13.4 C 20 %
4617 27-10-2019 01:27:17 12.8 C 22 %
4618 27-10-2019 01:37:17 12.8 C 24 %
4619 27-10-2019 01:47:17 12.4 C 25 %
4620 27-10-2019 01:57:17 12.4 C 25 %
4621 27-10-2019 02:07:18 12.5 C 25 %
4622 27-10-2019 02:17:17 12.3 C 25 %
4623 27-10-2019 02:27:17 12.3 C 25 %
4624 27-10-2019 02:37:17 11.9 C 27 %
4625 27-10-2019 02:47:17 11.7 C 27 %
Sensor: Nr:Datum:Temp:Feuchte:
Aussen-T/F 4626 27-10-2019 02:57:17 11.8 C 27 %
4627 27-10-2019 03:07:17 12 C 25 %
4628 27-10-2019 03:17:17 12.1 C 25 %
4629 27-10-2019 03:27:17 12.1 C 25 %
4630 27-10-2019 03:37:18 12.2 C 25 %
4631 27-10-2019 03:47:17 11.9 C 26 %
4632 27-10-2019 03:57:17 11.9 C 27 %
4633 27-10-2019 04:07:17 11.6 C 27 %
4634 27-10-2019 04:07:17 11 C 32 %
4635 27-10-2019 04:17:17 11.7 C 28 %
4636 27-10-2019 04:17:17 11.2 C 31 %
4637 27-10-2019 04:27:17 11.4 C 29 %
4638 27-10-2019 04:27:17 11.2 C 30 %
4639 27-10-2019 04:37:17 11.2 C 30 %
4640 27-10-2019 04:37:17 11.5 C 30 %
4641 27-10-2019 04:47:17 10.9 C 31 %
4642 27-10-2019 04:47:18 12.1 C 25 %
4643 27-10-2019 04:57:18 11 C 33 %
4644 27-10-2019 04:57:18 12.5 C 22 %
4645 27-10-2019 05:07:17 12.1 C 25 %
4646 27-10-2019 05:17:17 13.2 C 20 %
4647 27-10-2019 05:27:17 13.2 C 20 %
4648 27-10-2019 05:37:17 13.4 C 20 %
4649 27-10-2019 05:47:17 13.3 C 20 %
4650 27-10-2019 05:57:18 14 C 20 %
Sensor: Nr:Datum:Temp:Feuchte:
Aussen-T/F 4651 27-10-2019 06:07:17 14.7 C 20 %
4652 27-10-2019 06:17:18 14.6 C 20 %
4653 27-10-2019 06:27:18 14.4 C 20 %
4654 27-10-2019 06:37:17 14.5 C 20 %
4655 27-10-2019 06:47:17